Provisional Data: Lackawanna River near Forest City, PA


Please select a monitoring station.
Please select start date.
Please select start date.

Toggle Unit: C/F Toggle Unit: C/F
Sample Time Temperature (C) Temperature (F) Specific Conductivity (mS/cm) pH   Turbidity (NTU+) DO (mg/L)
4/13/2022 12:00:00 AM 8.71 47.678 0.053 6.83 30.59 12.05
4/13/2022 12:15:00 AM 8.68 47.624 0.053 6.84 17.7 12.06
4/13/2022 12:30:00 AM 8.65 47.57 0.053 6.83 27.81 12.05
4/13/2022 12:45:00 AM 8.62 47.516 0.053 6.76 17.12 12.03
4/13/2022 1:00:00 AM 8.6 47.48 0.053 6.95 19.94 12.05
4/13/2022 1:15:00 AM 8.58 47.444 0.053 6.86 24.72 12.03
4/13/2022 1:30:00 AM 8.56 47.408 0.053 6.84 74.34 12.01
4/13/2022 1:45:00 AM 8.55 47.39 0.053 6.82 32.98 12.02
4/13/2022 2:00:00 AM 8.54 47.372 0.053 6.88 33.92 12.01
4/13/2022 2:15:00 AM 8.53 47.354 0.053 6.83 32.9 12.02
4/13/2022 2:30:00 AM 8.52 47.336 0.053 6.89 21.43 11.99
4/13/2022 2:45:00 AM 8.5 47.3 0.053 6.82 28.97 11.98
4/13/2022 3:00:00 AM 8.48 47.264 0.053 6.84 27.66 11.97
4/13/2022 3:15:00 AM 8.46 47.228 0.053 6.83 22.54 11.98
4/13/2022 3:30:00 AM 8.44 47.192 0.053 6.86 56.57 11.97
4/13/2022 3:45:00 AM 8.42 47.156 0.053 6.87 30.56 11.98
4/13/2022 4:00:00 AM 8.41 47.138 0.053 6.87 31.4 11.98
4/13/2022 4:15:00 AM 8.39 47.102 0.053 6.84 18.91 11.97
4/13/2022 4:30:00 AM 8.36 47.048 0.053 6.85 23.45 11.97
4/13/2022 4:45:00 AM 8.37 47.066 0.053 6.84 32.52 12
4/13/2022 5:00:00 AM 8.37 47.066 0.054 6.91 22.01 11.96
4/13/2022 5:15:00 AM 8.37 47.066 0.054 6.79 41.82 11.93
4/13/2022 5:30:00 AM 8.37 47.066 0.054 6.92 23.12 11.96
4/13/2022 5:45:00 AM 8.37 47.066 0.054 6.8 17.84 11.96
4/13/2022 6:00:00 AM 8.38 47.084 0.054 6.85 19.24 11.98
4/13/2022 6:15:00 AM 8.38 47.084 0.054 6.84 21.6 11.96
4/13/2022 6:30:00 AM 8.39 47.102 0.054 6.86 21.31 11.95
4/13/2022 6:45:00 AM 8.38 47.084 0.054 6.79 26.2 11.91
4/13/2022 7:00:00 AM 8.38 47.084 0.054 6.84 22.67 11.91
4/13/2022 7:15:00 AM 8.4 47.12 0.054 6.78 24.44 11.96
4/13/2022 7:30:00 AM 8.4 47.12 0.054 6.83 27.58 11.95
4/13/2022 7:45:00 AM 8.42 47.156 0.054 6.84 16.69 11.95
4/13/2022 8:00:00 AM 8.42 47.156 0.054 6.86 19.06 11.95
4/13/2022 8:15:00 AM 8.44 47.192 0.054 6.84 23.91 11.94
4/13/2022 8:30:00 AM 8.46 47.228 0.054 6.85 33.22 11.97
4/13/2022 8:45:00 AM 8.49 47.282 0.052 6.86 29.89 12.01
4/13/2022 9:00:00 AM 8.52 47.336 0.05 6.85 29.55 12.03
4/13/2022 9:15:00 AM 8.57 47.426 0.05 6.83 23.37 12.06
4/13/2022 9:30:00 AM 8.65 47.57 0.05 6.86 41.98 12.12
4/13/2022 9:45:00 AM 8.75 47.75 0.05 6.92 20.97 12.15
4/13/2022 10:00:00 AM 8.87 47.966 0.05 6.87 61.85 12.13
4/13/2022 10:15:00 AM 9.03 48.254 0.05 6.9 20.09 12.21
4/13/2022 10:30:00 AM 9.19 48.542 0.054 6.87 51.78 12.25
4/13/2022 10:45:00 AM 9.35 48.83 0.054 6.97 23.33 12.27
4/13/2022 11:00:00 AM 9.52 49.136 0.054 6.84 20.3 12.32
4/13/2022 11:15:00 AM 9.69 49.442 0.054 7.05 24.2 12.37
4/13/2022 11:30:00 AM 9.87 49.766 0.054 6.94 34.78 12.36
4/13/2022 11:45:00 AM 10.04 50.072 0.054 6.86 26.43 12.44
4/13/2022 12:00:00 PM 10.15 50.27 0.054 6.92 21.33 12.45
4/13/2022 12:15:00 PM 10.27 50.486 0.054 6.91 24.66 12.44
4/13/2022 12:30:00 PM 10.34 50.612 0.054 6.94 17.34 12.52
4/13/2022 12:45:00 PM 10.41 50.738 0.054 6.94 26.56 12.54
4/13/2022 1:00:00 PM 10.49 50.882 0.054 6.93 22.93 12.51
4/13/2022 1:15:00 PM 10.62 51.116 0.054 6.89 22.16 12.46
4/13/2022 1:30:00 PM 10.72 51.296 0.054 6.95 30.03 12.52
4/13/2022 1:45:00 PM 10.75 51.35 0.054 6.92 29.69 12.5
4/13/2022 2:00:00 PM 10.76 51.368 0.054 6.93 23.13 12.42
4/13/2022 2:15:00 PM 10.75 51.35 0.054 6.94 27.29 12.47
4/13/2022 2:30:00 PM 10.73 51.314 0.054 6.93 17.02 12.51
4/13/2022 2:45:00 PM 10.76 51.368 0.054 7.06 22.54 12.49
4/13/2022 3:00:00 PM 10.77 51.386 0.054 6.9 38.61 12.49
4/13/2022 3:15:00 PM 10.81 51.458 0.054 7 24.58 12.45
4/13/2022 3:30:00 PM 10.84 51.512 0.054 6.98 23.87 12.43
4/13/2022 3:45:00 PM 10.85 51.53 0.054 6.97 19.88 12.37
4/13/2022 4:00:00 PM 10.85 51.53 0.054 6.93 89.17 12.42
4/13/2022 4:15:00 PM 10.81 51.458 0.054 6.98 20.25 12.41
4/13/2022 4:30:00 PM 10.76 51.368 0.054 6.93 18.76 12.43
4/13/2022 4:45:00 PM 10.75 51.35 0.054 6.95 19.76 12.37
4/13/2022 5:00:00 PM 10.71 51.278 0.054 6.93 17.04 12.36
4/13/2022 5:15:00 PM 10.7 51.26 0.054 6.98 19.08 12.43
4/13/2022 5:30:00 PM 10.68 51.224 0.054 6.92 14.26 12.45
4/13/2022 5:45:00 PM 10.67 51.206 0.054 6.96 26.58 12.34
4/13/2022 6:00:00 PM 10.63 51.134 0.054 6.97 22.69 12.32
4/13/2022 6:15:00 PM 10.56 51.008 0.054 7 20.21 12.38
4/13/2022 6:30:00 PM 10.54 50.972 0.055 6.89 26.67 12.35
4/13/2022 6:45:00 PM 10.41 50.738 0.054 6.88 21.7 12.36
4/13/2022 7:00:00 PM 10.32 50.576 0.054 6.89 30.82 12.32
4/13/2022 7:15:00 PM 10.28 50.504 0.054 6.95 17.15 12.29
4/13/2022 7:30:00 PM 10.19 50.342 0.054 6.91 21.49 12.23
4/13/2022 7:45:00 PM 10.16 50.288 0.055 6.9 18.73 12.17
4/13/2022 8:00:00 PM 10.11 50.198 0.055 6.88 12.57 12.15
4/13/2022 8:15:00 PM 10.04 50.072 0.055 6.89 25.08 12.07
4/13/2022 8:30:00 PM 9.99 49.982 0.055 6.93 27.78 12.03
4/13/2022 8:45:00 PM 9.95 49.91 0.055 6.91 33.58 12.05
4/13/2022 9:00:00 PM 9.94 49.892 0.055 6.88 29.18 11.99
4/13/2022 9:15:00 PM 9.91 49.838 0.055 6.88 24.12 11.93
4/13/2022 9:30:00 PM 9.89 49.802 0.055 6.84 22.75 11.88
4/13/2022 9:45:00 PM 9.86 49.748 0.055 6.92 22.06 11.83
4/13/2022 10:00:00 PM 9.84 49.712 0.055 7.01 28.7 11.82
4/13/2022 10:15:00 PM 9.82 49.676 0.056 6.85 25.21 11.75
4/13/2022 10:30:00 PM 9.79 49.622 0.056 6.85 34.3 11.79
4/13/2022 10:45:00 PM 9.77 49.586 0.056 6.83 21.08 11.73
4/13/2022 11:00:00 PM 9.73 49.514 0.056 6.8 29.5 11.72
4/13/2022 11:15:00 PM 9.69 49.442 0.056 6.88 14.91 11.63
4/13/2022 11:30:00 PM 9.68 49.424 0.056 6.85 20.75 11.61
4/13/2022 11:45:00 PM 9.66 49.388 0.056 6.88 25.2 11.7
4/14/2022 12:00:00 AM 9.66 49.388 0.056 6.77 19.61 11.57
4/14/2022 12:15:00 AM 9.65 49.37 0.056 6.92 28.86 11.6
4/14/2022 12:30:00 AM 9.66 49.388 0.056 6.78 32.35 11.6
4/14/2022 12:45:00 AM 9.66 49.388 0.056 6.82 25.58 11.58
4/14/2022 1:00:00 AM 9.66 49.388 0.056 6.83 17.72 11.55
4/14/2022 1:15:00 AM 9.66 49.388 0.056 6.8 24.35 11.58
4/14/2022 1:30:00 AM 9.65 49.37 0.056 6.85 31.16 11.41
4/14/2022 1:45:00 AM 9.63 49.334 0.056 6.78 30.04 11.57
4/14/2022 2:00:00 AM 9.63 49.334 0.056 6.77 19.03 11.5
4/14/2022 2:15:00 AM 9.63 49.334 0.056 6.68 28.17 11.59
4/14/2022 2:30:00 AM 9.63 49.334 0.056 6.81 21.96 11.52
4/14/2022 2:45:00 AM 9.63 49.334 0.056 6.83 34.22 11.59
4/14/2022 3:00:00 AM 9.64 49.352 0.056 6.84 27.88 11.52
4/14/2022 3:15:00 AM 9.65 49.37 0.056 6.88 32.26 11.49
4/14/2022 3:30:00 AM 9.67 49.406 0.056 6.83 19.55 11.5
4/14/2022 3:45:00 AM 9.71 49.478 0.056 6.81 16.76 11.46
4/14/2022 4:00:00 AM 9.77 49.586 0.056 6.87 24.87 11.47
4/14/2022 4:15:00 AM 9.84 49.712 0.056 6.77 25.01 11.41
4/14/2022 4:30:00 AM 9.9 49.82 0.056 6.81 13.71 11.39
4/14/2022 4:45:00 AM 9.93 49.874 0.056 6.86 28.2 11.35
4/14/2022 5:00:00 AM 9.95 49.91 0.056 6.85 31.98 11.43
4/14/2022 5:15:00 AM 9.95 49.91 0.056 6.83 19.66 11.32
4/14/2022 5:30:00 AM 9.93 49.874 0.056 6.83 30.2 11.33
4/14/2022 5:45:00 AM 9.91 49.838 0.056 6.82 24.67 11.35
4/14/2022 6:00:00 AM 9.87 49.766 0.056 6.93 35.56 11.25
4/14/2022 6:15:00 AM 9.84 49.712 0.057 6.83 25.89 11.23
4/14/2022 6:30:00 AM 9.81 49.658 0.057 6.86 29.52 11.23
4/14/2022 6:45:00 AM 9.77 49.586 0.057 6.96 22.6 11.24
4/14/2022 7:00:00 AM 9.74 49.532 0.057 6.79 17.69 11.24
4/14/2022 7:15:00 AM 9.71 49.478 0.057 6.84 20.16 11.21
4/14/2022 7:30:00 AM 9.69 49.442 0.057 6.94 26.71 11.18
4/14/2022 7:45:00 AM 9.67 49.406 0.057 6.89 23 11.28
4/14/2022 8:00:00 AM 9.65 49.37 0.057 6.79 23.92 11.28
4/14/2022 8:15:00 AM 9.66 49.388 0.057 6.91 17.59 11.3
4/14/2022 8:30:00 AM 9.7 49.46 0.057 6.85 19.94 11.33
4/14/2022 8:45:00 AM 9.79 49.622 0.057 6.81 17.08 11.4
4/14/2022 9:00:00 AM 9.9 49.82 0.057 6.92 20.99 11.43
4/14/2022 9:15:00 AM 10.04 50.072 0.057 6.93 21.22 11.4
4/14/2022 9:30:00 AM 10.19 50.342 0.057 6.86 32.66 11.5
4/14/2022 9:45:00 AM 10.37 50.666 0.057 7.03 22.84 11.51
4/14/2022 10:00:00 AM 10.57 51.026 0.057 6.81 23.57 11.5
4/14/2022 10:15:00 AM 10.76 51.368 0.057 6.99 18.1 11.64
4/14/2022 10:30:00 AM 10.98 51.764 0.057 6.83 27.71 11.75
4/14/2022 10:45:00 AM 11.15 52.07 0.057 6.91 22.53 11.75
4/14/2022 11:00:00 AM 11.34 52.412 0.057 6.99 19.39 11.71
4/14/2022 11:15:00 AM 11.52 52.736 0.057 6.9 23.2 11.79
4/14/2022 11:30:00 AM 11.71 53.078 0.057 6.92 17.49 11.76
4/14/2022 11:45:00 AM 11.87 53.366 0.057 6.92 14.46 11.73
4/14/2022 12:00:00 PM 12.03 53.654 0.057 6.98 21.57 11.81
4/14/2022 12:15:00 PM 12.25 54.05 0.057 7.09 27.89 11.85
4/14/2022 12:30:00 PM 12.43 54.374 0.056 6.84 29.5 11.76
4/14/2022 12:45:00 PM 12.58 54.644 0.057 6.93 20.81 11.88
4/14/2022 1:00:00 PM 12.71 54.878 0.057 6.91 32.55 11.71
4/14/2022 1:15:00 PM 12.79 55.022 0.057 7.05 43.04 11.57
4/14/2022 1:30:00 PM 12.89 55.202 0.057 7.04 19.49 11.75
4/14/2022 1:45:00 PM 12.88 55.184 0.057 6.89 31.21 11.82
4/14/2022 2:00:00 PM 12.76 54.968 0.057 6.98 20.79 11.69
4/14/2022 2:15:00 PM 12.71 54.878 0.057 7.06 25.95 11.88
4/14/2022 2:30:00 PM 12.64 54.752 0.057 6.95 18.62 11.88
4/14/2022 2:45:00 PM 12.58 54.644 0.057 7 21.48 11.72
4/14/2022 3:00:00 PM 12.52 54.536 0.058 6.95 20.15 11.78
4/14/2022 3:15:00 PM 12.37 54.266 0.058 7 33.94 11.77
4/14/2022 3:30:00 PM 12.36 54.248 0.058 7.05 23.24 11.81
4/14/2022 3:45:00 PM 12.21 53.978 0.057 6.9 57.99 11.8
4/14/2022 4:00:00 PM 12.2 53.96 0.057 6.95 20.45 11.82
4/14/2022 4:15:00 PM 12.18 53.924 0.058 7.05 22.29 11.67
4/14/2022 4:30:00 PM 12.02 53.636 0.057 6.92 32.76 11.6
4/14/2022 4:45:00 PM 11.84 53.312 0.057 6.93 27.62 11.63
4/14/2022 5:00:00 PM 11.75 53.15 0.057 6.93 20.94 11.57
4/14/2022 5:15:00 PM 11.64 52.952 0.057 7.03 17.86 11.52
4/14/2022 5:30:00 PM 11.62 52.916 0.058 6.97 15.78 11.56
4/14/2022 5:45:00 PM 11.52 52.736 0.058 7 28.01 11.55
4/14/2022 6:00:00 PM 11.48 52.664 0.058 7 24.93 11.52
4/14/2022 6:15:00 PM 11.38 52.484 0.058 7.01 15 11.57
4/14/2022 6:30:00 PM 11.31 52.358 0.058 7.03 14.97 11.6
4/14/2022 6:45:00 PM 11.25 52.25 0.058 7.01 27.27 11.53
4/14/2022 7:00:00 PM 11.16 52.088 0.058 7.05 19.93 11.59
4/14/2022 7:15:00 PM 11.03 51.854 0.058 7.02 16.47 11.6
4/14/2022 7:30:00 PM 10.93 51.674 0.058 6.94 21.07 11.63
4/14/2022 7:45:00 PM 10.87 51.566 0.058 7 17.69 11.46
4/14/2022 8:00:00 PM 10.86 51.548 0.058 6.95 19.25 11.46
4/14/2022 8:15:00 PM 10.85 51.53 0.059 7 22.65 11.52
4/14/2022 8:30:00 PM 10.85 51.53 0.059 6.97 35.94 11.4
4/14/2022 8:45:00 PM 10.86 51.548 0.059 6.99 28.3 11.33
4/14/2022 9:00:00 PM 10.87 51.566 0.059 6.98 24.2 11.32
4/14/2022 9:15:00 PM 10.89 51.602 0.059 6.93 18.25 11.25
4/14/2022 9:30:00 PM 10.9 51.62 0.059 6.93 16.13 11.29
4/14/2022 9:45:00 PM 10.91 51.638 0.059 6.98 22.11 11.11
4/14/2022 10:00:00 PM 10.91 51.638 0.059 6.92 25.74 11.06
4/14/2022 10:15:00 PM 10.9 51.62 0.059 6.89 23.53 11
4/14/2022 10:30:00 PM 10.88 51.584 0.059 6.93 29.29 10.96
4/14/2022 10:45:00 PM 10.86 51.548 0.059 6.89 22.37 10.96
4/14/2022 11:00:00 PM 10.84 51.512 0.059 6.96 24.71 10.81
4/14/2022 11:15:00 PM 10.82 51.476 0.059 7.02 26.72 10.82
4/14/2022 11:30:00 PM 10.8 51.44 0.059 6.92 26.47 10.85
4/14/2022 11:45:00 PM 10.8 51.44 0.059 6.85 23.11 10.78
4/15/2022 12:00:00 AM 10.79 51.422 0.059 6.99 21.86 10.82
4/15/2022 12:15:00 AM 10.78 51.404 0.059 6.88 41.42 10.76
4/15/2022 12:30:00 AM 10.77 51.386 0.059 6.94 33.1 10.78
4/15/2022 12:45:00 AM 10.75 51.35 0.059 6.93 22.34 10.79
4/15/2022 1:00:00 AM 10.73 51.314 0.059 6.93 29.41 10.79
4/15/2022 1:15:00 AM 10.71 51.278 0.059 6.9 21.44 10.81
4/15/2022 1:30:00 AM 10.67 51.206 0.059 6.91 23.98 10.8
4/15/2022 1:45:00 AM 10.65 51.17 0.059 7.04 17.57 10.82
4/15/2022 2:00:00 AM 10.63 51.134 0.059 6.85 84.96 10.64
4/15/2022 2:15:00 AM 10.61 51.098 0.059 6.94 676.57 10.76
4/15/2022 2:30:00 AM 10.59 51.062 0.059 6.91 27.29 10.75
4/15/2022 2:45:00 AM 10.58 51.044 0.059 6.88 27.82 10.67
4/15/2022 3:00:00 AM 10.57 51.026 0.059 6.9 43.37 10.68
4/15/2022 3:15:00 AM 10.56 51.008 0.059 6.97 39.32 10.78
4/15/2022 3:30:00 AM 10.55 50.99 0.059 6.88 36.07 10.74
4/15/2022 3:45:00 AM 10.54 50.972 0.059 6.86 33.44 10.78
4/15/2022 4:00:00 AM 10.52 50.936 0.059 7.01 43.69 10.74
4/15/2022 4:15:00 AM 10.5 50.9 0.059 6.91 29.08 10.66
4/15/2022 4:30:00 AM 10.47 50.846 0.059 6.9 30.21 10.8
4/15/2022 4:45:00 AM 10.45 50.81 0.059 6.92 27.75 10.69
4/15/2022 5:00:00 AM 10.43 50.774 0.059 6.91 23.89 10.72
4/15/2022 5:15:00 AM 10.39 50.702 0.059 6.92 35.2 10.78
4/15/2022 5:30:00 AM 10.37 50.666 0.059 6.87 37.16 10.81
4/15/2022 5:45:00 AM 10.33 50.594 0.059 6.85 42.36 10.8
4/15/2022 6:00:00 AM 10.3 50.54 0.059 6.91 39.82 10.83
4/15/2022 6:15:00 AM 10.27 50.486 0.059 6.93 40.18 10.79
4/15/2022 6:30:00 AM 10.23 50.414 0.059 6.88 36.58 10.75
4/15/2022 6:45:00 AM 10.19 50.342 0.059 6.9 30.05 10.78
4/15/2022 7:00:00 AM 10.16 50.288 0.059 6.87 32.06 10.72
4/15/2022 7:15:00 AM 10.13 50.234 0.059 6.94 42.55 10.7
4/15/2022 7:30:00 AM 10.09 50.162 0.059 6.92 23.66 10.8
4/15/2022 7:45:00 AM 10.07 50.126 0.059 6.94 32.16 10.76
4/15/2022 8:00:00 AM 10.05 50.09 0.06 6.92 22.98 10.9
4/15/2022 8:15:00 AM 10.04 50.072 0.06 6.95 25.37 10.86
4/15/2022 8:30:00 AM 10.07 50.126 0.06 6.92 29.29 10.97
4/15/2022 8:45:00 AM 10.13 50.234 0.06 6.93 27.37 11.03
4/15/2022 9:00:00 AM 10.2 50.36 0.06 6.97 29.4 11.04
4/15/2022 9:15:00 AM 10.29 50.522 0.06 6.91 23.84 11.11
4/15/2022 9:30:00 AM 10.39 50.702 0.06 6.95 30.98 11.04
4/15/2022 9:45:00 AM 10.49 50.882 0.06 6.97 28.29 11.26
4/15/2022 10:00:00 AM 10.61 51.098 0.06 7.04 37.14 11.31
4/15/2022 10:15:00 AM 10.73 51.314 0.06 6.92 28.66 11.37
4/15/2022 10:30:00 AM 10.87 51.566 0.06 6.98 33.98 11.42
4/15/2022 10:45:00 AM 11.01 51.818 0.06 6.99 26.93 11.48
4/15/2022 11:00:00 AM 11.16 52.088 0.06 6.97 25 11.39
4/15/2022 11:15:00 AM 11.32 52.376 0.06 7 22.79 11.58
4/15/2022 11:30:00 AM 11.46 52.628 0.06 7 37.79 11.65
4/15/2022 11:45:00 AM 11.63 52.934 0.06 7.04 26.27 11.6
4/15/2022 12:00:00 PM 11.79 53.222 0.06 6.98 44.19 11.64
4/15/2022 12:15:00 PM 11.97 53.546 0.06 6.99 81.44 11.65
4/15/2022 12:30:00 PM 12.13 53.834 0.06 6.99 36.13 11.65
4/15/2022 12:45:00 PM 12.27 54.086 0.06 6.99 33.64 11.68
4/15/2022 1:00:00 PM 12.44 54.392 0.06 7.02 28.45 11.71
4/15/2022 1:15:00 PM 12.61 54.698 0.06 7.01 32.87 11.85
4/15/2022 1:30:00 PM 12.75 54.95 0.06 7.02 20.58 11.8
4/15/2022 1:45:00 PM 12.91 55.238 0.06 6.95 24.1 11.68
4/15/2022 2:00:00 PM 13.06 55.508 0.06 7.01 25.85 11.75
4/15/2022 2:15:00 PM 13.22 55.796 0.06 6.99 28.46 11.84
4/15/2022 2:30:00 PM 13.29 55.922 0.06 7.01 37.55 11.68
4/15/2022 2:45:00 PM 13.43 56.174 0.06 7.15 23.34 11.72
4/15/2022 3:00:00 PM 13.49 56.282 0.06 7.07 37.36 11.8
4/15/2022 3:15:00 PM 13.61 56.498 0.06 7.01 30.84 11.63
4/15/2022 3:30:00 PM 13.68 56.624 0.06 7.08 44.57 11.68
4/15/2022 3:45:00 PM 13.65 56.57 0.06 7.1 16.28 11.71
4/15/2022 4:00:00 PM 13.64 56.552 0.06 7.07 19.2 11.68
4/15/2022 4:15:00 PM 13.68 56.624 0.06 7.07 45.66 11.6
4/15/2022 4:30:00 PM 13.62 56.516 0.06 7.16 37.54 11.65
4/15/2022 4:45:00 PM 13.53 56.354 0.06 7 23.26 11.71
4/15/2022 5:00:00 PM 13.49 56.282 0.06 7.04 23.92 11.67
4/15/2022 5:15:00 PM 13.41 56.138 0.06 7.1 27.74 11.66
4/15/2022 5:30:00 PM 13.15 55.67 0.059 7.12 27.26 11.65
4/15/2022 5:45:00 PM 13 55.4 0.059 7.09 28.1 11.62
4/15/2022 6:00:00 PM 12.84 55.112 0.059 7.02 29.29 11.67
4/15/2022 6:15:00 PM 12.64 54.752 0.059 7.09 27.65 11.6
4/15/2022 6:30:00 PM 12.4 54.32 0.059 7.08 20.52 11.54
4/15/2022 6:45:00 PM 12.18 53.924 0.059 7.1 23.45 11.68
4/15/2022 7:00:00 PM 12 53.6 0.059 7.1 22.54 11.67
4/15/2022 7:15:00 PM 11.86 53.348 0.059 7.1 35.75 11.63
4/15/2022 7:30:00 PM 11.68 53.024 0.058 7.06 32.02 11.61
4/15/2022 7:45:00 PM 11.57 52.826 0.058 7.05 23.14 11.52
4/15/2022 8:00:00 PM 11.41 52.538 0.058 7.06 38.27 11.45
4/15/2022 8:15:00 PM 11.3 52.34 0.058 7.02 38.19 11.48
4/15/2022 8:30:00 PM 11.2 52.16 0.058 7.09 38.83 11.44
4/15/2022 8:45:00 PM 11.08 51.944 0.058 7.07 29.23 11.4
4/15/2022 9:00:00 PM 10.96 51.728 0.058 6.99 23.36 11.33
4/15/2022 9:15:00 PM 10.83 51.494 0.058 7 26.31 11.22
4/15/2022 9:30:00 PM 10.69 51.242 0.058 7.03 32.86 11.21
4/15/2022 9:45:00 PM 10.59 51.062 0.058 7.01 34.41 11.24
4/15/2022 10:00:00 PM 10.49 50.882 0.058 7.12 33.32 11.19
4/15/2022 10:15:00 PM 10.41 50.738 0.058 6.94 34.93 11.18
4/15/2022 10:30:00 PM 10.34 50.612 0.058 6.98 32.57 11.12
4/15/2022 10:45:00 PM 10.28 50.504 0.059 6.98 29.17 11.05
4/15/2022 11:00:00 PM 10.24 50.432 0.059 6.97 32.41 11.04
4/15/2022 11:15:00 PM 10.2 50.36 0.059 6.97 23.74 11.02
4/15/2022 11:30:00 PM 10.16 50.288 0.059 6.99 18.71 10.98
4/15/2022 11:45:00 PM 10.14 50.252 0.059 6.91 53.51 10.95
4/16/2022 12:00:00 AM 10.14 50.252 0.06 7 28.78 10.9
4/16/2022 12:15:00 AM 10.14 50.252 0.06 6.98 29.94 10.89
4/16/2022 12:30:00 AM 10.15 50.27 0.06 6.98 28.08 10.91
4/16/2022 12:45:00 AM 10.16 50.288 0.061 6.98 80.84 10.76
4/16/2022 1:00:00 AM 10.17 50.306 0.061 6.98 32.11 10.82
4/16/2022 1:15:00 AM 10.19 50.342 0.061 7.01 24.74 10.82
4/16/2022 1:30:00 AM 10.19 50.342 0.061 6.93 32.13 10.84
4/16/2022 1:45:00 AM 10.18 50.324 0.061 6.95 21.68 10.85
4/16/2022 2:00:00 AM 10.18 50.324 0.061 7 28.6 10.87
4/16/2022 2:15:00 AM 10.18 50.324 0.061 6.93 27.95 10.8
4/16/2022 2:30:00 AM 10.2 50.36 0.061 6.92 25.19 10.75
4/16/2022 2:45:00 AM 10.21 50.378 0.061 6.96 35.1 10.76
4/16/2022 3:00:00 AM 10.24 50.432 0.061 6.96 30.25 10.75
4/16/2022 3:15:00 AM 10.26 50.468 0.061 6.94 50.66 10.67
4/16/2022 3:30:00 AM 10.26 50.468 0.061 6.93 37.54 10.68
4/16/2022 3:45:00 AM 10.25 50.45 0.061 6.97 25.64 10.75
4/16/2022 4:00:00 AM 10.23 50.414 0.061 6.97 41.18 10.76
4/16/2022 4:15:00 AM 10.21 50.378 0.061 6.97 39.06 10.73
4/16/2022 4:30:00 AM 10.21 50.378 0.061 6.97 31.33 10.72
4/16/2022 4:45:00 AM 10.21 50.378 0.061 6.89 22.54 10.78
4/16/2022 5:00:00 AM 10.22 50.396 0.061 6.89 34.46 10.76
4/16/2022 5:15:00 AM 10.24 50.432 0.061 6.89 47.22 10.72
4/16/2022 5:30:00 AM 10.25 50.45 0.061 6.87 29.56 10.77
4/16/2022 5:45:00 AM 10.25 50.45 0.061 6.98 27.24 10.68
4/16/2022 6:00:00 AM 10.25 50.45 0.061 6.94 41.81 10.71
4/16/2022 6:15:00 AM 10.25 50.45 0.061 6.94 69.24 10.7
4/16/2022 6:30:00 AM 10.26 50.468 0.061 6.94 36.01 10.6
4/16/2022 6:45:00 AM 10.26 50.468 0.061 6.94 45.93 10.64
4/16/2022 7:00:00 AM 10.29 50.522 0.061 6.92 34.06 10.62
4/16/2022 7:15:00 AM 10.31 50.558 0.061 6.96 22.5 10.69
4/16/2022 7:30:00 AM 10.33 50.594 0.061 6.9 39.5 10.7
4/16/2022 7:45:00 AM 10.35 50.63 0.061 6.94 25.16 10.66
4/16/2022 8:00:00 AM 10.38 50.684 0.061 6.94 23.32 10.66
4/16/2022 8:15:00 AM 10.4 50.72 0.061 6.92 20.61 10.66
4/16/2022 8:30:00 AM 10.41 50.738 0.061 6.91 23.61 10.67
4/16/2022 8:45:00 AM 10.43 50.774 0.061 7.04 23.18 10.74
4/16/2022 9:00:00 AM 10.43 50.774 0.061 6.89 28.41 10.75
4/16/2022 9:15:00 AM 10.43 50.774 0.061 6.95 19.32 10.7
4/16/2022 9:30:00 AM 10.46 50.828 0.061 6.96 24.7 10.81
4/16/2022 9:45:00 AM 10.5 50.9 0.061 6.91 33.6 10.83
4/16/2022 10:00:00 AM 10.53 50.954 0.061 6.92 27.74 10.91
4/16/2022 10:15:00 AM 10.59 51.062 0.061 6.88 34.56 11.02
4/16/2022 10:30:00 AM 10.66 51.188 0.061 6.98 30.07 10.99
4/16/2022 10:45:00 AM 10.72 51.296 0.06 6.95 24.16 11.03
4/16/2022 11:00:00 AM 10.82 51.476 0.06 7.04 20.4 11.13
4/16/2022 11:15:00 AM 10.91 51.638 0.06 6.98 35.38 11.25
4/16/2022 11:30:00 AM 11.02 51.836 0.06 7.04 26.98 11.32
4/16/2022 11:45:00 AM 11.2 52.16 0.06 7.07 23.28 11.38
4/16/2022 12:00:00 PM 11.33 52.394 0.06 7.09 24.6 11.43
4/16/2022 12:15:00 PM 11.46 52.628 0.06 7.07 31.95 11.41
4/16/2022 12:30:00 PM 11.57 52.826 0.06 7.03 21.38 11.5
4/16/2022 12:45:00 PM 11.64 52.952 0.06 6.99 28.43 11.56
4/16/2022 1:00:00 PM 11.71 53.078 0.06 7.02 33.14 11.49
4/16/2022 1:15:00 PM 11.72 53.096 0.06 7.05 29.51 11.66
4/16/2022 1:30:00 PM 11.67 53.006 0.06 7.11 22.49 11.56
4/16/2022 1:45:00 PM 11.61 52.898 0.06 7.09 16.79 11.56
4/16/2022 2:00:00 PM 11.54 52.772 0.06 7.1 20.22 11.58
4/16/2022 2:15:00 PM 11.5 52.7 0.06 7.07 35.61 11.59
4/16/2022 2:30:00 PM 11.44 52.592 0.06 7.1 24.99 11.56
4/16/2022 2:45:00 PM 11.37 52.466 0.06 7.07 42.99 11.5
4/16/2022 3:00:00 PM 11.33 52.394 0.06 7.08 26.56 11.47
4/16/2022 3:15:00 PM 11.29 52.322 0.06 7.03 35.08 11.45
4/16/2022 3:30:00 PM 11.21 52.178 0.06 7.15 19.55 11.37
4/16/2022 3:45:00 PM 11.08 51.944 0.06 7.07 24.27 11.48
4/16/2022 4:00:00 PM 10.97 51.746 0.06 7.04 30.05 11.27
4/16/2022 4:15:00 PM 10.88 51.584 0.06 7.09 26.75 11.29
4/16/2022 4:30:00 PM 10.79 51.422 0.06 7.12 20.01 11.24
4/16/2022 4:45:00 PM 10.72 51.296 0.06 7.03 24.17 11.26
4/16/2022 5:00:00 PM 10.64 51.152 0.06 7.04 33.25 11.32
4/16/2022 5:15:00 PM 10.59 51.062 0.06 7.16 18.26 11.17
4/16/2022 5:30:00 PM 10.55 50.99 0.06 7.01 20.53 11.19
4/16/2022 5:45:00 PM 10.52 50.936 0.06 7.07 20.6 11.25
4/16/2022 6:00:00 PM 10.49 50.882 0.06 7.08 31.99 11.17
4/16/2022 6:15:00 PM 10.46 50.828 0.06 7.04 34.63 11.16
4/16/2022 6:30:00 PM 10.43 50.774 0.06 7.03 37.88 11.18
4/16/2022 6:45:00 PM 10.39 50.702 0.06 7.06 23.14 11.09
4/16/2022 7:00:00 PM 10.36 50.648 0.06 7.01 24.42 11.11
4/16/2022 7:15:00 PM 10.3 50.54 0.06 7.03 28.96 11.01
4/16/2022 7:30:00 PM 10.25 50.45 0.06 7.01 25.48 11.04
4/16/2022 7:45:00 PM 10.22 50.396 0.06 7.04 24.48 10.92
4/16/2022 8:00:00 PM 10.18 50.324 0.061 7.07 25.17 11
4/16/2022 8:15:00 PM 10.16 50.288 0.061 7.01 26.55 11
4/16/2022 8:30:00 PM 10.14 50.252 0.061 7.02 30.94 10.97
4/16/2022 8:45:00 PM 10.12 50.216 0.061 7.04 66.32 10.9
4/16/2022 9:00:00 PM 10.11 50.198 0.061 6.98 28.54 10.83
4/16/2022 9:15:00 PM 10.08 50.144 0.061 6.98 23.45 10.89
4/16/2022 9:30:00 PM 10.05 50.09 0.061 7 35.31 10.87
4/16/2022 9:45:00 PM 10.02 50.036 0.061 7 29.76 10.85
4/16/2022 10:00:00 PM 9.99 49.982 0.061 6.99 32.72 10.81
4/16/2022 10:15:00 PM 9.97 49.946 0.061 6.94 35.02 10.83
4/16/2022 10:30:00 PM 9.94 49.892 0.061 6.88 32.82 10.82
4/16/2022 10:45:00 PM 9.92 49.856 0.061 7 25.75 10.87
4/16/2022 11:00:00 PM 9.9 49.82 0.061 7.01 34.83 10.83
4/16/2022 11:15:00 PM 9.88 49.784 0.061 7.01 31.7 10.83
4/16/2022 11:30:00 PM 9.86 49.748 0.061 6.95 65.47 10.62
4/16/2022 11:45:00 PM 9.86 49.748 0.062 6.93 57.49 10.48
4/17/2022 12:00:00 AM 9.82 49.676 0.061 7.15 29.38 10.83
4/17/2022 12:15:00 AM 9.77 49.586 0.061 7.01 50.53 10.76
4/17/2022 12:30:00 AM 9.72 49.496 0.061 6.96 39.67 10.83
4/17/2022 12:45:00 AM 9.66 49.388 0.061 7.01 39.61 10.74
4/17/2022 1:00:00 AM 9.61 49.298 0.061 6.97 27.23 10.82
4/17/2022 1:15:00 AM 9.55 49.19 0.061 6.96 40.69 10.86
4/17/2022 1:30:00 AM 9.5 49.1 0.061 6.99 36.07 10.89
4/17/2022 1:45:00 AM 9.45 49.01 0.061 6.98 38.05 10.91
4/17/2022 2:00:00 AM 9.4 48.92 0.061 6.94 37.57 10.93
4/17/2022 2:15:00 AM 9.37 48.866 0.061 6.95 20.24 10.92
4/17/2022 2:30:00 AM 9.35 48.83 0.061 6.96 37.8 10.81
4/17/2022 2:45:00 AM 9.3 48.74 0.061 6.98 31.6 10.87
4/17/2022 3:00:00 AM 9.27 48.686 0.061 6.91 68.15 10.78
4/17/2022 3:15:00 AM 9.24 48.632 0.061 6.91 72.27 10.84
4/17/2022 3:30:00 AM 9.19 48.542 0.061 6.97 30.82 10.84
4/17/2022 3:45:00 AM 9.13 48.434 0.061 6.99 35.7 10.87
4/17/2022 4:00:00 AM 9.05 48.29 0.061 6.97 39.45 10.86
4/17/2022 4:15:00 AM 9.01 48.218 0.061 6.96 27.45 10.84
4/17/2022 4:30:00 AM 8.97 48.146 0.061 7 26.04 10.9
4/17/2022 4:45:00 AM 8.94 48.092 0.061 6.94 31.19 10.82
4/17/2022 5:00:00 AM 8.9 48.02 0.06 7.04 28.57 10.94
4/17/2022 5:15:00 AM 8.85 47.93 0.06 6.96 40.58 10.86
4/17/2022 5:30:00 AM 8.8 47.84 0.061 6.97 30.34 10.95
4/17/2022 5:45:00 AM 8.77 47.786 0.06 6.99 20.59 10.95
4/17/2022 6:00:00 AM 8.71 47.678 0.06 7.01 32.66 10.84
4/17/2022 6:15:00 AM 8.61 47.498 0.06 6.99 41.82 11.06
4/17/2022 6:30:00 AM 8.52 47.336 0.06 7.01 36.76 11.05
4/17/2022 6:45:00 AM 8.45 47.21 0.06 6.9 41.96 11.09
4/17/2022 7:00:00 AM 8.38 47.084 0.06 6.97 26.86 11.14
4/17/2022 7:15:00 AM 8.35 47.03 0.061 6.96 29.79 11.17
4/17/2022 7:30:00 AM 8.31 46.958 0.061 6.98 36.37 11.15
4/17/2022 7:45:00 AM 8.27 46.886 0.061 6.91 46.34 11.23
4/17/2022 8:00:00 AM 8.24 46.832 0.061 7.01 45.14 11.28
4/17/2022 8:15:00 AM 8.22 46.796 0.061 7.01 41.4 11.27
4/17/2022 8:30:00 AM 8.18 46.724 0.061 6.93 25.99 11.36
4/17/2022 8:45:00 AM 8.18 46.724 0.061 6.98 49.91 11.4
4/17/2022 9:00:00 AM 8.19 46.742 0.061 7.01 25.8 11.48
4/17/2022 9:15:00 AM 8.21 46.778 0.06 7.08 32.38 11.53
4/17/2022 9:30:00 AM 8.25 46.85 0.061 6.98 33.26 11.56
4/17/2022 9:45:00 AM 8.31 46.958 0.061 7.03 24.6 11.64
4/17/2022 10:00:00 AM 8.35 47.03 0.061 7 41.93 11.74
4/17/2022 10:15:00 AM 8.41 47.138 0.061 6.98 40.24 11.76
4/17/2022 10:30:00 AM 8.47 47.246 0.061 7.01 33.4 11.89
4/17/2022 10:45:00 AM 8.51 47.318 0.061 7.03 39.08 11.95
4/17/2022 11:00:00 AM 8.51 47.318 0.061 7.04 27.51 11.96
4/17/2022 11:15:00 AM 8.54 47.372 0.061 7.1 38.21 12.04
4/17/2022 11:30:00 AM 8.62 47.516 0.061 7 28.16 12.03
4/17/2022 11:45:00 AM 8.65 47.57 0.06 7.12 34.89 12.06
4/17/2022 12:00:00 PM 8.66 47.588 0.06 7.08 29.46 12.06
4/17/2022 12:15:00 PM 8.8 47.84 0.06 7.09 31.58 12.15
4/17/2022 12:30:00 PM 8.86 47.948 0.06 7.12 27.42 12.18
4/17/2022 12:45:00 PM 8.92 48.056 0.06 7.11 40.13 12.04
4/17/2022 1:00:00 PM 8.93 48.074 0.06 7.11 26.51 12.14
4/17/2022 1:15:00 PM 9.03 48.254 0.06 7.11 30.77 12.2
4/17/2022 1:30:00 PM 9.12 48.416 0.06 7.12 27.88 12.12
4/17/2022 1:45:00 PM 9.11 48.398 0.06 7.1 38.65 12.16
4/17/2022 2:00:00 PM 9.13 48.434 0.06 7.08 34.83 12.25
4/17/2022 2:15:00 PM 9.17 48.506 0.06 7.11 32.28 12.25
4/17/2022 2:30:00 PM 9.2 48.56 0.06 7.17 20.62 12.34
4/17/2022 2:45:00 PM 9.28 48.704 0.06 7.17 28.04 12.32
4/17/2022 3:00:00 PM 9.3 48.74 0.06 7.14 31.42 12.33
4/17/2022 3:15:00 PM 9.36 48.848 0.061 7.18 26.88 12.4
4/17/2022 3:30:00 PM 9.46 49.028 0.06 7.15 29.42 12.32
4/17/2022 3:45:00 PM 9.53 49.154 0.061 7.18 33.5 12.34
4/17/2022 4:00:00 PM 9.57 49.226 0.061 7.16 27.44 12.31
4/17/2022 4:15:00 PM 9.56 49.208 0.061 7.27 40.61 12.37
4/17/2022 4:30:00 PM 9.52 49.136 0.061 7.08 28.83 12.26
4/17/2022 4:45:00 PM 9.46 49.028 0.061 7.16 31.21 12.4
4/17/2022 5:00:00 PM 9.36 48.848 0.061 7.2 31.97 12.33
4/17/2022 5:15:00 PM 9.28 48.704 0.061 7.19 35.6 12.34
4/17/2022 5:30:00 PM 9.22 48.596 0.062 7.14 30.63 12.29
4/17/2022 5:45:00 PM 9.21 48.578 0.062 7.16 28.41 12.22
4/17/2022 6:00:00 PM 9.17 48.506 0.062 7.21 35.69 12.35
4/17/2022 6:15:00 PM 9.12 48.416 0.062 7.16 28.79 12.29
4/17/2022 6:30:00 PM 9.05 48.29 0.062 7.14 22.71 12.33
4/17/2022 6:45:00 PM 8.96 48.128 0.062 7.2 42.07 12.35
4/17/2022 7:00:00 PM 8.85 47.93 0.062 7.11 37.83 12.3
4/17/2022 7:15:00 PM 8.77 47.786 0.062 7.19 27.66 12.37
4/17/2022 7:30:00 PM 8.7 47.66 0.062 7.22 40.21 12.34
4/17/2022 7:45:00 PM 8.62 47.516 0.062 7.19 35.17 12.21
4/17/2022 8:00:00 PM 8.53 47.354 0.062 7.17 30.19 12.3
4/17/2022 8:15:00 PM 8.45 47.21 0.062 7.17 26.72 12.25
4/17/2022 8:30:00 PM 8.37 47.066 0.062 7.1 26.16 12.18
4/17/2022 8:45:00 PM 8.3 46.94 0.062 7.13 38.71 12.13
4/17/2022 9:00:00 PM 8.24 46.832 0.062 7.17 33.98 12.06
4/17/2022 9:15:00 PM 8.18 46.724 0.062 7.11 35.08 12.06
4/17/2022 9:30:00 PM 8.13 46.634 0.062 7.13 26.4 12.03
4/17/2022 9:45:00 PM 8.1 46.58 0.062 7.05 27.04 11.91
4/17/2022 10:00:00 PM 8.06 46.508 0.062 7.11 34.31 11.82
4/17/2022 10:15:00 PM 8.02 46.436 0.062 7.08 31.08 11.91
4/17/2022 10:30:00 PM 7.98 46.364 0.062 7.08 29.63 11.87
4/17/2022 10:45:00 PM 7.94 46.292 0.062 7.13 46.59 11.86
4/17/2022 11:00:00 PM 7.91 46.238 0.063 7.14 37.27 11.78
4/17/2022 11:15:00 PM 7.89 46.202 0.063 7.07 31.29 11.82
4/17/2022 11:30:00 PM 7.86 46.148 0.063 7.06 32.01 11.75
4/17/2022 11:45:00 PM 7.83 46.094 0.063 7.07 35.33 11.71
4/18/2022 12:00:00 AM 7.8 46.04 0.063 7.06 23.58 11.71
4/18/2022 12:15:00 AM 7.77 45.986 0.063 7.08 34.27 11.7
4/18/2022 12:30:00 AM 7.76 45.968 0.062 7.16 118.36 11.7
4/18/2022 12:45:00 AM 7.73 45.914 0.062 7.07 39.58 11.68
4/18/2022 1:00:00 AM 7.71 45.878 0.055 7.02 35.25 11.67
4/18/2022 1:15:00 AM 7.69 45.842 0.062 7.01 23.81 11.69
4/18/2022 1:30:00 AM 7.66 45.788 0.062 7.05 29.65 11.66
4/18/2022 1:45:00 AM 7.65 45.77 0.062 7.03 31.42 11.65
4/18/2022 2:00:00 AM 7.61 45.698 0.062 7.04 28.96 11.65
4/18/2022 2:15:00 AM 7.59 45.662 0.062 6.99 33.29 11.69
4/18/2022 2:30:00 AM 7.55 45.59 0.062 7.04 20.81 11.66
4/18/2022 2:45:00 AM 7.53 45.554 0.062 7.02 23.35 11.66
4/18/2022 3:00:00 AM 7.5 45.5 0.062 7.01 20.79 11.58
4/18/2022 3:15:00 AM 7.46 45.428 0.062 6.98 25.22 11.58
4/18/2022 3:30:00 AM 7.43 45.374 0.062 7.04 23.21 11.67
4/18/2022 3:45:00 AM 7.39 45.302 0.062 7.05 25.03 11.64
4/18/2022 4:00:00 AM 7.36 45.248 0.061 6.99 21.73 11.56
4/18/2022 4:15:00 AM 7.32 45.176 0.061 7.05 26.74 11.66
4/18/2022 4:30:00 AM 7.28 45.104 0.061 7.06 31.01 11.67
4/18/2022 4:45:00 AM 7.24 45.032 0.061 6.97 22.25 11.66
4/18/2022 5:00:00 AM 7.2 44.96 0.061 6.98 34.68 11.63
4/18/2022 5:15:00 AM 7.16 44.888 0.061 6.97 20.56 11.6
4/18/2022 5:30:00 AM 7.13 44.834 0.061 6.94 55.18 11.65
4/18/2022 5:45:00 AM 7.08 44.744 0.061 6.97 42.4 11.66
4/18/2022 6:00:00 AM 7.04 44.672 0.061 7.05 24.14 11.66
4/18/2022 6:15:00 AM 7 44.6 0.061 7.02 42.62 11.7
4/18/2022 6:30:00 AM 6.97 44.546 0.061 7.01 24.21 11.64
4/18/2022 6:45:00 AM 6.95 44.51 0.061 6.93 29.67 11.62
4/18/2022 7:00:00 AM 6.91 44.438 0.061 6.99 33.61 11.7
4/18/2022 7:15:00 AM 6.89 44.402 0.061 6.91 19.73 11.75
4/18/2022 7:30:00 AM 6.88 44.384 0.061 6.89 26.9 11.74
4/18/2022 7:45:00 AM 6.87 44.366 0.061 7.01 26.53 11.74
4/18/2022 8:00:00 AM 6.88 44.384 0.061 7 25.32 11.77
4/18/2022 8:15:00 AM 6.89 44.402 0.061 7.01 32.12 11.8
4/18/2022 8:30:00 AM 6.94 44.492 0.061 7 38.76 11.83
4/18/2022 8:45:00 AM 7 44.6 0.061 7.01 21.32 11.87
4/18/2022 9:00:00 AM 7.08 44.744 0.061 6.97 37.45 11.9
4/18/2022 9:15:00 AM 7.21 44.978 0.061 7.03 28.29 11.98
4/18/2022 9:30:00 AM 7.31 45.158 0.061 7.05 30.19 12.09
4/18/2022 9:45:00 AM 7.39 45.302 0.061 7.04 22.91 12.17
4/18/2022 10:00:00 AM 7.48 45.464 0.061 7.05 22.49 12.15
4/18/2022 10:15:00 AM 7.6 45.68 0.061 7.05 31.88 12.23
4/18/2022 10:30:00 AM 7.7 45.86 0.061 7 30.77 12.25
4/18/2022 10:45:00 AM 7.79 46.022 0.061 7.01 31.22 12.26
4/18/2022 11:00:00 AM 7.9 46.22 0.061 7.12 23.82 12.37
4/18/2022 11:15:00 AM 8 46.4 0.061 7.09 32.76 12.31
4/18/2022 11:30:00 AM 8.1 46.58 0.061 7.06 28.56 12.4
4/18/2022 11:45:00 AM 8.18 46.724 0.061 7.09 34.51 12.46
4/18/2022 12:00:00 PM 8.28 46.904 0.061 7.11 22.27 12.43
4/18/2022 12:15:00 PM 8.36 47.048 0.061 7.05 27.12 12.51
4/18/2022 12:30:00 PM 8.43 47.174 0.061 7.06 34.34 12.55
4/18/2022 12:45:00 PM 8.52 47.336 0.062 7.03 42.4 12.6
4/18/2022 1:00:00 PM 8.57 47.426 0.062 7.14 32.93 12.59
4/18/2022 1:15:00 PM 8.61 47.498 0.062 7.13 28.82 12.62
4/18/2022 1:30:00 PM 8.66 47.588 0.062 7.09 27.06 12.51
4/18/2022 1:45:00 PM 8.71 47.678 0.062 7.1 39.92 12.67
4/18/2022 2:00:00 PM 8.76 47.768 0.061 7.14 26.6 12.75
4/18/2022 2:15:00 PM 8.78 47.804 0.061 7.14 31.63 12.65
4/18/2022 2:30:00 PM 8.8 47.84 0.061 7.21 34.82 12.6
4/18/2022 2:45:00 PM 8.81 47.858 0.061 7.2 24.17 12.6
4/18/2022 3:00:00 PM 8.79 47.822 0.061 7.23 24.49 12.59
4/18/2022 3:15:00 PM 8.76 47.768 0.061 7.14 31.58 12.65
4/18/2022 3:30:00 PM 8.7 47.66 0.061 7.16 28.03 12.69
4/18/2022 3:45:00 PM 8.63 47.534 0.061 7.2 29.11 12.64
4/18/2022 4:00:00 PM 8.54 47.372 0.061 7.25 36.3 12.69
4/18/2022 4:15:00 PM 8.44 47.192 0.061 7.17 39.92 12.69
4/18/2022 4:30:00 PM 8.34 47.012 0.061 7.22 45.76 12.66
4/18/2022 4:45:00 PM 8.23 46.814 0.061 7.22 36.22 12.61
4/18/2022 5:00:00 PM 8.14 46.652 0.061 7.2 33.21 12.55
4/18/2022 5:15:00 PM 8.04 46.472 0.061 7.25 30.54 12.51
4/18/2022 5:30:00 PM 7.91 46.238 0.061 7.22 44.33 12.46
4/18/2022 5:45:00 PM 7.78 46.004 0.061 7.2 28.8 12.59
4/18/2022 6:00:00 PM 7.65 45.77 0.061 7.11 19.02 12.45
4/18/2022 6:15:00 PM 7.49 45.482 0.061 7.11 23.44 12.44
4/18/2022 6:30:00 PM 7.31 45.158 0.061 7.14 43.72 12.37
4/18/2022 6:45:00 PM 7.09 44.762 0.061 7.21 43.9 12.36
4/18/2022 7:00:00 PM 6.9 44.42 0.061 7.18 25.67 12.33
4/18/2022 7:15:00 PM 6.69 44.042 0.061 7.16 24.36 12.18
4/18/2022 7:30:00 PM 6.52 43.736 0.061 7.15 29.87 12.26
4/18/2022 7:45:00 PM 6.4 43.52 0.061 7.16 31.09 12.26
4/18/2022 8:00:00 PM 6.33 43.394 0.061 7.09 39.31 12.2
4/18/2022 8:15:00 PM 6.27 43.286 0.061 7.05 21.39 12.12
4/18/2022 8:30:00 PM 6.23 43.214 0.061 7.13 25.35 12.14
4/18/2022 8:45:00 PM 6.22 43.196 0.061 7.06 41.42 12.1
4/18/2022 9:00:00 PM 6.24 43.232 0.061 7.17 32.59 11.98
4/18/2022 9:15:00 PM 6.18 43.124 0.061 7.12 24.86 12.03
4/18/2022 9:30:00 PM 6.13 43.034 0.061 7 32.57 12.04
4/18/2022 9:45:00 PM 6.07 42.926 0.061 7.06 39.3 12.05
4/18/2022 10:00:00 PM 6.02 42.836 0.062 7.07 27.75 11.98
4/18/2022 10:15:00 PM 5.9 42.62 0.062 7.13 23.22 12.01
4/18/2022 10:30:00 PM 5.9 42.62 0.062 7.13 23.49 12
4/18/2022 10:45:00 PM 5.83 42.494 0.062 7.11 30.75 12.01
4/18/2022 11:00:00 PM 5.72 42.296 0.062 7.06 29.16 11.93
4/18/2022 11:15:00 PM 5.56 42.008 0.062 7.09 38.79 12.04
4/18/2022 11:30:00 PM 5.41 41.738 0.062 7.08 22.33 12.08
4/18/2022 11:45:00 PM 5.2 41.36 0.062 7.12 31.59 12
4/19/2022 12:00:00 AM 5.03 41.054 0.062 7.03 32.85 12.06
4/19/2022 12:15:00 AM 4.87 40.766 0.062 7.04 26.32 12.09
4/19/2022 12:30:00 AM 4.78 40.604 0.062 7.1 24.32 12.12
4/19/2022 4:45:00 AM 4.37 39.866 0.062 7.09 27.32 12.16
4/19/2022 5:00:00 AM 4.31 39.758 0.062 7.06 27.41 12.25
4/19/2022 5:15:00 AM 4.31 39.758 0.062 7.13 30.67 12.3
4/19/2022 5:30:00 AM 4.32 39.776 0.062 7.06 29.75 12.34
4/19/2022 5:45:00 AM 4.35 39.83 0.062 7.03 28.25 12.33
4/19/2022 6:00:00 AM 4.33 39.794 0.063 7.06 25.71 12.36
4/19/2022 6:15:00 AM 4.35 39.83 0.063 7.07 40.22 12.31
4/19/2022 6:30:00 AM 4.38 39.884 0.063 7.05 24.87 12.31
4/19/2022 6:45:00 AM 4.38 39.884 0.063 7.1 32.59 12.27
4/19/2022 7:00:00 AM 4.39 39.902 0.064 7.13 32.75 12.18
4/19/2022 7:15:00 AM 4.43 39.974 0.064 7.71 99.2 12.15
4/19/2022 7:30:00 AM 4.45 40.01 0.064 7.02 90.43 12.17
4/19/2022 7:45:00 AM 4.48 40.064 0.064 7.11 47.3 12.3
4/19/2022 8:00:00 AM 4.47 40.046 0.064 7.14 30.81 12.31
4/19/2022 8:15:00 AM 4.47 40.046 0.064 6.99 34.5 12.37
4/19/2022 8:30:00 AM 4.45 40.01 0.065 7.15 34.96 12.39
4/19/2022 8:45:00 AM 4.45 40.01 0.065 7.05 26.99 12.45
4/19/2022 9:00:00 AM 4.48 40.064 0.065 7.04 25.38 12.43
4/19/2022 9:15:00 AM 4.48 40.064 0.065 7.09 26.53 12.48
4/19/2022 9:30:00 AM 4.49 40.082 0.065 7.08 33.73 12.59
4/19/2022 9:45:00 AM 4.57 40.226 0.065 7.07 36.26 12.62
4/19/2022 10:00:00 AM 4.64 40.352 0.064 7.22 22.52 12.7
4/19/2022 10:15:00 AM 4.66 40.388 0.064 7.23 30.7 12.79
4/19/2022 10:30:00 AM 4.72 40.496 0.064 7.07 32.96 12.8
4/19/2022 10:45:00 AM 4.77 40.586 0.064 7.22 39.1 12.84
4/19/2022 11:00:00 AM 4.87 40.766 0.064 7.16 27.61 12.81
4/19/2022 11:15:00 AM 4.93 40.874 0.064 7.11 31.83 12.9
4/19/2022 11:30:00 AM 5.01 41.018 0.064 7.22 37.26 12.89
4/19/2022 11:45:00 AM 5.12 41.216 0.064 7.19 32.66 13
4/19/2022 12:00:00 PM 5.2 41.36 0.063 7.19 45.91 13
4/19/2022 12:15:00 PM 5.22 41.396 0.063 7.15 34.32 13.06
4/19/2022 12:30:00 PM 5.16 41.288 0.063 7.22 35.5 13.05
4/19/2022 12:45:00 PM 5.04 41.072 0.063 7.09 31.76 13.21
4/19/2022 1:00:00 PM 4.85 40.73 0.062 7.11 31.34 13.38
4/19/2022 1:15:00 PM 4.65 40.37 0.061 7.14 27.53 13.55
4/19/2022 1:30:00 PM 4.44 39.992 0.061 7.02 29.8 13.64
4/19/2022 1:45:00 PM 4.28 39.704 0.061 7.09 28.18 13.74
4/19/2022 2:00:00 PM 4.18 39.524 0.061 7.05 22.53 13.78
4/19/2022 2:15:00 PM 4.14 39.452 0.061 7.02 40.02 13.84
4/19/2022 2:30:00 PM 4.08 39.344 0.06 7.08 29.57 13.88
4/19/2022 2:45:00 PM 4.03 39.254 0.06 6.99 34.3 13.77
4/19/2022 3:00:00 PM 4 39.2 0.06 7.09 24.74 13.89
4/19/2022 3:15:00 PM 3.99 39.182 0.06 7.09 29.95 13.95
4/19/2022 3:30:00 PM 4.08 39.344 0.061 7.07 22.6 13.85
4/19/2022 3:45:00 PM 4.18 39.524 0.061 7.04 25.71 13.91
4/19/2022 4:00:00 PM 4.32 39.776 0.061 7.08 29.45 13.86
4/19/2022 4:15:00 PM 4.48 40.064 0.061 7.06 23.4 13.82
4/19/2022 4:30:00 PM 4.61 40.298 0.061 7.18 28.24 13.81
4/19/2022 4:45:00 PM 4.74 40.532 0.061 7.11 26.94 13.78
4/19/2022 5:00:00 PM 4.81 40.658 0.062 7.11 19.78 13.76
4/19/2022 5:15:00 PM 4.9 40.82 0.062 7.14 16.93 13.68
4/19/2022 5:30:00 PM 4.97 40.946 0.062 7.15 20.9 13.6
4/19/2022 5:45:00 PM 5.03 41.054 0.062 7.21 22.94 13.56
4/19/2022 6:00:00 PM 5.08 41.144 0.062 7.2 23.91 13.62
4/19/2022 6:15:00 PM 5.1 41.18 0.062 7.17 27.13 13.42
4/19/2022 6:30:00 PM 5.14 41.252 0.062 7.21 66.45 13.38
4/19/2022 6:45:00 PM 5.15 41.27 0.062 7.29 59.55 13.49
4/19/2022 7:00:00 PM 5.12 41.216 0.062 7.23 33.79 13.35
4/19/2022 7:15:00 PM 5.09 41.162 0.062 7.19 29.47 13.43
4/19/2022 7:30:00 PM 5.05 41.09 0.063 7.29 95.22 13.29
4/19/2022 7:45:00 PM 4.99 40.982 0.063 7.18 104.77 13.33
4/19/2022 8:00:00 PM 4.93 40.874 0.063 7.1 41.42 13.29
4/19/2022 8:15:00 PM 4.88 40.784 0.063 7.13 29.36 13.23
4/19/2022 8:30:00 PM 4.84 40.712 0.063 7.4 54.71 13.18
4/19/2022 8:45:00 PM 4.78 40.604 0.063 7.1 62.54 13.15
4/19/2022 9:00:00 PM 4.73 40.514 0.063 7.19 31.55 13.16
4/19/2022 9:15:00 PM 4.68 40.424 0.063 7.14 29.74 13.08
4/19/2022 9:30:00 PM 4.65 40.37 0.063 7.19 29.25 13.06
4/19/2022 9:45:00 PM 4.63 40.334 0.063 7.09 19.39 12.95
4/19/2022 10:00:00 PM 4.6 40.28 0.063 7.09 47.51 13.02
4/19/2022 10:15:00 PM 4.57 40.226 0.063 7.09 32.55 12.98
4/19/2022 10:30:00 PM 4.54 40.172 0.063 7.16 27.22 12.95
4/19/2022 10:45:00 PM 4.52 40.136 0.063 6.97 29.43 12.94
4/19/2022 11:00:00 PM 4.49 40.082 0.063 7.01 26.54 12.95
4/19/2022 11:15:00 PM 4.48 40.064 0.064 7.35 44.9 12.75
4/19/2022 11:30:00 PM 4.48 40.064 0.064 7 49.54 12.94
4/19/2022 11:45:00 PM 4.47 40.046 0.064 7.09 84.68 12.85
4/20/2022 12:00:00 AM 4.46 40.028 0.064 7.04 26.23 12.91
4/20/2022 12:15:00 AM 4.46 40.028 0.064 7.03 24.38 12.78
4/20/2022 12:30:00 AM 4.45 40.01 0.064 7.08 34.22 12.9
4/20/2022 12:45:00 AM 4.43 39.974 0.064 7.18 23.58 12.92
4/20/2022 1:00:00 AM 4.41 39.938 0.064 6.97 19.89 12.9
4/20/2022 1:15:00 AM 4.39 39.902 0.064 7.02 27.01 12.87
4/20/2022 1:30:00 AM 4.39 39.902 0.064 7.24 51.07 12.83
4/20/2022 1:45:00 AM 4.37 39.866 0.064 7.05 112.3 12.9
4/20/2022 2:00:00 AM 4.37 39.866 0.064 7.05 61.81 12.86
4/20/2022 2:15:00 AM 4.36 39.848 0.064 7.52 55.03 12.72
4/20/2022 2:30:00 AM 4.36 39.848 0.064 7.05 42.11 12.93
4/20/2022 2:45:00 AM 4.36 39.848 0.064 7.03 36.21 12.88
4/20/2022 3:00:00 AM 4.35 39.83 0.064 7.05 56.05 12.84
4/20/2022 3:15:00 AM 4.35 39.83 0.064 7.02 55.25 12.8
4/20/2022 3:30:00 AM 4.33 39.794 0.064 7.05 24.69 12.88
4/20/2022 3:45:00 AM 4.32 39.776 0.064 6.96 25.5 12.85
4/20/2022 4:00:00 AM 4.32 39.776 0.064 7.05 20.17 12.86
4/20/2022 4:15:00 AM 4.33 39.794 0.064 7.52 114.11 12.77
4/20/2022 4:30:00 AM 4.33 39.794 0.064 7.02 69.69 12.93
4/20/2022 4:45:00 AM 4.32 39.776 0.064 7.1 46.68 12.88
4/20/2022 5:00:00 AM 4.3 39.74 0.064 7.1 36.35 12.93
4/20/2022 5:15:00 AM 4.3 39.74 0.064 7.06 23.69 12.89
4/20/2022 5:30:00 AM 4.29 39.722 0.064 7.1 18.61 12.92
4/20/2022 5:45:00 AM 4.27 39.686 0.064 7.16 18.43 12.88
4/20/2022 6:00:00 AM 4.24 39.632 0.064 7.04 34.2 12.95
4/20/2022 6:15:00 AM 4.22 39.596 0.064 7.07 26.39 12.93
4/20/2022 6:30:00 AM 4.2 39.56 0.064 7.23 23.42 12.95
4/20/2022 6:45:00 AM 4.18 39.524 0.064 7.04 30.32 12.93
4/20/2022 7:00:00 AM 4.12 39.416 0.064 7.08 33.87 13.03
4/20/2022 7:15:00 AM 4.03 39.254 0.064 7.1 29.3 13.07
4/20/2022 7:30:00 AM 3.92 39.056 0.065 7.15 31.5 13.09
4/20/2022 7:45:00 AM 3.8 38.84 0.065 7.09 32.96 13.22
4/20/2022 8:00:00 AM 3.68 38.624 0.065 7.16 18.78 13.31
4/20/2022 8:15:00 AM 3.61 38.498 0.065 7.61 45.12 13.29
4/20/2022 8:30:00 AM 3.55 38.39 0.066 7.11 45.81 13.53
4/20/2022 8:45:00 AM 3.52 38.336 0.066 7.07 32.56 13.61
4/20/2022 9:00:00 AM 3.5 38.3 0.066 7.19 29.09 13.61
4/20/2022 9:15:00 AM 3.53 38.354 0.066 7.86 41.63 13.65
4/20/2022 9:30:00 AM 3.58 38.444 0.065 7.05 75.3 13.77
4/20/2022 9:45:00 AM 3.69 38.642 0.065 7.13 49.37 13.8
4/20/2022 10:00:00 AM 3.81 38.858 0.065 7.16 26.43 13.84
4/20/2022 10:15:00 AM 3.95 39.11 0.065 7.17 32.85 13.91
4/20/2022 10:30:00 AM 4.1 39.38 0.065 7.19 26.03 13.97
4/20/2022 10:45:00 AM 4.26 39.668 0.065 7.2 25.58 13.95
4/20/2022 11:00:00 AM 4.46 40.028 0.065 7.83 47.46 13.87
4/20/2022 11:15:00 AM 4.63 40.334 0.065 7.14 131.1 14
4/20/2022 11:30:00 AM 4.8 40.64 0.065 7.21 51.46 13.97
4/20/2022 11:45:00 AM 4.99 40.982 0.065 7.18 20.94 13.99
4/20/2022 12:00:00 PM 5.18 41.324 0.065 7.2 29.29 13.98
4/20/2022 12:15:00 PM 5.36 41.648 0.065 7.19 20.21 14.03
4/20/2022 12:30:00 PM 5.58 42.044 0.065 7.21 35.48 14
4/20/2022 12:45:00 PM 5.76 42.368 0.066 7.62 55.2 13.7
4/20/2022 1:00:00 PM 5.94 42.692 0.066 7.18 39.97 14.07
4/20/2022 1:15:00 PM 6.11 42.998 0.066 7.19 33.63 14.05
4/20/2022 1:30:00 PM 6.26 43.268 0.066 7.21 37.11 14.06
4/20/2022 1:45:00 PM 6.44 43.592 0.066 7.22 23.84 14.06
4/20/2022 2:00:00 PM 6.55 43.79 0.066 7.19 36.15 14.12
4/20/2022 2:15:00 PM 6.7 44.06 0.067 7.98 94.12 13.93
4/20/2022 2:30:00 PM 6.84 44.312 0.067 7.35 82.66 13.96
4/20/2022 2:45:00 PM 7.08 44.744 0.067 7.27 27.61 13.98
4/20/2022 3:00:00 PM 7.15 44.87 0.067 7.3 40.99 13.93
4/20/2022 3:15:00 PM 7.35 45.23 0.067 7.3 123.32 14.02
4/20/2022 3:30:00 PM 7.42 45.356 0.067 7.3 64.05 14
4/20/2022 3:45:00 PM 7.54 45.572 0.067 7.7 56.82 13.97
4/20/2022 4:00:00 PM 7.59 45.662 0.067 7.31 159.27 14.03
4/20/2022 4:15:00 PM 7.73 45.914 0.067 7.34 103.36 13.98
4/20/2022 4:30:00 PM 7.77 45.986 0.067 7.37 21.51 13.93
4/20/2022 4:45:00 PM 7.76 45.968 0.067 7.34 28.88 13.89
4/20/2022 5:00:00 PM 7.86 46.148 0.067 7.65 70.75 13.82
4/20/2022 5:15:00 PM 7.8 46.04 0.067 7.29 41.42 13.87
4/20/2022 5:30:00 PM 7.77 45.986 0.067 7.37 36.18 13.83
4/20/2022 5:45:00 PM 7.77 45.986 0.067 7.36 24.44 13.81
4/20/2022 6:00:00 PM 7.73 45.914 0.067 7.34 22.35 13.74
4/20/2022 6:15:00 PM 7.73 45.914 0.067 7.84 58.25 13.65
4/20/2022 6:30:00 PM 7.65 45.77 0.067 7.39 111.31 13.67
4/20/2022 6:45:00 PM 7.64 45.752 0.067 7.43 51.39 13.6
4/20/2022 7:00:00 PM 7.56 45.608 0.067 7.35 51.22 13.6
4/20/2022 7:15:00 PM 7.52 45.536 0.067 7.29 31.33 13.54
4/20/2022 7:30:00 PM 7.43 45.374 0.067 7.32 25.37 13.45
4/20/2022 7:45:00 PM 7.32 45.176 0.068 7.33 17.77 13.47
4/20/2022 8:00:00 PM 7.24 45.032 0.068 7.3 25.04 13.4
4/20/2022 8:15:00 PM 7.13 44.834 0.068 7.31 22.75 13.34
4/20/2022 8:30:00 PM 7.03 44.654 0.068 7.3 44.44 13.26
4/20/2022 8:45:00 PM 6.94 44.492 0.068 7.23 24.56 13.18
4/20/2022 9:00:00 PM 6.85 44.33 0.067 7.23 25.52 13.17
4/20/2022 9:15:00 PM 6.77 44.186 0.067 7.3 22.38 13.1
4/20/2022 9:30:00 PM 6.71 44.078 0.067 7.33 37.18 13.05
4/20/2022 9:45:00 PM 6.67 44.006 0.067 7.42 22.82 13.05
4/20/2022 10:00:00 PM 6.65 43.97 0.067 7.19 35.15 12.96
4/20/2022 10:15:00 PM 6.65 43.97 0.067 7.21 27.21 12.89
4/20/2022 10:30:00 PM 6.63 43.934 0.067 7.23 21.67 12.87
4/20/2022 10:45:00 PM 6.6 43.88 0.067 7.28 16.4 12.84
4/20/2022 11:00:00 PM 6.55 43.79 0.066 7.23 21.12 12.84
4/20/2022 11:15:00 PM 6.5 43.7 0.066 7.22 18.03 12.86
4/20/2022 11:30:00 PM 6.45 43.61 0.066 7.76 69.35 12.8
4/20/2022 11:45:00 PM 6.39 43.502 0.066 7.27 40.82 12.86
4/21/2022 12:00:00 AM 6.33 43.394 0.066 7.15 14.3 12.78
4/21/2022 12:15:00 AM 6.27 43.286 0.066 7.2 16.76 12.81
4/21/2022 12:30:00 AM 6.2 43.16 0.066 7.21 21.09 12.76
4/21/2022 12:45:00 AM 6.13 43.034 0.066 7.14 24.93 12.78
4/21/2022 1:00:00 AM 6.06 42.908 0.066 7.1 19.06 12.84
4/21/2022 1:15:00 AM 6 42.8 0.066 7.2 34.51 12.83
4/21/2022 1:30:00 AM 5.93 42.674 0.066 7.16 31.35 12.79
4/21/2022 1:45:00 AM 5.87 42.566 0.066 7.19 30.06 12.81
4/21/2022 2:00:00 AM 5.81 42.458 0.066 7.16 23.14 12.86
4/21/2022 2:15:00 AM 5.75 42.35 0.066 7.16 31.4 12.86
4/21/2022 2:30:00 AM 5.71 42.278 0.066 7.08 41.67 12.86
4/21/2022 2:45:00 AM 5.68 42.224 0.066 7.16 24.79 12.82
4/21/2022 3:00:00 AM 5.66 42.188 0.066 7.21 36.06 12.84
4/21/2022 3:15:00 AM 5.64 42.152 0.066 7.18 26.1 12.87
4/21/2022 3:30:00 AM 5.63 42.134 0.066 7.32 20.14 12.87
4/21/2022 3:45:00 AM 5.61 42.098 0.066 7.23 25.99 12.85
4/21/2022 4:00:00 AM 5.61 42.098 0.066 7.24 14.24 12.82
4/21/2022 4:15:00 AM 5.59 42.062 0.066 7.17 18.32 12.85
4/21/2022 4:30:00 AM 5.58 42.044 0.065 7.14 16.99 12.85
4/21/2022 4:45:00 AM 5.55 41.99 0.065 7.18 30.97 12.86
4/21/2022 5:00:00 AM 5.53 41.954 0.065 7.17 35.63 12.85
4/21/2022 5:15:00 AM 5.5 41.9 0.065 7.24 21.66 12.88
4/21/2022 5:30:00 AM 5.47 41.846 0.065 7.3 25.62 12.85
4/21/2022 5:45:00 AM 5.43 41.774 0.065 7.16 22.15 12.83
4/21/2022 6:00:00 AM 5.39 41.702 0.065 7.23 19.9 12.81
4/21/2022 6:15:00 AM 5.36 41.648 0.065 7.2 23.08 12.82
4/21/2022 6:30:00 AM 5.34 41.612 0.065 7.15 23.6 12.85
4/21/2022 6:45:00 AM 5.32 41.576 0.065 7.29 18.11 12.78
4/21/2022 7:00:00 AM 5.3 41.54 0.065 7.24 15.61 12.9
4/21/2022 7:15:00 AM 5.29 41.522 0.065 7.24 23.88 12.87
4/21/2022 7:30:00 AM 5.27 41.486 0.065 7.15 31.39 12.93
4/21/2022 7:45:00 AM 5.26 41.468 0.065 7.14 16.75 12.94
4/21/2022 8:00:00 AM 5.27 41.486 0.065 7.3 37 12.98
4/21/2022 8:15:00 AM 5.31 41.558 0.065 7.23 21.47 13
4/21/2022 8:30:00 AM 5.37 41.666 0.064 7.14 27.05 13.1
4/21/2022 8:45:00 AM 5.46 41.828 0.064 7.22 25 13.11
4/21/2022 9:00:00 AM 5.53 41.954 0.064 7.24 18.07 13.19
4/21/2022 9:15:00 AM 5.62 42.116 0.064 7.3 19.92 13.26
4/21/2022 9:30:00 AM 5.72 42.296 0.064 7.25 17.74 13.31
4/21/2022 9:45:00 AM 5.81 42.458 0.064 7.3 18.45 13.39
4/21/2022 10:00:00 AM 5.88 42.584 0.064 7.25 12.5 13.43
4/21/2022 10:15:00 AM 5.95 42.71 0.063 7.25 18.82 13.51
4/21/2022 10:30:00 AM 5.99 42.782 0.063 7.23 17.22 13.55
4/21/2022 10:45:00 AM 6.03 42.854 0.063 7.22 16.16 13.57
4/21/2022 11:00:00 AM 6.06 42.908 0.063 7.32 16.55 13.6
4/21/2022 11:15:00 AM 6.1 42.98 0.063 7.2 21.79 13.63
4/21/2022 11:30:00 AM 6.14 43.052 0.063 7.41 20.22 13.65
4/21/2022 11:45:00 AM 6.19 43.142 0.063 7.5 56.89 13.56
4/21/2022 12:00:00 PM 6.25 43.25 0.063 7.27 40.59 13.73
4/21/2022 12:15:00 PM 6.33 43.394 0.063 7.25 20.8 13.71
4/21/2022 12:30:00 PM 6.4 43.52 0.064 7.26 19.57 13.7
4/21/2022 12:45:00 PM 6.44 43.592 0.064 7.27 16.28 13.72
4/21/2022 1:00:00 PM 6.49 43.682 0.064 7.27 39.19 13.73
4/21/2022 1:15:00 PM 6.51 43.718 0.064 7.28 47.86 13.74
4/21/2022 1:30:00 PM 6.5 43.7 0.064 7.31 18.49 13.76
4/21/2022 1:45:00 PM 6.54 43.772 0.064 7.35 19.14 13.73
4/21/2022 2:00:00 PM 6.56 43.808 0.064 7.28 53.92 13.74
4/21/2022 2:15:00 PM 6.6 43.88 0.064 7.29 16.06 13.74
4/21/2022 2:30:00 PM 6.62 43.916 0.064 7.29 16.65 13.73
4/21/2022 2:45:00 PM 6.64 43.952 0.064 7.3 23.08 13.71
4/21/2022 3:00:00 PM 6.64 43.952 0.064 7.25 13.58 13.64
4/21/2022 3:15:00 PM 6.62 43.916 0.064 7.3 16.71 13.67
4/21/2022 3:30:00 PM 6.6 43.88 0.064 7.33 23 13.64
4/21/2022 3:45:00 PM 6.57 43.826 0.065 7.26 18.49 13.61
4/21/2022 4:00:00 PM 6.55 43.79 0.065 7.26 13.62 13.63
4/21/2022 4:15:00 PM 6.55 43.79 0.065 7.36 19.99 13.54
4/21/2022 4:30:00 PM 6.52 43.736 0.065 7.26 27.07 13.49
4/21/2022 4:45:00 PM 6.51 43.718 0.065 7.3 21.91 13.49
4/21/2022 5:00:00 PM 6.49 43.682 0.065 7.27 26.75 13.43
4/21/2022 5:15:00 PM 6.47 43.646 0.065 7.29 17.12 13.47
4/21/2022 5:30:00 PM 6.44 43.592 0.065 7.31 21.48 13.4
4/21/2022 5:45:00 PM 6.44 43.592 0.065 7.23 21.82 13.41
4/21/2022 6:00:00 PM 6.42 43.556 0.065 7.26 55.96 13.39
4/21/2022 6:15:00 PM 6.4 43.52 0.066 7.28 32.23 13.34
4/21/2022 6:30:00 PM 6.38 43.484 0.066 7.39 14.86 13.33
4/21/2022 6:45:00 PM 6.37 43.466 0.066 7.33 15.15 13.3
4/21/2022 7:00:00 PM 6.34 43.412 0.066 7.28 33.58 13.3
4/21/2022 7:15:00 PM 6.33 43.394 0.066 7.3 29.22 13.25
4/21/2022 7:30:00 PM 6.31 43.358 0.066 7.34 22.7 13.24
4/21/2022 7:45:00 PM 6.29 43.322 0.066 7.23 13.46 13.23
4/21/2022 8:00:00 PM 6.25 43.25 0.066 7.25 80.65 13.2
4/21/2022 8:15:00 PM 6.25 43.25 0.066 7.36 13.35 13.17
4/21/2022 8:30:00 PM 6.23 43.214 0.066 7.18 17.35 13.17
4/21/2022 8:45:00 PM 6.22 43.196 0.066 7.24 24.02 13.12
4/21/2022 9:00:00 PM 6.21 43.178 0.066 7.26 12.45 13.12
4/21/2022 9:15:00 PM 6.19 43.142 0.066 7.22 18.25 13.09
4/21/2022 9:30:00 PM 6.2 43.16 0.065 7.3 25.05 13.08
4/21/2022 9:45:00 PM 6.18 43.124 0.065 7.23 10.73 13.07
4/21/2022 10:00:00 PM 6.15 43.07 0.065 7.21 17.33 13.07
4/21/2022 10:15:00 PM 6.14 43.052 0.065 7.24 29.05 13.06
4/21/2022 10:30:00 PM 6.1 42.98 0.065 7.24 14.19 13.09
4/21/2022 10:45:00 PM 6.06 42.908 0.065 7.21 14.05 13.07
4/21/2022 11:00:00 PM 6.04 42.872 0.065 7.21 21.88 13.07
4/21/2022 11:15:00 PM 6.02 42.836 0.065 7.18 14.5 13.07
4/21/2022 11:30:00 PM 6 42.8 0.065 7.2 20.96 13.07
4/21/2022 11:45:00 PM 5.98 42.764 0.065 7.18 30.94 13.07
4/22/2022 12:00:00 AM 5.97 42.746 0.065 7.16 26.38 13.07
4/22/2022 12:15:00 AM 5.96 42.728 0.065 7.16 14.21 13.07
4/22/2022 12:30:00 AM 5.95 42.71 0.065 7.17 18.92 13.05
4/22/2022 12:45:00 AM 5.93 42.674 0.065 7.31 18.45 13.02
4/22/2022 1:00:00 AM 5.91 42.638 0.065 7.19 15.83 13.05
4/22/2022 1:15:00 AM 5.91 42.638 0.065 7.18 18.87 13.04
4/22/2022 1:30:00 AM 5.9 42.62 0.065 7.17 17.63 13.06
4/22/2022 1:45:00 AM 5.89 42.602 0.065 7.19 21.35 13.05
4/22/2022 2:00:00 AM 5.89 42.602 0.065 7.2 18.73 13.04
4/22/2022 2:15:00 AM 5.88 42.584 0.065 7.19 16.23 13.03
4/22/2022 2:30:00 AM 5.87 42.566 0.065 7.19 35.05 13.02
4/22/2022 2:45:00 AM 5.86 42.548 0.065 7.19 18.49 13.04
4/22/2022 3:00:00 AM 5.85 42.53 0.065 7.17 23.41 13.05
4/22/2022 3:15:00 AM 5.84 42.512 0.065 7.18 25.8 13.04
4/22/2022 3:30:00 AM 5.84 42.512 0.065 7.15 20.13 13.04
4/22/2022 3:45:00 AM 5.84 42.512 0.065 7.17 37.2 13.04
4/22/2022 4:00:00 AM 5.84 42.512 0.065 7.21 18.87 13.03
4/22/2022 4:15:00 AM 5.85 42.53 0.065 7.17 24.39 13.02
4/22/2022 4:30:00 AM 5.85 42.53 0.064 7.18 23.53 13.01
4/22/2022 4:45:00 AM 5.86 42.548 0.065 7.21 19.22 13.04
4/22/2022 5:00:00 AM 5.87 42.566 0.048 7.21 21.23 13.01
4/22/2022 5:15:00 AM 5.87 42.566 0.067 7.15 65.42 13.03
4/22/2022 5:30:00 AM 5.88 42.584 0.065 7.19 44.11 13.02
4/22/2022 5:45:00 AM 5.88 42.584 0.064 7.22 27.37 13.03
4/22/2022 6:00:00 AM 5.9 42.62 0.064 7.83 62.11 12.95
4/22/2022 6:15:00 AM 5.9 42.62 0.064 7.23 49.9 13.02
4/22/2022 6:30:00 AM 5.9 42.62 0.064 7.25 32.48 12.99
4/22/2022 6:45:00 AM 5.89 42.602 0.064 7.35 25.62 13.01
4/22/2022 7:00:00 AM 5.89 42.602 0.064 7.36 25.6 13.01
4/22/2022 7:15:00 AM 5.88 42.584 0.064 7.41 26.36 13.02
4/22/2022 7:30:00 AM 5.87 42.566 0.064 7.35 31.11 13.06
4/22/2022 7:45:00 AM 5.86 42.548 0.064 7.33 21.26 13.09
4/22/2022 8:00:00 AM 5.87 42.566 0.064 7.48 32.55 13.14
4/22/2022 8:15:00 AM 5.9 42.62 0.064 7.32 39.72 13.18
4/22/2022 8:30:00 AM 5.95 42.71 0.064 7.49 116.14 13.23
4/22/2022 8:45:00 AM 6 42.8 0.064 7.42 18.75 13.29
4/22/2022 9:00:00 AM 6.07 42.926 0.064 7.43 18.71 13.32
4/22/2022 9:15:00 AM 6.16 43.088 0.064 7.77 83.67 13.35
4/22/2022 9:30:00 AM 6.23 43.214 0.064 7.42 39.46 13.42
4/22/2022 9:45:00 AM 6.32 43.376 0.064 7.49 35.43 13.43
4/22/2022 10:00:00 AM 6.43 43.574 0.064 7.37 23.95 13.49
4/22/2022 10:15:00 AM 6.55 43.79 0.064 7.42 18.04 13.5
4/22/2022 10:30:00 AM 6.68 44.024 0.063 7.46 18.96 13.52
4/22/2022 10:45:00 AM 6.82 44.276 0.063 7.42 18.71 13.54
4/22/2022 11:00:00 AM 6.97 44.546 0.063 7.45 19.56 13.56
4/22/2022 11:15:00 AM 7.1 44.78 0.063 7.46 19.38 13.57
4/22/2022 11:30:00 AM 7.27 45.086 0.062 7.81 71.7 13.55
4/22/2022 11:45:00 AM 7.41 45.338 0.062 7.43 74.75 13.61
4/22/2022 12:00:00 PM 7.55 45.59 0.062 7.4 49.82 13.6
4/22/2022 12:15:00 PM 7.69 45.842 0.061 7.47 26.17 13.58
4/22/2022 12:30:00 PM 7.85 46.13 0.061 7.46 40.38 13.61
4/22/2022 12:45:00 PM 7.93 46.274 0.06 7.43 16.98 13.59
4/22/2022 1:00:00 PM 8.04 46.472 0.06 7.42 37.09 13.61
4/22/2022 1:15:00 PM 8.14 46.652 0.06 7.46 16.07 13.58
4/22/2022 1:30:00 PM 8.31 46.958 0.059 7.44 34.28 13.59
4/22/2022 1:45:00 PM 8.4 47.12 0.059 7.45 27.94 13.58
4/22/2022 2:00:00 PM 8.54 47.372 0.058 7.43 30.02 13.6
4/22/2022 2:15:00 PM 8.62 47.516 0.058 7.51 58.24 13.59
4/22/2022 2:30:00 PM 8.77 47.786 0.058 7.43 21.9 13.55
4/22/2022 2:45:00 PM 8.83 47.894 0.057 7.41 18.87 13.53
4/22/2022 3:00:00 PM 8.94 48.092 0.058 7.44 15.35 13.51
4/22/2022 3:15:00 PM 9.03 48.254 0.058 7.49 15.48 13.54
4/22/2022 3:30:00 PM 9.08 48.344 0.058 7.39 31.04 13.55
4/22/2022 3:45:00 PM 9.19 48.542 0.058 7.43 33.65 13.52
4/22/2022 4:00:00 PM 9.16 48.488 0.058 7.49 26.27 13.5
4/22/2022 4:15:00 PM 9.23 48.614 0.058 7.57 34.13 13.49
4/22/2022 4:30:00 PM 9.24 48.632 0.058 7.73 26.98 13.44
4/22/2022 4:45:00 PM 9.21 48.578 0.058 7.41 26.47 13.44
4/22/2022 5:00:00 PM 9.19 48.542 0.058 7.47 48.2 13.43
4/22/2022 5:15:00 PM 9.22 48.596 0.058 7.61 38.88 13.4
4/22/2022 5:30:00 PM 9.14 48.452 0.058 7.47 28 13.36
4/22/2022 5:45:00 PM 9.19 48.542 0.058 7.42 48.42 13.33
4/22/2022 6:00:00 PM 9.08 48.344 0.058 7.42 32.81 13.31
4/22/2022 6:15:00 PM 9.01 48.218 0.058 7.47 30.28 13.27
4/22/2022 6:30:00 PM 8.92 48.056 0.058 7.46 53.9 13.22
4/22/2022 6:45:00 PM 8.85 47.93 0.058 7.47 26.78 13.2
4/22/2022 7:00:00 PM 8.76 47.768 0.058 7.45 25.09 13.17
4/22/2022 7:15:00 PM 8.71 47.678 0.059 7.46 16.65 13.12
4/22/2022 7:30:00 PM 8.58 47.444 0.059 7.42 17.31 13.1
4/22/2022 7:45:00 PM 8.51 47.318 0.059 7.46 87.72 13.06
4/22/2022 8:00:00 PM 8.41 47.138 0.059 8.27 38.91 12.98
4/22/2022 8:15:00 PM 8.32 46.976 0.06 7.42 48.77 12.97
4/22/2022 8:30:00 PM 8.29 46.922 0.059 7.42 26.92 12.89
4/22/2022 8:45:00 PM 8.18 46.724 0.059 7.42 122.13 12.87
4/22/2022 9:00:00 PM 8.15 46.67 0.059 7.41 33.98 12.84
4/22/2022 9:15:00 PM 8.09 46.562 0.059 7.39 24.72 12.79
4/22/2022 9:30:00 PM 8.08 46.544 0.059 7.36 85.25 12.76
4/22/2022 9:45:00 PM 8.02 46.436 0.059 7.39 36.05 12.72
4/22/2022 10:00:00 PM 7.98 46.364 0.059 7.36 99.38 12.7
4/22/2022 10:15:00 PM 7.95 46.31 0.059 7.34 78.41 12.69
4/22/2022 10:30:00 PM 7.92 46.256 0.059 7.31 45.57 12.68
4/22/2022 10:45:00 PM 7.89 46.202 0.059 7.3 22.93 12.67
4/22/2022 11:00:00 PM 7.85 46.13 0.059 7.29 20.28 12.65
4/22/2022 11:15:00 PM 7.81 46.058 0.059 7.32 29.71 12.67
4/22/2022 11:30:00 PM 7.78 46.004 0.059 7.33 19.92 12.61
4/22/2022 11:45:00 PM 7.74 45.932 0.059 7.33 32.85 12.62
4/23/2022 12:00:00 AM 7.7 45.86 0.059 7.32 22.65 12.63
4/23/2022 12:15:00 AM 7.68 45.824 0.059 7.44 16.15 12.63
4/23/2022 12:30:00 AM 7.65 45.77 0.059 7.38 20.98 12.61
4/23/2022 12:45:00 AM 7.62 45.716 0.059 7.34 16.37 12.63
4/23/2022 1:00:00 AM 7.61 45.698 0.059 7.36 18.81 12.62
4/23/2022 1:15:00 AM 7.61 45.698 0.059 7.25 16.71 12.61
4/23/2022 1:30:00 AM 7.59 45.662 0.059 7.32 18.2 12.55
4/23/2022 1:45:00 AM 7.59 45.662 0.059 7.32 19.78 12.58
4/23/2022 2:00:00 AM 7.58 45.644 0.059 7.33 19.95 12.59
4/23/2022 2:15:00 AM 7.58 45.644 0.059 7.3 17.25 12.61
4/23/2022 2:30:00 AM 7.57 45.626 0.059 7.34 16.08 12.55
4/23/2022 2:45:00 AM 7.56 45.608 0.059 7.33 18.13 12.53
4/23/2022 3:00:00 AM 7.55 45.59 0.059 7.23 20.16 12.53
4/23/2022 3:15:00 AM 7.54 45.572 0.059 7.92 62.38 12.51
4/23/2022 3:30:00 AM 7.54 45.572 0.059 7.46 34.08 12.54
4/23/2022 3:45:00 AM 7.52 45.536 0.059 7.51 206.18 12.51
4/23/2022 4:00:00 AM 7.51 45.518 0.059 7.49 17.81 12.51
4/23/2022 4:15:00 AM 7.5 45.5 0.059 7.51 21.99 12.55
4/23/2022 4:30:00 AM 7.49 45.482 0.059 7.59 23.9 12.54
4/23/2022 4:45:00 AM 7.48 45.464 0.059 7.58 26.76 12.53
4/23/2022 5:00:00 AM 7.46 45.428 0.058 7.47 20.33 12.52
4/23/2022 5:15:00 AM 7.46 45.428 0.058 7.63 35.09 12.5
4/23/2022 5:30:00 AM 7.46 45.428 0.058 7.97 52.21 12.48
4/23/2022 5:45:00 AM 7.46 45.428 0.058 7.44 42.8 12.5
4/23/2022 6:00:00 AM 7.46 45.428 0.058 7.56 23.91 12.45
4/23/2022 6:15:00 AM 7.46 45.428 0.058 7.44 24.55 12.47
4/23/2022 6:30:00 AM 7.47 45.446 0.058 7.45 24.9 12.48
4/23/2022 6:45:00 AM 7.48 45.464 0.058 7.43 21.98 12.46
4/23/2022 7:00:00 AM 7.49 45.482 0.058 7.47 29 12.44
4/23/2022 7:15:00 AM 7.48 45.464 0.058 7.46 57.69 12.43
4/23/2022 7:30:00 AM 7.49 45.482 0.057 7.5 19.66 12.45
4/23/2022 7:45:00 AM 7.49 45.482 0.057 7.46 33.1 12.42
4/23/2022 8:00:00 AM 7.49 45.482 0.057 7.48 18.87 12.45
4/23/2022 8:15:00 AM 7.49 45.482 0.057 7.5 15.41 12.53
4/23/2022 8:30:00 AM 7.51 45.518 0.057 7.46 15.4 12.56
4/23/2022 8:45:00 AM 7.54 45.572 0.057 7.46 39.03 12.66
4/23/2022 9:00:00 AM 7.55 45.59 0.057 7.49 20.33 12.67
4/23/2022 9:15:00 AM 7.57 45.626 0.057 7.49 19.29 12.71
4/23/2022 9:30:00 AM 7.59 45.662 0.057 7.49 20.15 12.74
4/23/2022 9:45:00 AM 7.61 45.698 0.057 7.62 16.15 12.8
4/23/2022 10:00:00 AM 7.64 45.752 0.057 7.55 21.73 12.85
4/23/2022 10:15:00 AM 7.68 45.824 0.057 7.53 22.38 12.91
4/23/2022 10:30:00 AM 7.75 45.95 0.057 7.6 20.43 12.93
4/23/2022 10:45:00 AM 7.84 46.112 0.057 7.52 25.07 12.98
4/23/2022 11:00:00 AM 7.95 46.31 0.057 7.84 58.58 13.01
4/23/2022 11:15:00 AM 8.09 46.562 0.057 7.49 36.2 13.05
4/23/2022 11:30:00 AM 8.24 46.832 0.057 7.62 13.18 13.08
4/23/2022 11:45:00 AM 8.38 47.084 0.057 7.62 18.46 13.09
4/23/2022 12:00:00 PM 8.53 47.354 0.057 7.56 38.81 13.14
4/23/2022 12:15:00 PM 8.68 47.624 0.057 7.65 22.46 13.17
4/23/2022 12:30:00 PM 8.82 47.876 0.057 7.69 81.55 13.16
4/23/2022 12:45:00 PM 9 48.2 0.057 7.55 14.13 13.21
4/23/2022 1:00:00 PM 9.19 48.542 0.057 7.57 22.34 13.23
4/23/2022 1:15:00 PM 9.36 48.848 0.057 7.59 22.28 13.24
4/23/2022 1:30:00 PM 9.58 49.244 0.057 7.58 23.91 13.23
4/23/2022 1:45:00 PM 9.71 49.478 0.057 7.66 18.23 13.22
4/23/2022 2:00:00 PM 9.89 49.802 0.057 7.56 32.32 13.24
4/23/2022 2:15:00 PM 9.97 49.946 0.057 7.6 19.09 13.27
4/23/2022 2:30:00 PM 10.04 50.072 0.057 7.48 49.89 13.23
4/23/2022 2:45:00 PM 10.06 50.108 0.056 7.66 35.85 13.25
4/23/2022 3:00:00 PM 10.02 50.036 0.056 7.68 15.75 13.22
4/23/2022 3:15:00 PM 10 50 0.057 7.69 32.36 13.2
4/23/2022 3:30:00 PM 9.97 49.946 0.057 7.65 43.52 13.22
4/23/2022 3:45:00 PM 9.93 49.874 0.057 7.66 38.84 13.21
4/23/2022 4:00:00 PM 9.91 49.838 0.057 7.62 32.75 13.19
4/23/2022 4:15:00 PM 9.89 49.802 0.057 7.6 22.66 13.16
4/23/2022 4:30:00 PM 9.82 49.676 0.057 7.61 23.99 13.13
4/23/2022 4:45:00 PM 9.77 49.586 0.057 7.71 24.31 13.12
4/23/2022 5:00:00 PM 9.72 49.496 0.056 7.59 22.22 13.07
4/23/2022 5:15:00 PM 9.67 49.406 0.057 7.68 14.04 13.05
4/23/2022 5:30:00 PM 9.6 49.28 0.057 8.04 56.21 13.01
4/23/2022 5:45:00 PM 9.56 49.208 0.057 7.57 38.59 12.97
4/23/2022 6:00:00 PM 9.52 49.136 0.057 7.56 19.4 12.94
4/23/2022 6:15:00 PM 9.48 49.064 0.056 7.66 19.72 12.95
4/23/2022 6:30:00 PM 9.41 48.938 0.056 7.55 20.56 12.94
4/23/2022 6:45:00 PM 9.37 48.866 0.056 7.56 23.78 12.93
4/23/2022 7:00:00 PM 9.3 48.74 0.056 7.93 74 12.9
4/23/2022 7:15:00 PM 9.24 48.632 0.058 7.48 34.44 12.9
4/23/2022 7:30:00 PM 9.13 48.434 0.056 7.57 29.64 12.86
4/23/2022 7:45:00 PM 9.08 48.344 0.056 7.58 26.73 12.83
4/23/2022 8:00:00 PM 9.05 48.29 0.056 7.57 27.46 12.8
4/23/2022 8:15:00 PM 9.05 48.29 0.056 7.58 18.43 12.75
4/23/2022 8:30:00 PM 9 48.2 0.056 7.55 15.32 12.69
4/23/2022 8:45:00 PM 8.91 48.038 0.056 7.53 14.07 12.66
4/23/2022 9:00:00 PM 8.88 47.984 0.056 7.49 15.17 12.61
4/23/2022 9:15:00 PM 8.81 47.858 0.056 8.09 39.77 12.53
4/23/2022 9:30:00 PM 8.78 47.804 0.056 7.47 29.19 12.52
4/23/2022 9:45:00 PM 8.76 47.768 0.057 7.5 34.36 12.5
4/23/2022 10:00:00 PM 8.74 47.732 0.057 7.51 15.67 12.45
4/23/2022 10:15:00 PM 8.71 47.678 0.057 7.51 22.25 12.43
4/23/2022 10:30:00 PM 8.68 47.624 0.057 7.52 21.95 12.43
4/23/2022 10:45:00 PM 8.64 47.552 0.057 7.58 20.89 12.39
4/23/2022 11:00:00 PM 8.6 47.48 0.057 7.44 16.5 12.38
4/23/2022 11:15:00 PM 8.58 47.444 0.057 7.49 19.38 12.36
4/23/2022 11:30:00 PM 8.54 47.372 0.057 7.47 25.08 12.35
4/23/2022 11:45:00 PM 8.52 47.336 0.057 7.47 22.86 12.35
4/24/2022 12:00:00 AM 8.49 47.282 0.058 7.45 26.94 12.33
4/24/2022 12:15:00 AM 8.47 47.246 0.058 7.46 26.97 12.29
4/24/2022 12:30:00 AM 8.44 47.192 0.058 7.43 31.85 12.3
4/24/2022 12:45:00 AM 8.42 47.156 0.058 7.47 126.32 12.32
4/24/2022 1:00:00 AM 8.41 47.138 0.058 7.45 19.41 12.32
4/24/2022 1:15:00 AM 8.39 47.102 0.058 7.45 19.02 12.3
4/24/2022 1:30:00 AM 8.38 47.084 0.058 8.31 92.14 12.28
4/24/2022 1:45:00 AM 8.37 47.066 0.058 7.45 32.73 12.29
4/24/2022 2:00:00 AM 8.36 47.048 0.058 7.45 24.79 12.28
4/24/2022 2:15:00 AM 8.36 47.048 0.058 7.45 20.12 12.25
4/24/2022 2:30:00 AM 8.36 47.048 0.058 7.74 20.17 12.25
4/24/2022 2:45:00 AM 8.35 47.03 0.058 7.56 51.64 12.25
4/24/2022 3:00:00 AM 8.35 47.03 0.058 7.41 37.85 12.24
4/24/2022 3:15:00 AM 8.34 47.012 0.058 7.47 23.98 12.23
4/24/2022 3:30:00 AM 8.34 47.012 0.058 7.48 24.09 12.19
4/24/2022 3:45:00 AM 8.34 47.012 0.058 7.59 24.88 12.18
4/24/2022 4:00:00 AM 8.33 46.994 0.058 7.57 23.43 12.2
4/24/2022 4:15:00 AM 8.32 46.976 0.058 7.49 19.03 12.17
4/24/2022 4:30:00 AM 8.32 46.976 0.058 7.6 18.67 12.18
4/24/2022 4:45:00 AM 8.32 46.976 0.058 7.57 23.3 12.18
4/24/2022 5:00:00 AM 8.31 46.958 0.058 7.55 49.92 12.15
4/24/2022 5:15:00 AM 8.3 46.94 0.058 7.35 24.79 12.14
4/24/2022 5:30:00 AM 8.29 46.922 0.058 7.54 22.92 12.14
4/24/2022 5:45:00 AM 8.29 46.922 0.058 7.56 26.84 12.14
4/24/2022 6:00:00 AM 8.28 46.904 0.057 7.53 43.03 12.14
4/24/2022 6:15:00 AM 8.29 46.922 0.057 7.44 19.74 12.12
4/24/2022 6:30:00 AM 8.3 46.94 0.057 7.56 37.15 12.12
4/24/2022 6:45:00 AM 8.3 46.94 0.057 7.4 41.33 12.08
4/24/2022 7:00:00 AM 8.31 46.958 0.057 7.45 18.91 12.09
4/24/2022 7:15:00 AM 8.32 46.976 0.057 7.4 29.88 12.08
4/24/2022 7:30:00 AM 8.33 46.994 0.057 7.41 15.47 12.11
4/24/2022 7:45:00 AM 8.35 47.03 0.057 8.75 87.44 12.14
4/24/2022 8:00:00 AM 8.37 47.066 0.057 7.6 45.87 12.17
4/24/2022 8:15:00 AM 8.4 47.12 0.057 7.49 32.81 12.21
4/24/2022 8:30:00 AM 8.45 47.21 0.057 7.47 19.47 12.28
4/24/2022 8:45:00 AM 8.5 47.3 0.057 7.43 16.51 12.32
4/24/2022 9:00:00 AM 8.56 47.408 0.057 7.44 26.95 12.37
4/24/2022 9:15:00 AM 8.66 47.588 0.057 7.56 21.06 12.44
4/24/2022 9:30:00 AM 8.77 47.786 0.057 7.6 21.36 12.5
4/24/2022 9:45:00 AM 8.86 47.948 0.057 7.46 19.06 12.55
4/24/2022 10:00:00 AM 8.94 48.092 0.057 7.54 21.43 12.59
4/24/2022 10:15:00 AM 9.01 48.218 0.057 7.51 29.55 12.64
4/24/2022 10:30:00 AM 9.08 48.344 0.056 7.52 20.52 12.65
4/24/2022 10:45:00 AM 9.16 48.488 0.056 7.52 17.19 12.7
4/24/2022 11:00:00 AM 9.28 48.704 0.056 7.5 17.36 12.72
4/24/2022 11:15:00 AM 9.4 48.92 0.056 7.52 17.31 12.76
4/24/2022 11:30:00 AM 9.55 49.19 0.056 7.58 17.82 12.79
4/24/2022 11:45:00 AM 9.74 49.532 0.056 7.57 19.52 12.83
4/24/2022 12:00:00 PM 9.93 49.874 0.056 7.83 138.83 12.84
4/24/2022 12:15:00 PM 10.13 50.234 0.056 7.56 35.16 12.87
4/24/2022 12:30:00 PM 10.32 50.576 0.055 7.53 62.7 12.83
4/24/2022 12:45:00 PM 10.51 50.918 0.055 7.56 50.07 12.86
4/24/2022 1:00:00 PM 10.69 51.242 0.055 7.58 18.51 12.87
4/24/2022 1:15:00 PM 10.85 51.53 0.055 7.51 13.49 12.88
4/24/2022 1:30:00 PM 11 51.8 0.055 7.52 20.84 12.89
4/24/2022 1:45:00 PM 11.16 52.088 0.055 7.53 14.61 12.86
4/24/2022 2:00:00 PM 11.34 52.412 0.055 7.6 12.42 12.84
4/24/2022 2:15:00 PM 11.48 52.664 0.055 7.57 14.67 12.86
4/24/2022 2:30:00 PM 11.65 52.97 0.055 7.61 11.12 12.84
4/24/2022 2:45:00 PM 11.77 53.186 0.055 7.54 35.63 12.81
4/24/2022 3:00:00 PM 11.87 53.366 0.055 7.72 22.64 12.86
4/24/2022 3:15:00 PM 11.94 53.492 0.055 7.65 18.05 12.89
4/24/2022 3:30:00 PM 12.01 53.618 0.056 7.69 24.19 12.85
4/24/2022 3:45:00 PM 12.04 53.672 0.056 7.65 31.77 12.87
4/24/2022 4:00:00 PM 12.14 53.852 0.056 7.64 17.41 12.77
4/24/2022 4:15:00 PM 12.13 53.834 0.056 7.69 16.95 12.8
4/24/2022 4:30:00 PM 12.12 53.816 0.056 7.65 24.79 12.83
4/24/2022 4:45:00 PM 12.09 53.762 0.056 7.68 18.02 12.84
4/24/2022 5:00:00 PM 12.03 53.654 0.056 7.78 18.8 12.8
4/24/2022 5:15:00 PM 11.97 53.546 0.055 7.62 14.54 12.78
4/24/2022 5:30:00 PM 11.89 53.402 0.055 7.65 18.77 12.74
4/24/2022 5:45:00 PM 11.86 53.348 0.055 8.07 48.74 12.75
4/24/2022 6:00:00 PM 11.81 53.258 0.055 7.61 22.33 12.72
4/24/2022 6:15:00 PM 11.74 53.132 0.055 7.62 20.59 12.67
4/24/2022 6:30:00 PM 11.67 53.006 0.055 7.74 19.34 12.62
4/24/2022 6:45:00 PM 11.61 52.898 0.055 7.63 15.91 12.6
4/24/2022 7:00:00 PM 11.49 52.682 0.055 7.66 28.53 12.55
4/24/2022 7:15:00 PM 11.38 52.484 0.055 7.69 19.32 12.49
4/24/2022 7:30:00 PM 11.29 52.322 0.055 7.83 19.77 12.44
4/24/2022 7:45:00 PM 11.2 52.16 0.055 7.72 14.45 12.4
4/24/2022 8:00:00 PM 11.1 51.98 0.055 7.55 26.74 12.32
4/24/2022 8:15:00 PM 10.96 51.728 0.056 7.61 23.49 12.25
4/24/2022 8:30:00 PM 10.88 51.584 0.056 7.66 20.97 12.22
4/24/2022 8:45:00 PM 10.78 51.404 0.056 7.61 16.42 12.14
4/24/2022 9:00:00 PM 10.71 51.278 0.056 7.58 16.85 12.11
4/24/2022 9:15:00 PM 10.59 51.062 0.056 7.65 14.49 12.06
4/24/2022 9:30:00 PM 10.51 50.918 0.056 7.57 40.04 12
4/24/2022 9:45:00 PM 10.41 50.738 0.056 7.59 52.77 11.95
4/24/2022 10:00:00 PM 10.33 50.594 0.056 7.56 25.98 11.93
4/24/2022 10:15:00 PM 10.25 50.45 0.057 7.55 19.23 11.91
4/24/2022 10:30:00 PM 10.21 50.378 0.057 7.54 19.85 11.87
4/24/2022 10:45:00 PM 10.18 50.324 0.057 7.54 14.53 11.8
4/24/2022 11:00:00 PM 10.16 50.288 0.057 7.53 17.18 11.78
4/24/2022 11:15:00 PM 10.13 50.234 0.057 7.53 15.12 11.77
4/24/2022 11:30:00 PM 10.1 50.18 0.057 7.62 13.84 11.75
4/24/2022 11:45:00 PM 10.07 50.126 0.057 7.47 25.24 11.72
4/25/2022 12:00:00 AM 10.04 50.072 0.057 7.48 22.04 11.69
4/25/2022 12:15:00 AM 10 50 0.057 7.61 26.07 11.69
4/25/2022 12:30:00 AM 9.97 49.946 0.057 7.38 16.2 11.65
4/25/2022 12:45:00 AM 9.95 49.91 0.065 7.47 33.16 11.6
4/25/2022 1:00:00 AM 9.93 49.874 0.058 7.5 23.46 11.61
4/25/2022 1:15:00 AM 9.91 49.838 0.058 7.51 28.65 11.64
4/25/2022 1:30:00 AM 9.89 49.802 0.058 7.5 19.8 11.63
4/25/2022 1:45:00 AM 9.89 49.802 0.059 7.46 24.77 11.6
4/25/2022 2:00:00 AM 9.87 49.766 0.059 7.47 19.91 11.55
4/25/2022 2:15:00 AM 9.87 49.766 0.059 7.48 17.86 11.56
4/25/2022 2:30:00 AM 9.85 49.73 0.06 7.48 22.27 11.54
4/25/2022 2:45:00 AM 9.82 49.676 0.059 7.49 22.62 11.52
4/25/2022 3:00:00 AM 9.79 49.622 0.059 7.5 22.73 11.51
4/25/2022 3:15:00 AM 9.75 49.55 0.059 7.47 16.6 11.5
4/25/2022 3:30:00 AM 9.71 49.478 0.057 7.47 27.4 11.49
4/25/2022 3:45:00 AM 9.66 49.388 0.057 7.43 11.71 11.52
4/25/2022 4:00:00 AM 9.63 49.334 0.057 7.43 20.71 11.51
4/25/2022 4:15:00 AM 9.59 49.262 0.057 7.45 21.32 11.5
4/25/2022 4:30:00 AM 9.56 49.208 0.057 7.47 16.23 11.53
4/25/2022 4:45:00 AM 9.54 49.172 0.057 7.49 18.22 11.52
4/25/2022 5:00:00 AM 9.53 49.154 0.057 7.39 19.22 11.52
4/25/2022 5:15:00 AM 9.52 49.136 0.058 7.5 20.27 11.52
4/25/2022 5:30:00 AM 9.51 49.118 0.058 7.46 18.61 11.52
4/25/2022 5:45:00 AM 9.49 49.082 0.057 7.48 18.75 11.51
4/25/2022 6:00:00 AM 9.5 49.1 0.057 7.46 17.29 11.5
4/25/2022 6:15:00 AM 9.51 49.118 0.057 7.46 25.85 11.5
4/25/2022 6:30:00 AM 9.52 49.136 0.058 7.45 19.27 11.52
4/25/2022 6:45:00 AM 9.54 49.172 0.058 7.44 20.44 11.5
4/25/2022 7:00:00 AM 9.56 49.208 0.058 7.46 17.99 11.54
4/25/2022 7:15:00 AM 9.6 49.28 0.058 7.49 28.51 11.55
4/25/2022 7:30:00 AM 9.63 49.334 0.058 7.45 19.22 11.58
4/25/2022 7:45:00 AM 9.66 49.388 0.058 7.44 49.14 11.56
4/25/2022 8:00:00 AM 9.68 49.424 0.058 7.47 13.41 11.6
4/25/2022 8:15:00 AM 9.72 49.496 0.058 7.45 17.69 11.63
4/25/2022 8:30:00 AM 9.76 49.568 0.058 7.48 22.74 11.6
4/25/2022 8:45:00 AM 9.83 49.694 0.058 7.44 27.41 11.76
4/25/2022 9:00:00 AM 9.89 49.802 0.057 7.48 24.51 11.8
4/25/2022 9:15:00 AM 9.97 49.946 0.057 7.51 16.09 11.76
4/25/2022 9:30:00 AM 10.05 50.09 0.057 7.51 25.76 11.86
4/25/2022 9:45:00 AM 10.14 50.252 0.057 7.48 22.8 11.94
4/25/2022 10:00:00 AM 10.22 50.396 0.057 7.52 18.79 12
4/25/2022 10:15:00 AM 10.3 50.54 0.057 7.51 10.64 12.01
4/25/2022 10:30:00 AM 10.4 50.72 0.057 7.52 14.96 12.1
4/25/2022 10:45:00 AM 10.51 50.918 0.057 7.53 27.72 12.14
4/25/2022 11:00:00 AM 10.63 51.134 0.057 7.66 17.54 12.2
4/25/2022 11:15:00 AM 10.76 51.368 0.057 7.55 13.43 12.29
4/25/2022 11:30:00 AM 10.91 51.638 0.057 7.6 17.59 12.31
4/25/2022 11:45:00 AM 11.08 51.944 0.057 7.59 18.66 12.37
4/25/2022 12:00:00 PM 11.25 52.25 0.057 7.56 20.51 12.38
4/25/2022 12:15:00 PM 11.44 52.592 0.057 7.61 20.46 12.47
4/25/2022 12:30:00 PM 11.63 52.934 0.057 8.31 30.98 12.47
4/25/2022 12:45:00 PM 11.79 53.222 0.057 7.6 31.15 12.52
4/25/2022 1:00:00 PM 11.96 53.528 0.057 7.67 41.72 12.52
4/25/2022 1:15:00 PM 12.15 53.87 0.057 7.61 37.14 12.57
4/25/2022 1:30:00 PM 12.31 54.158 0.057 7.63 17.36 12.54
4/25/2022 1:45:00 PM 12.46 54.428 0.057 7.63 18.69 12.59
4/25/2022 2:00:00 PM 12.6 54.68 0.057 7.69 28.54 12.6
4/25/2022 2:15:00 PM 12.73 54.914 0.057 7.61 18.96 12.62
4/25/2022 2:30:00 PM 12.87 55.166 0.057 7.63 13.39 12.59
4/25/2022 2:45:00 PM 12.98 55.364 0.057 7.63 17.22 12.63
4/25/2022 3:00:00 PM 13.06 55.508 0.057 7.65 16.99 12.55
4/25/2022 3:15:00 PM 13.17 55.706 0.057 7.64 19.65 12.6
4/25/2022 3:30:00 PM 13.29 55.922 0.057 8.54 38.24 12.54
4/25/2022 3:45:00 PM 13.41 56.138 0.057 7.57 41.8 12.51
4/25/2022 4:00:00 PM 13.43 56.174 0.057 7.71 16.36 12.52
4/25/2022 4:15:00 PM 13.45 56.21 0.057 7.71 31.29 12.46
4/25/2022 4:30:00 PM 13.5 56.3 0.057 7.7 52.59 12.42
4/25/2022 4:45:00 PM 13.54 56.372 0.057 7.69 16.89 12.37
4/25/2022 5:00:00 PM 13.54 56.372 0.057 7.76 21.19 12.31
4/25/2022 5:15:00 PM 13.46 56.228 0.057 7.64 18.16 12.29
4/25/2022 5:30:00 PM 13.44 56.192 0.057 7.75 16.72 12.3
4/25/2022 5:45:00 PM 13.33 55.994 0.057 7.74 17.34 12.24
4/25/2022 6:00:00 PM 13.21 55.778 0.057 7.67 14.93 12.22
4/25/2022 6:15:00 PM 13.1 55.58 0.057 7.72 14.83 12.18
4/25/2022 6:30:00 PM 12.98 55.364 0.057 7.7 36.36 12.06
4/25/2022 6:45:00 PM 12.85 55.13 0.057 7.68 25.8 12.1
4/25/2022 7:00:00 PM 12.74 54.932 0.057 7.67 23.19 11.92
4/25/2022 7:15:00 PM 12.63 54.734 0.057 7.67 14.36 11.95
4/25/2022 7:30:00 PM 12.52 54.536 0.057 7.7 18.2 11.84
4/25/2022 7:45:00 PM 12.41 54.338 0.057 7.65 22.02 11.75
4/25/2022 8:00:00 PM 12.32 54.176 0.057 7.62 19.1 11.71
4/25/2022 8:15:00 PM 12.26 54.068 0.057 7.62 16.23 11.61
4/25/2022 8:30:00 PM 12.18 53.924 0.057 7.61 17.88 11.55
4/25/2022 8:45:00 PM 12.11 53.798 0.057 7.6 17.41 11.5
4/25/2022 9:00:00 PM 12.06 53.708 0.057 7.64 13.43 11.44
4/25/2022 9:15:00 PM 12 53.6 0.058 7.52 17.73 11.33
4/25/2022 9:30:00 PM 11.95 53.51 0.058 7.68 16.76 11.27
4/25/2022 9:45:00 PM 11.9 53.42 0.058 7.53 17.91 11.23
4/25/2022 10:00:00 PM 11.87 53.366 0.058 7.65 46.01 11.12
4/25/2022 10:15:00 PM 11.83 53.294 0.058 7.53 121.37 11.11
4/25/2022 10:30:00 PM 11.8 53.24 0.058 7.63 24.17 11.04
4/25/2022 10:45:00 PM 11.78 53.204 0.058 7.61 22.82 11
4/25/2022 11:00:00 PM 11.75 53.15 0.058 7.43 25.65 10.95
4/25/2022 11:15:00 PM 11.71 53.078 0.058 7.51 18.06 10.95
4/25/2022 11:30:00 PM 11.67 53.006 0.058 7.47 17.66 10.9
4/25/2022 11:45:00 PM 11.64 52.952 0.058 7.82 36.46 10.91
4/26/2022 12:00:00 AM 11.61 52.898 0.058 7.42 41.43 10.9
4/26/2022 12:15:00 AM 11.57 52.826 0.058 7.49 19.05 10.85
4/26/2022 12:30:00 AM 11.56 52.808 0.058 7.53 49.49 10.8
4/26/2022 12:45:00 AM 11.56 52.808 0.058 7.43 34.13 10.71
4/26/2022 1:00:00 AM 11.58 52.844 0.058 7.47 18.35 10.67
4/26/2022 1:15:00 AM 11.59 52.862 0.058 7.49 20.89 10.71
4/26/2022 1:30:00 AM 11.6 52.88 0.058 7.63 41.13 10.78
4/26/2022 1:45:00 AM 11.59 52.862 0.058 7.42 64.2 10.79
4/26/2022 2:00:00 AM 11.59 52.862 0.058 7.49 27.64 10.74
4/26/2022 2:15:00 AM 11.59 52.862 0.058 7.43 23.67 10.78
4/26/2022 2:30:00 AM 11.58 52.844 0.058 7.45 17.83 10.75
4/26/2022 2:45:00 AM 11.57 52.826 0.058 7.42 23.05 10.74
4/26/2022 3:00:00 AM 11.57 52.826 0.058 7.44 20.36 10.76
4/26/2022 3:15:00 AM 11.56 52.808 0.058 7.55 17.85 10.71
4/26/2022 3:30:00 AM 11.55 52.79 0.058 7.38 33.15 10.77
4/26/2022 3:45:00 AM 11.55 52.79 0.058 7.67 58.44 10.64
4/26/2022 4:00:00 AM 11.54 52.772 0.058 7.45 36.23 10.77
4/26/2022 4:15:00 AM 11.53 52.754 0.058 7.41 22.33 10.75
4/26/2022 4:30:00 AM 11.51 52.718 0.058 7.41 17.61 10.67
4/26/2022 4:45:00 AM 11.5 52.7 0.058 7.43 19.23 10.71
4/26/2022 5:00:00 AM 11.5 52.7 0.058 7.52 19.36 10.74
4/26/2022 5:15:00 AM 11.49 52.682 0.058 7.38 42.01 10.7
4/26/2022 5:30:00 AM 11.49 52.682 0.058 7.42 40.79 10.73
4/26/2022 5:45:00 AM 11.48 52.664 0.058 7.48 23.28 10.74
4/26/2022 6:00:00 AM 11.49 52.682 0.058 7.58 44.26 10.48
4/26/2022 6:15:00 AM 11.48 52.664 0.052 7.5 32.87 10.66
4/26/2022 6:30:00 AM 11.49 52.682 0.052 7.38 69.4 10.64
4/26/2022 6:45:00 AM 11.5 52.7 0.053 7.4 33.83 10.71
4/26/2022 7:00:00 AM 11.5 52.7 0.054 7.5 23.26 10.66
4/26/2022 7:15:00 AM 11.51 52.718 0.054 7.38 38.38 10.62
4/26/2022 7:30:00 AM 11.52 52.736 0.054 7.42 20.75 10.64
4/26/2022 7:45:00 AM 11.51 52.718 0.054 7.38 23.6 10.63
4/26/2022 8:00:00 AM 11.52 52.736 0.053 7.37 27.17 10.64
4/26/2022 8:15:00 AM 11.52 52.736 0.053 7.39 19.34 10.68
4/26/2022 8:30:00 AM 11.52 52.736 0.053 7.35 26.82 10.68
4/26/2022 8:45:00 AM 11.52 52.736 0.053 7.4 90.42 10.65
4/26/2022 9:00:00 AM 11.53 52.754 0.053 7.47 40.01 10.71
4/26/2022 9:15:00 AM 11.55 52.79 0.053 7.43 14.46 10.8
4/26/2022 9:30:00 AM 11.57 52.826 0.053 7.51 21.54 10.83
4/26/2022 9:45:00 AM 11.59 52.862 0.058 7.36 22.98 10.88
4/26/2022 10:00:00 AM 11.62 52.916 0.058 7.5 28.05 10.96
4/26/2022 10:15:00 AM 11.64 52.952 0.058 7.34 17.42 11.05
4/26/2022 10:30:00 AM 11.67 53.006 0.058 7.38 18.87 11.08
4/26/2022 10:45:00 AM 11.71 53.078 0.058 7.51 25.46 11.15
4/26/2022 11:00:00 AM 11.75 53.15 0.058 7.42 24.28 11.07
4/26/2022 11:15:00 AM 11.78 53.204 0.058 7.46 18.08 11.25
4/26/2022 11:30:00 AM 11.81 53.258 0.058 7.4 18.15 11.34
4/26/2022 11:45:00 AM 11.84 53.312 0.058 7.39 115.44 11.26
4/26/2022 12:00:00 PM 11.88 53.384 0.057 7.45 30.22 11.32
4/26/2022 12:15:00 PM 11.89 53.402 0.056 7.54 30.72 11.31
4/26/2022 12:30:00 PM 11.91 53.438 0.058 8.24 41.09 11.35
4/26/2022 12:45:00 PM 11.92 53.456 0.058 7.46 54.55 11.5
4/26/2022 1:00:00 PM 11.94 53.492 0.058 7.49 23.11 11.42
4/26/2022 1:15:00 PM 11.97 53.546 0.058 7.52 20.79 11.47
4/26/2022 1:30:00 PM 12 53.6 0.058 7.54 16.02 11.51
4/26/2022 1:45:00 PM 12.03 53.654 0.058 7.54 15.05 11.59
4/26/2022 2:00:00 PM 12.06 53.708 0.058 7.54 19.63 11.52
4/26/2022 2:15:00 PM 12.09 53.762 0.058 7.53 20.11 11.56
4/26/2022 2:30:00 PM 12.1 53.78 0.058 7.63 25.35 11.58
4/26/2022 2:45:00 PM 12.11 53.798 0.058 7.68 55.51 11.69
4/26/2022 3:00:00 PM 12.12 53.816 0.058 7.62 40.46 11.62
4/26/2022 3:15:00 PM 12.14 53.852 0.058 7.62 23.7 11.64
4/26/2022 3:30:00 PM 12.16 53.888 0.058 7.47 35.34 11.69
4/26/2022 3:45:00 PM 12.18 53.924 0.058 7.68 20.17 11.67
4/26/2022 4:00:00 PM 12.2 53.96 0.058 7.63 20.43 11.62
4/26/2022 4:15:00 PM 12.2 53.96 0.058 7.68 40.95 11.71
4/26/2022 4:30:00 PM 12.2 53.96 0.058 7.56 45.57 11.61
4/26/2022 4:45:00 PM 12.19 53.942 0.058 7.66 61.87 11.54
4/26/2022 5:00:00 PM 12.2 53.96 0.057 7.58 23.96 11.63
4/26/2022 5:15:00 PM 12.19 53.942 0.057 7.68 29.65 11.58
4/26/2022 5:30:00 PM 12.18 53.924 0.057 7.62 23.07 11.6
4/26/2022 5:45:00 PM 12.17 53.906 0.057 7.52 20.21 11.53
4/26/2022 6:00:00 PM 12.16 53.888 0.056 7.55 21.9 11.51
4/26/2022 6:15:00 PM 12.15 53.87 0.056 7.62 21.3 11.42
4/26/2022 6:30:00 PM 12.13 53.834 0.056 7.54 118.36 11.45
4/26/2022 6:45:00 PM 12.11 53.798 0.056 7.5 75.62 11.29
4/26/2022 7:00:00 PM 12.09 53.762 0.057 7.52 22.58 11.37
4/26/2022 7:15:00 PM 12.08 53.744 0.057 7.4 21.76 11.27
4/26/2022 7:30:00 PM 12.06 53.708 0.057 7.48 25.32 11.23
4/26/2022 7:45:00 PM 12.03 53.654 0.057 7.46 26.82 11.22
4/26/2022 8:00:00 PM 12 53.6 0.057 7.46 36.86 11.12
4/26/2022 8:15:00 PM 11.98 53.564 0.057 7.51 16.87 11.09
4/26/2022 8:30:00 PM 11.95 53.51 0.057 7.39 14.45 11.06
4/26/2022 8:45:00 PM 11.92 53.456 0.057 7.39 16.22 10.95
4/26/2022 9:00:00 PM 11.88 53.384 0.057 7.31 18.41 10.98
4/26/2022 9:15:00 PM 11.84 53.312 0.057 7.34 15.32 10.96
4/26/2022 9:30:00 PM 11.79 53.222 0.057 7.39 19.88 10.8
4/26/2022 9:45:00 PM 11.73 53.114 0.057 7.51 30.71 10.8
4/26/2022 10:00:00 PM 11.66 52.988 0.057 7.34 27.93 10.71
4/26/2022 10:15:00 PM 11.6 52.88 0.057 7.38 21.4 10.76
4/26/2022 10:30:00 PM 11.54 52.772 0.057 7.39 22.06 10.72
4/26/2022 10:45:00 PM 11.47 52.646 0.057 7.51 22.8 10.68
4/26/2022 11:00:00 PM 11.42 52.556 0.057 7.5 24.52 10.71
4/26/2022 11:15:00 PM 11.36 52.448 0.057 7.32 22.19 10.57
4/26/2022 11:30:00 PM 11.32 52.376 0.057 7.39 25.37 10.68
4/26/2022 11:45:00 PM 11.26 52.268 0.057 7.51 24.62 10.66
4/27/2022 12:00:00 AM 11.22 52.196 0.057 7.32 17.87 10.67
4/27/2022 12:15:00 AM 11.19 52.142 0.057 7.42 21.17 10.63
4/27/2022 12:30:00 AM 11.15 52.07 0.057 7.34 17.56 10.65
4/27/2022 12:45:00 AM 11.13 52.034 0.057 7.38 20.71 10.69
4/27/2022 1:00:00 AM 11.1 51.98 0.057 7.37 14.8 10.64
4/27/2022 1:15:00 AM 11.08 51.944 0.057 7.43 20.98 10.63
4/27/2022 1:30:00 AM 11.06 51.908 0.057 7.37 17.02 10.7
4/27/2022 1:45:00 AM 11.04 51.872 0.057 7.51 17.82 10.64
4/27/2022 2:00:00 AM 11.01 51.818 0.057 7.35 26.77 10.64
4/27/2022 2:15:00 AM 10.99 51.782 0.057 7.42 20.96 10.67
4/27/2022 2:30:00 AM 10.94 51.692 0.057 7.39 25.64 10.69
4/27/2022 2:45:00 AM 10.91 51.638 0.057 7.42 17.62 10.65
4/27/2022 3:00:00 AM 10.87 51.566 0.057 7.37 24.23 10.67
4/27/2022 3:15:00 AM 10.83 51.494 0.057 7.41 19.36 10.68
4/27/2022 3:30:00 AM 10.78 51.404 0.057 7.37 27.11 10.71
4/27/2022 3:45:00 AM 10.71 51.278 0.057 7.39 28.1 10.77
4/27/2022 4:00:00 AM 10.66 51.188 0.057 7.44 30.41 10.81
4/27/2022 4:15:00 AM 10.6 51.08 0.057 7.32 24.25 10.71
4/27/2022 4:30:00 AM 10.57 51.026 0.056 7.49 22.98 10.73
4/27/2022 4:45:00 AM 10.53 50.954 0.056 7.47 27.29 10.76
4/27/2022 5:00:00 AM 10.48 50.864 0.056 7.41 21.65 10.76
4/27/2022 5:15:00 AM 10.44 50.792 0.056 7.33 19.87 10.76
4/27/2022 5:30:00 AM 10.41 50.738 0.056 7.38 20.84 10.78
4/27/2022 5:45:00 AM 10.37 50.666 0.057 7.39 18.42 10.75
4/27/2022 6:00:00 AM 10.31 50.558 0.057 7.34 15.71 10.77
4/27/2022 6:15:00 AM 10.27 50.486 0.057 7.36 22.79 10.82
4/27/2022 6:30:00 AM 10.23 50.414 0.057 7.37 18.83 10.79
4/27/2022 6:45:00 AM 10.17 50.306 0.057 7.38 22.47 10.82
4/27/2022 7:00:00 AM 10.1 50.18 0.057 7.4 26.26 10.81
4/27/2022 7:15:00 AM 10.05 50.09 0.057 7.47 22.18 10.82
4/27/2022 7:30:00 AM 9.99 49.982 0.057 7.51 19.89 10.92
4/27/2022 7:45:00 AM 9.98 49.964 0.057 7.41 27.07 10.93
4/27/2022 8:00:00 AM 9.98 49.964 0.058 7.43 30.18 10.95
4/27/2022 8:15:00 AM 10 50 0.058 7.34 24.66 11.14
4/27/2022 8:30:00 AM 10.01 50.018 0.058 7.4 25.65 11.15
4/27/2022 8:45:00 AM 10.06 50.108 0.058 7.36 22.06 11.23
4/27/2022 9:00:00 AM 10.11 50.198 0.06 7.4 19.44 11.3
4/27/2022 9:15:00 AM 10.18 50.324 0.06 7.43 15.67 11.38
4/27/2022 9:30:00 AM 10.23 50.414 0.06 7.43 20.62 11.44
4/27/2022 9:45:00 AM 10.28 50.504 0.06 7.42 18.67 11.44
4/27/2022 10:00:00 AM 10.38 50.684 0.06 7.53 22.53 11.55
4/27/2022 10:15:00 AM 10.41 50.738 0.06 7.48 22.96 11.56
4/27/2022 10:30:00 AM 10.41 50.738 0.06 7.47 20.18 11.66
4/27/2022 10:45:00 AM 10.4 50.72 0.06 7.6 15.04 11.67
4/27/2022 11:00:00 AM 10.41 50.738 0.06 7.54 25.33 11.75
4/27/2022 11:15:00 AM 10.5 50.9 0.06 7.59 19 11.8
4/27/2022 11:30:00 AM 10.51 50.918 0.06 7.47 24.67 11.78
4/27/2022 11:45:00 AM 10.53 50.954 0.06 7.62 24.07 11.81
4/27/2022 12:00:00 PM 10.56 51.008 0.06 7.61 33.23 11.83
4/27/2022 12:15:00 PM 10.65 51.17 0.06 7.64 38.91 11.87
4/27/2022 12:30:00 PM 10.69 51.242 0.06 7.51 19.65 11.95
4/27/2022 12:45:00 PM 10.69 51.242 0.06 7.55 25.95 12
4/27/2022 1:00:00 PM 10.7 51.26 0.06 7.56 25.02 12.02
4/27/2022 1:15:00 PM 10.75 51.35 0.059 7.57 25.04 12.02
4/27/2022 1:30:00 PM 10.74 51.332 0.059 7.6 27.84 12.01
4/27/2022 1:45:00 PM 10.7 51.26 0.059 7.56 20.48 12.04
4/27/2022 2:00:00 PM 10.61 51.098 0.059 7.59 26.56 12.14
4/27/2022 2:15:00 PM 10.52 50.936 0.059 7.55 18.06 12.06
4/27/2022 2:30:00 PM 10.43 50.774 0.059 7.61 21.12 12.19
4/27/2022 2:45:00 PM 10.4 50.72 0.059 7.62 22.11 12.2
4/27/2022 3:00:00 PM 10.42 50.756 0.059 7.6 26.23 12.07
4/27/2022 3:15:00 PM 10.44 50.792 0.059 7.6 25.25 12.01
4/27/2022 3:30:00 PM 10.43 50.774 0.059 7.56 32.51 12.1
4/27/2022 3:45:00 PM 10.4 50.72 0.059 7.72 46.72 12.09
4/27/2022 4:00:00 PM 10.37 50.666 0.059 7.63 50.4 12.18
4/27/2022 4:15:00 PM 10.33 50.594 0.059 7.57 33.69 12.12
4/27/2022 4:30:00 PM 10.29 50.522 0.06 7.65 28.83 12.15
4/27/2022 4:45:00 PM 10.21 50.378 0.06 7.8 75.72 12.02
4/27/2022 5:00:00 PM 10.1 50.18 0.06 7.65 31.19 12.14
4/27/2022 5:15:00 PM 10.01 50.018 0.059 7.61 43.56 12.07
4/27/2022 5:30:00 PM 9.93 49.874 0.06 7.61 31.63 12.11
4/27/2022 5:45:00 PM 9.88 49.784 0.06 7.58 39 12.06
4/27/2022 6:00:00 PM 9.79 49.622 0.06 7.6 19.9 12.06
4/27/2022 6:15:00 PM 9.71 49.478 0.06 7.62 43.25 12.02
4/27/2022 6:30:00 PM 9.62 49.316 0.06 7.6 39.84 12
4/27/2022 6:45:00 PM 9.53 49.154 0.06 7.68 25.29 12
4/27/2022 7:00:00 PM 9.43 48.974 0.06 7.59 21.62 11.98
4/27/2022 7:15:00 PM 9.36 48.848 0.06 7.58 22.17 11.94
4/27/2022 7:30:00 PM 9.31 48.758 0.06 7.57 24.25 11.89
4/27/2022 7:45:00 PM 9.27 48.686 0.061 7.93 48.65 11.81
4/27/2022 8:00:00 PM 9.21 48.578 0.061 7.5 54.01 11.73
4/27/2022 8:15:00 PM 9.15 48.47 0.061 7.55 39.27 11.6
4/27/2022 8:30:00 PM 9.11 48.398 0.061 8.08 73.59 11.63
4/27/2022 8:45:00 PM 9.06 48.308 0.061 7.52 50.07 11.57
4/27/2022 9:00:00 PM 8.99 48.182 0.061 7.51 27.8 11.6
4/27/2022 9:15:00 PM 8.89 48.002 0.061 7.52 31.85 11.56
4/27/2022 9:30:00 PM 8.78 47.804 0.061 8.22 94.59 11.54
4/27/2022 9:45:00 PM 8.71 47.678 0.061 7.45 46.68 11.53
4/27/2022 10:00:00 PM 8.66 47.588 0.06 7.44 31.77 11.54
4/27/2022 10:15:00 PM 8.64 47.552 0.06 7.47 32.72 11.52
4/27/2022 10:30:00 PM 8.61 47.498 0.06 7.45 25.49 11.55
4/27/2022 10:45:00 PM 8.59 47.462 0.06 7.49 23.46 11.52
4/27/2022 11:00:00 PM 8.55 47.39 0.061 7.43 50.67 11.47
4/27/2022 11:15:00 PM 8.51 47.318 0.061 7.42 67.34 11.45
4/27/2022 11:30:00 PM 8.48 47.264 0.061 7.51 36.74 11.52
4/27/2022 11:45:00 PM 8.45 47.21 0.061 7.82 75.8 11.43
4/28/2022 12:00:00 AM 8.42 47.156 0.061 7.44 48.38 11.42
4/28/2022 12:15:00 AM 8.37 47.066 0.061 7.45 33.13 11.49
4/28/2022 12:30:00 AM 8.34 47.012 0.061 7.52 25.65 11.51
4/28/2022 12:45:00 AM 8.31 46.958 0.061 7.4 23.54 11.49
4/28/2022 1:00:00 AM 8.27 46.886 0.061 7.46 22.35 11.47
4/28/2022 1:15:00 AM 8.24 46.832 0.061 7.44 16.78 11.51
4/28/2022 1:30:00 AM 8.22 46.796 0.061 7.43 25.13 11.51
4/28/2022 1:45:00 AM 8.22 46.796 0.061 7.55 27.23 11.45
4/28/2022 2:00:00 AM 8.22 46.796 0.061 7.53 62.51 11.42
4/28/2022 2:15:00 AM 8.22 46.796 0.061 7.44 40.12 11.48
4/28/2022 2:30:00 AM 8.21 46.778 0.061 7.41 53.64 11.46
4/28/2022 2:45:00 AM 8.15 46.67 0.061 7.44 25.49 11.49
4/28/2022 3:00:00 AM 8.13 46.634 0.061 7.46 21.25 11.49
4/28/2022 3:15:00 AM 8.11 46.598 0.061 7.53 36.22 11.46
4/28/2022 3:30:00 AM 8.1 46.58 0.061 7.83 66.72 11.44
4/28/2022 3:45:00 AM 8.1 46.58 0.061 7.45 69.16 11.35
4/28/2022 4:00:00 AM 8.07 46.526 0.061 7.39 39.44 11.45
4/28/2022 4:15:00 AM 8.07 46.526 0.061 7.41 28.35 11.49
4/28/2022 4:30:00 AM 8.04 46.472 0.061 7.44 25.64 11.47
4/28/2022 4:45:00 AM 8.01 46.418 0.061 7.43 19.14 11.46
4/28/2022 5:00:00 AM 7.97 46.346 0.061 8.43 36.33 11.21
4/28/2022 5:15:00 AM 7.88 46.184 0.06 7.43 29.06 11.4
4/28/2022 5:30:00 AM 7.81 46.058 0.061 7.45 34.08 11.51
4/28/2022 5:45:00 AM 7.77 45.986 0.061 7.48 22.85 11.48
4/28/2022 6:00:00 AM 7.75 45.95 0.06 7.73 38.7 11.55
4/28/2022 6:15:00 AM 7.74 45.932 0.06 7.59 62.06 11.51
4/28/2022 6:30:00 AM 7.72 45.896 0.06 7.46 93.64 11.47
4/28/2022 6:45:00 AM 7.68 45.824 0.06 7.56 41.34 11.54
4/28/2022 7:00:00 AM 7.65 45.77 0.06 7.45 45.32 11.55
4/28/2022 7:15:00 AM 7.62 45.716 0.061 7.49 22.29 11.57
4/28/2022 7:30:00 AM 7.58 45.644 0.061 7.43 33.41 11.63
4/28/2022 7:45:00 AM 7.52 45.536 0.061 7.47 17.76 11.65
4/28/2022 8:00:00 AM 7.47 45.446 0.061 8.51 271.17 11.67
4/28/2022 8:15:00 AM 7.41 45.338 0.061 7.48 223.31 11.73
4/28/2022 8:30:00 AM 7.34 45.212 0.061 7.48 131.58 11.92
4/28/2022 8:45:00 AM 7.31 45.158 0.061 7.48 157.27 11.95
4/28/2022 9:00:00 AM 7.33 45.194 0.061 7.51 25.13 12.02
4/28/2022 9:15:00 AM 7.41 45.338 0.061 7.6 16.21 12.06
4/28/2022 9:30:00 AM 7.5 45.5 0.061 7.49 19.21 12.29
4/28/2022 9:45:00 AM 7.61 45.698 0.061 7.55 15.8 12.28
4/28/2022 10:00:00 AM 7.73 45.914 0.061 7.57 23.39 12.36
4/28/2022 10:15:00 AM 7.88 46.184 0.061 7.6 16.97 12.35
4/28/2022 10:30:00 AM 8.02 46.436 0.061 7.6 23.62 12.42
4/28/2022 10:45:00 AM 8.17 46.706 0.061 7.62 24.9 12.4
4/28/2022 11:00:00 AM 8.34 47.012 0.061 7.56 26.74 12.5
4/28/2022 11:15:00 AM 8.53 47.354 0.061 7.57 19.61 12.28
4/28/2022 11:30:00 AM 8.69 47.642 0.061 7.58 27.36 12.58
4/28/2022 11:45:00 AM 8.84 47.912 0.061 7.66 19.94 12.53
4/28/2022 12:00:00 PM 9 48.2 0.061 7.69 26.58 12.46
4/28/2022 12:15:00 PM 9.14 48.452 0.061 8.12 53.74 12.4
4/28/2022 12:30:00 PM 9.28 48.704 0.061 7.64 59.35 12.46
4/28/2022 12:45:00 PM 9.36 48.848 0.061 7.59 39.07 12.48
4/28/2022 1:00:00 PM 9.47 49.046 0.061 7.61 26.97 12.58
4/28/2022 1:15:00 PM 9.59 49.262 0.06 7.66 15.92 12.59
4/28/2022 1:30:00 PM 9.7 49.46 0.06 7.66 26.54 12.46
4/28/2022 1:45:00 PM 9.87 49.766 0.06 7.74 21.59 12.48
4/28/2022 2:00:00 PM 10.03 50.054 0.06 7.57 24.45 12.45
4/28/2022 2:15:00 PM 10.16 50.288 0.06 7.67 29.59 12.45
4/28/2022 2:30:00 PM 10.23 50.414 0.06 7.63 26.34 12.43
4/28/2022 2:45:00 PM 10.27 50.486 0.06 7.63 30.33 12.49
4/28/2022 3:00:00 PM 10.4 50.72 0.06 7.7 51.48 12.5
4/28/2022 3:15:00 PM 10.46 50.828 0.06 7.68 18.41 12.4
4/28/2022 3:30:00 PM 10.55 50.99 0.061 7.66 26.07 12.37
4/28/2022 3:45:00 PM 10.62 51.116 0.06 7.72 34.44 12.41
4/28/2022 4:00:00 PM 10.64 51.152 0.061 7.7 18.33 12.4
4/28/2022 4:15:00 PM 10.66 51.188 0.061 7.73 40.26 12.34
4/28/2022 4:30:00 PM 10.67 51.206 0.06 7.71 26.88 12.39
4/28/2022 4:45:00 PM 10.65 51.17 0.06 7.72 54.03 12.34
4/28/2022 5:00:00 PM 10.58 51.044 0.06 7.79 22.17 12.3
4/28/2022 5:15:00 PM 10.53 50.954 0.06 7.79 34.83 12.32
4/28/2022 5:30:00 PM 10.47 50.846 0.06 7.73 24.77 12.26
4/28/2022 5:45:00 PM 10.38 50.684 0.06 7.67 23.07 12.19
4/28/2022 6:00:00 PM 10.28 50.504 0.06 7.67 34.15 12.2
4/28/2022 6:15:00 PM 10.16 50.288 0.06 7.75 19.72 12.17
4/28/2022 6:30:00 PM 10.03 50.054 0.06 7.7 30.06 12.21
4/28/2022 6:45:00 PM 9.93 49.874 0.06 7.61 30.79 12.14
4/28/2022 7:00:00 PM 9.83 49.694 0.06 7.68 31.43 12.15
4/28/2022 7:15:00 PM 9.72 49.496 0.06 7.7 35.52 12.02
4/28/2022 7:30:00 PM 9.59 49.262 0.06 7.7 34.87 12.06
4/28/2022 7:45:00 PM 9.47 49.046 0.06 7.8 27.51 12.11
4/28/2022 8:00:00 PM 9.34 48.812 0.061 7.69 30.11 12.09
4/28/2022 8:15:00 PM 9.21 48.578 0.061 7.68 20.33 11.96
4/28/2022 8:30:00 PM 9.09 48.362 0.061 7.77 19.59 11.97
4/28/2022 8:45:00 PM 8.98 48.164 0.061 7.63 17.76 11.89
4/28/2022 9:00:00 PM 8.9 48.02 0.061 7.66 25.92 11.82
4/28/2022 9:15:00 PM 8.84 47.912 0.061 7.74 24.86 11.83
4/28/2022 9:30:00 PM 8.81 47.858 0.061 7.61 26.14 11.77
4/28/2022 9:45:00 PM 8.79 47.822 0.061 7.63 24.46 11.58
4/28/2022 10:00:00 PM 8.75 47.75 0.061 7.54 38.22 11.71
4/28/2022 10:15:00 PM 8.72 47.696 0.061 7.54 32.84 11.57
4/28/2022 10:30:00 PM 8.67 47.606 0.061 7.55 24.29 11.63
4/28/2022 10:45:00 PM 8.62 47.516 0.061 7.55 46.09 11.51
4/28/2022 11:00:00 PM 8.56 47.408 0.061 7.59 27.9 11.49
4/28/2022 11:15:00 PM 8.5 47.3 0.061 7.52 31.67 11.47
4/28/2022 11:30:00 PM 8.45 47.21 0.061 7.5 31.47 11.54
4/28/2022 11:45:00 PM 8.41 47.138 0.061 7.51 49.09 11.43
4/29/2022 12:00:00 AM 8.38 47.084 0.061 7.63 151.06 11.4
4/29/2022 12:15:00 AM 8.31 46.958 0.061 7.49 274.71 11.41
4/29/2022 12:30:00 AM 8.25 46.85 0.061 7.58 25.73 11.45
4/29/2022 12:45:00 AM 8.17 46.706 0.061 7.53 37.67 11.53
4/29/2022 1:00:00 AM 8.11 46.598 0.061 7.53 24.61 11.57
4/29/2022 1:15:00 AM 8.04 46.472 0.061 7.63 28.97 11.52
4/29/2022 1:30:00 AM 7.98 46.364 0.061 7.56 22.83 11.55
4/29/2022 1:45:00 AM 7.92 46.256 0.061 8.04 120.45 11.38
4/29/2022 2:00:00 AM 7.86 46.148 0.063 7.59 70.98 11.43
4/29/2022 2:15:00 AM 7.83 46.094 0.061 7.47 46.72 11.49
4/29/2022 2:30:00 AM 7.8 46.04 0.062 7.47 38.47 11.46
4/29/2022 2:45:00 AM 7.77 45.986 0.062 7.52 41.47 11.55
4/29/2022 3:00:00 AM 7.73 45.914 0.062 7.52 45.2 11.58
4/29/2022 3:15:00 AM 7.71 45.878 0.062 7.59 28.42 11.57
4/29/2022 3:30:00 AM 7.67 45.806 0.062 7.49 39.96 11.55
4/29/2022 3:45:00 AM 7.67 45.806 0.062 7.89 115.95 11.4
4/29/2022 4:00:00 AM 7.64 45.752 0.062 7.49 272.46 11.34
4/29/2022 4:15:00 AM 7.61 45.698 0.062 7.52 28.83 11.57
4/29/2022 4:30:00 AM 7.59 45.662 0.062 7.54 38.56 11.4
4/29/2022 4:45:00 AM 7.57 45.626 0.062 7.51 23.89 11.46
4/29/2022 5:00:00 AM 7.54 45.572 0.062 7.53 32.05 11.45
4/29/2022 5:15:00 AM 7.52 45.536 0.062 7.51 24.21 11.47
4/29/2022 5:30:00 AM 7.5 45.5 0.062 7.53 28.82 11.5
4/29/2022 5:45:00 AM 7.46 45.428 0.062 7.5 22.87 11.38
4/29/2022 6:00:00 AM 7.43 45.374 0.062 7.51 25.72 11.43
4/29/2022 6:15:00 AM 7.39 45.302 0.062 7.46 22.87 11.51
4/29/2022 6:30:00 AM 7.36 45.248 0.062 8.27 108.12 11.39
4/29/2022 6:45:00 AM 7.31 45.158 0.061 7.49 71.09 11.46
4/29/2022 7:00:00 AM 7.27 45.086 0.061 7.51 37.55 11.58
4/29/2022 7:15:00 AM 7.23 45.014 0.061 7.5 36.32 11.54
4/29/2022 7:30:00 AM 7.2 44.96 0.061 7.5 36.83 11.66
4/29/2022 7:45:00 AM 7.17 44.906 0.061 7.48 33.65 11.72
4/29/2022 8:00:00 AM 7.14 44.852 0.061 7.52 26.76 11.7
4/29/2022 8:15:00 AM 7.13 44.834 0.061 7.5 20.72 11.72
4/29/2022 8:30:00 AM 7.14 44.852 0.061 7.58 25.01 11.77
4/29/2022 8:45:00 AM 7.18 44.924 0.061 7.64 29.38 11.93
4/29/2022 9:00:00 AM 7.3 45.14 0.061 7.79 66.28 11.76
4/29/2022 9:15:00 AM 7.4 45.32 0.061 7.52 78.01 12.05
4/29/2022 9:30:00 AM 7.53 45.554 0.06 7.59 58.82 12.09
4/29/2022 9:45:00 AM 7.66 45.788 0.06 7.65 23.36 12.13
4/29/2022 10:00:00 AM 7.79 46.022 0.06 7.67 34.75 12.18
4/29/2022 10:15:00 AM 7.94 46.292 0.06 7.64 44.03 12.24
4/29/2022 10:30:00 AM 8.12 46.616 0.06 7.68 26.58 12.21
4/29/2022 10:45:00 AM 8.29 46.922 0.061 7.6 21.55 12.17
4/29/2022 11:00:00 AM 8.47 47.246 0.061 7.74 25.9 12.39
4/29/2022 11:15:00 AM 8.66 47.588 0.061 7.69 28.51 12.42
4/29/2022 11:30:00 AM 8.85 47.93 0.061 7.57 26.01 12.33
4/29/2022 11:45:00 AM 9.03 48.254 0.061 8.75 59.14 12.34
4/29/2022 12:00:00 PM 9.24 48.632 0.061 7.6 66.22 12.46
4/29/2022 12:15:00 PM 9.42 48.956 0.061 7.61 47.25 12.56
4/29/2022 12:30:00 PM 9.61 49.298 0.061 8.02 51.93 12.43
4/29/2022 12:45:00 PM 9.88 49.784 0.061 7.64 45.47 12.55
4/29/2022 1:00:00 PM 10.05 50.09 0.061 7.67 28.93 12.48
4/29/2022 1:15:00 PM 10.21 50.378 0.061 8.45 55.27 12.42
4/29/2022 1:30:00 PM 10.43 50.774 0.061 7.72 118.44 12.39
4/29/2022 1:45:00 PM 10.56 51.008 0.061 7.65 46.06 12.38
4/29/2022 2:00:00 PM 10.7 51.26 0.061 7.74 24.88 12.42
4/29/2022 2:15:00 PM 10.8 51.44 0.061 7.68 37.83 12.51
4/29/2022 2:30:00 PM 10.96 51.728 0.061 7.73 19.64 12.52
4/29/2022 2:45:00 PM 10.97 51.746 0.062 7.7 27.01 12.54
4/29/2022 3:00:00 PM 11.05 51.89 0.062 8.04 67.25 12.31
4/29/2022 3:15:00 PM 11.17 52.106 0.062 7.69 65.56 12.45
4/29/2022 3:30:00 PM 11.29 52.322 0.062 7.72 34.09 12.12
4/29/2022 3:45:00 PM 11.39 52.502 0.062 7.71 28.01 12.44
4/29/2022 4:00:00 PM 11.45 52.61 0.062 8.1 81.59 12.28
4/29/2022 4:15:00 PM 11.57 52.826 0.062 7.67 31.57 12.51
4/29/2022 4:30:00 PM 11.67 53.006 0.062 7.77 46.51 12.38
4/29/2022 4:45:00 PM 11.62 52.916 0.062 7.65 63.74 12.08
4/29/2022 5:00:00 PM 11.58 52.844 0.062 7.8 25.1 12.21
4/29/2022 5:15:00 PM 11.54 52.772 0.062 7.7 30.45 12.28
4/29/2022 5:30:00 PM 11.43 52.574 0.062 7.75 23.14 12.23
4/29/2022 5:45:00 PM 11.38 52.484 0.062 7.76 18.97 12.28
4/29/2022 6:00:00 PM 11.25 52.25 0.062 7.8 22.54 12.15
4/29/2022 6:15:00 PM 11.16 52.088 0.062 7.94 47.45 12.02
4/29/2022 6:30:00 PM 11.06 51.908 0.063 7.69 71.47 12.2
4/29/2022 6:45:00 PM 10.88 51.584 0.062 7.73 42.4 12.19
4/29/2022 7:00:00 PM 10.78 51.404 0.062 7.8 42.19 11.75
4/29/2022 7:15:00 PM 10.63 51.134 0.062 7.71 30.09 12.09
4/29/2022 7:30:00 PM 10.48 50.864 0.061 7.77 41.38 12.1
4/29/2022 7:45:00 PM 10.32 50.576 0.062 7.73 65.88 12
4/29/2022 8:00:00 PM 10.16 50.288 0.062 7.71 19.29 12.02
4/29/2022 8:15:00 PM 10.01 50.018 0.061 7.73 25.5 12.02
4/29/2022 8:30:00 PM 9.88 49.784 0.061 7.69 115.56 11.78
4/29/2022 8:45:00 PM 9.76 49.568 0.061 7.68 50.79 11.88
4/29/2022 9:00:00 PM 9.63 49.334 0.061 7.67 46.44 11.73
4/29/2022 9:15:00 PM 9.53 49.154 0.061 7.64 43.13 11.67
4/29/2022 9:30:00 PM 9.43 48.974 0.061 7.62 58.31 11.58
4/29/2022 9:45:00 PM 9.37 48.866 0.061 7.65 40.24 11.47
4/29/2022 10:00:00 PM 9.32 48.776 0.061 7.66 37.07 11.45
4/29/2022 10:15:00 PM 9.3 48.74 0.061 7.88 101.59 11.26
4/29/2022 10:30:00 PM 9.24 48.632 0.061 7.53 86.48 11.19
4/29/2022 10:45:00 PM 9.2 48.56 0.061 7.61 30.09 11.27
4/29/2022 11:00:00 PM 9.17 48.506 0.062 7.6 46.14 11.23
4/29/2022 11:15:00 PM 9.12 48.416 0.061 7.57 40.45 11.22
4/29/2022 11:30:00 PM 9.09 48.362 0.061 7.61 40.62 11.23
4/29/2022 11:45:00 PM 9.05 48.29 0.061 7.59 36.45 11.17
4/30/2022 12:00:00 AM 8.99 48.182 0.062 7.6 33.15 11.23
4/30/2022 12:15:00 AM 8.93 48.074 0.062 7.52 43.93 11.11
4/30/2022 12:30:00 AM 8.87 47.966 0.062 7.86 128.12 10.95
4/30/2022 12:45:00 AM 8.77 47.786 0.062 7.54 64.57 11.06
4/30/2022 1:00:00 AM 8.7 47.66 0.062 7.6 41.58 11.04
4/30/2022 1:15:00 AM 8.62 47.516 0.062 7.59 47.1 11.17
4/30/2022 1:30:00 AM 8.54 47.372 0.062 7.61 35.93 11.09
4/30/2022 1:45:00 AM 8.47 47.246 0.063 7.62 20.59 11.18
4/30/2022 2:00:00 AM 8.4 47.12 0.063 7.58 40.91 11.2
4/30/2022 2:15:00 AM 8.35 47.03 0.063 7.95 102.59 11.1
4/30/2022 2:30:00 AM 8.26 46.868 0.063 7.61 85.07 11.1
4/30/2022 2:45:00 AM 8.19 46.742 0.062 7.56 35.16 11.16
4/30/2022 3:00:00 AM 8.13 46.634 0.062 7.56 39.33 11.2
4/30/2022 3:15:00 AM 8.09 46.562 0.062 7.53 30.31 11.19
4/30/2022 3:30:00 AM 8.03 46.454 0.062 7.56 27.39 11.28
4/30/2022 3:45:00 AM 7.98 46.364 0.062 7.56 23.45 11.28
4/30/2022 4:00:00 AM 7.94 46.292 0.062 7.89 67.94 11.15
4/30/2022 4:15:00 AM 7.88 46.184 0.062 7.62 71.87 11.14
4/30/2022 4:30:00 AM 7.85 46.13 0.062 7.56 39.99 11.24
4/30/2022 4:45:00 AM 7.81 46.058 0.062 7.53 33.88 11.08
4/30/2022 5:00:00 AM 7.77 45.986 0.062 7.66 29.59 11.23
4/30/2022 5:15:00 AM 7.74 45.932 0.062 7.49 44.88 11.19
4/30/2022 5:30:00 AM 7.7 45.86 0.062 7.54 26 11.22
4/30/2022 5:45:00 AM 7.68 45.824 0.062 7.5 32.37 11.19
4/30/2022 6:00:00 AM 7.66 45.788 0.062 7.52 27.09 11.28
4/30/2022 6:15:00 AM 7.63 45.734 0.062 7.56 23.46 11.24
4/30/2022 6:30:00 AM 7.6 45.68 0.062 7.53 24.16 11.3
4/30/2022 6:45:00 AM 7.57 45.626 0.062 7.5 31.11 11.28
4/30/2022 7:00:00 AM 7.55 45.59 0.062 7.89 77.1 11.05
4/30/2022 7:15:00 AM 7.51 45.518 0.063 7.5 61.78 11.16
4/30/2022 7:30:00 AM 7.49 45.482 0.062 7.51 57.95 11.26
4/30/2022 7:45:00 AM 7.47 45.446 0.062 7.51 36.01 11.22
4/30/2022 8:00:00 AM 7.46 45.428 0.062 7.53 28.27 11.21
4/30/2022 8:15:00 AM 7.47 45.446 0.062 7.54 30.39 11.32
4/30/2022 8:30:00 AM 7.51 45.518 0.062 7.6 25.36 11.5
4/30/2022 8:45:00 AM 7.58 45.644 0.062 7.58 18.03 11.41
4/30/2022 9:00:00 AM 7.68 45.824 0.062 7.62 21.34 11.61
4/30/2022 9:15:00 AM 7.83 46.094 0.062 7.56 20.45 11.65
4/30/2022 9:30:00 AM 7.98 46.364 0.062 7.62 33.75 11.75
4/30/2022 9:45:00 AM 8.15 46.67 0.062 7.68 27.18 11.86
4/30/2022 10:00:00 AM 8.31 46.958 0.062 7.55 37.18 11.97
4/30/2022 10:15:00 AM 8.49 47.282 0.062 7.57 119.89 11.82
4/30/2022 10:30:00 AM 8.69 47.642 0.062 7.59 71.73 11.89
4/30/2022 10:45:00 AM 8.88 47.984 0.062 7.61 39.27 11.97
4/30/2022 11:00:00 AM 9.1 48.38 0.061 7.56 37.46 11.84
4/30/2022 11:15:00 AM 9.3 48.74 0.061 7.56 50.14 12.18
4/30/2022 11:30:00 AM 9.51 49.118 0.061 7.56 39.97 12.19
4/30/2022 11:45:00 AM 9.68 49.424 0.062 7.88 102.15 12.19
4/30/2022 12:00:00 PM 9.94 49.892 0.061 7.62 64.29 12.02
4/30/2022 12:15:00 PM 10.17 50.306 0.061 7.63 45.28 12.14
4/30/2022 12:30:00 PM 10.36 50.648 0.061 7.63 34.4 12.35
4/30/2022 12:45:00 PM 10.54 50.972 0.061 7.62 34.87 12.37
4/30/2022 1:00:00 PM 10.77 51.386 0.061 7.64 31.53 12.25
4/30/2022 1:15:00 PM 11.01 51.818 0.062 7.63 66.96 12.32
4/30/2022 1:30:00 PM 11.28 52.304 0.061 7.67 47.25 12.34
4/30/2022 1:45:00 PM 11.48 52.664 0.062 7.63 38.73 12.23
4/30/2022 2:00:00 PM 11.71 53.078 0.062 7.67 27.78 12.19
4/30/2022 2:15:00 PM 11.93 53.474 0.062 7.66 25.47 12.33
4/30/2022 2:30:00 PM 12.09 53.762 0.062 7.72 23.87 12.29
4/30/2022 2:45:00 PM 12.3 54.14 0.062 7.74 17.71 12.37
4/30/2022 3:00:00 PM 12.45 54.41 0.062 7.66 25.58 12.3
4/30/2022 3:15:00 PM 12.61 54.698 0.062 7.71 21.89 12.27
4/30/2022 3:30:00 PM 12.69 54.842 0.062 7.68 29.66 12.31
4/30/2022 3:45:00 PM 12.87 55.166 0.062 7.7 23.81 12.3
4/30/2022 4:00:00 PM 12.95 55.31 0.062 7.72 27.19 12.36
4/30/2022 4:15:00 PM 13 55.4 0.062 8.41 36.03 12.12
4/30/2022 4:30:00 PM 13.15 55.67 0.062 7.67 56.86 12.19
4/30/2022 4:45:00 PM 13.15 55.67 0.062 7.76 40.13 12.13
4/30/2022 5:00:00 PM 13.1 55.58 0.062 7.73 94.97 12.08
4/30/2022 5:15:00 PM 13.02 55.436 0.062 7.74 23.64 12.21
4/30/2022 5:30:00 PM 13.02 55.436 0.062 7.76 32.24 12.16
4/30/2022 5:45:00 PM 12.92 55.256 0.062 7.82 26.18 12.25
4/30/2022 6:00:00 PM 12.87 55.166 0.062 7.68 58.25 11.79
4/30/2022 6:15:00 PM 12.73 54.914 0.062 7.66 69.17 11.88
4/30/2022 6:30:00 PM 12.63 54.734 0.062 7.92 82.65 11.93
4/30/2022 6:45:00 PM 12.48 54.464 0.062 7.82 86.88 12.05
4/30/2022 7:00:00 PM 12.33 54.194 0.062 7.86 79.59 12.07
4/30/2022 7:15:00 PM 12.12 53.816 0.062 7.71 33.93 12.02
4/30/2022 7:30:00 PM 11.96 53.528 0.062 7.85 32.87 12.07
4/30/2022 7:45:00 PM 11.79 53.222 0.062 7.82 28.78 11.94
4/30/2022 8:00:00 PM 11.55 52.79 0.062 7.86 32.43 11.87
4/30/2022 8:15:00 PM 11.37 52.466 0.062 7.78 24.34 11.71
4/30/2022 8:30:00 PM 11.22 52.196 0.062 7.76 28.38 11.77
4/30/2022 8:45:00 PM 11.1 51.98 0.062 8.22 111.17 11.57
4/30/2022 9:00:00 PM 10.99 51.782 0.063 7.7 150.54 11.36
4/30/2022 9:15:00 PM 10.85 51.53 0.062 7.73 21.34 11.52
4/30/2022 9:30:00 PM 10.78 51.404 0.062 7.66 58.72 11.42
4/30/2022 9:45:00 PM 10.71 51.278 0.062 7.62 26.68 11.28
4/30/2022 10:00:00 PM 10.64 51.152 0.062 7.69 44.49 11.16
4/30/2022 10:15:00 PM 10.58 51.044 0.062 7.67 41.78 11.09
4/30/2022 10:30:00 PM 10.51 50.918 0.063 7.64 49.32 10.96
4/30/2022 10:45:00 PM 10.46 50.828 0.063 8.03 55.07 10.88
4/30/2022 11:00:00 PM 10.37 50.666 0.063 7.6 145.42 10.82
4/30/2022 11:15:00 PM 10.3 50.54 0.063 7.64 31.98 10.85
4/30/2022 11:30:00 PM 10.24 50.432 0.063 7.61 35.32 10.72
4/30/2022 11:45:00 PM 10.16 50.288 0.063 7.72 69.39 10.68
5/1/2022 12:00:00 AM 10.09 50.162 0.063 7.66 30.82 10.64
5/1/2022 12:15:00 AM 10.03 50.054 0.063 7.58 24.67 10.61
5/1/2022 12:30:00 AM 9.97 49.946 0.063 7.59 28.36 10.77
5/1/2022 12:45:00 AM 9.91 49.838 0.063 7.59 35.04 10.68
5/1/2022 1:00:00 AM 9.84 49.712 0.063 7.57 32.43 10.65
5/1/2022 1:15:00 AM 9.78 49.604 0.063 7.55 31.98 10.63
5/1/2022 1:30:00 AM 9.72 49.496 0.063 7.55 41.81 10.66
5/1/2022 1:45:00 AM 9.66 49.388 0.063 8.04 66.68 10.67
5/1/2022 2:00:00 AM 9.58 49.244 0.063 7.57 73.82 10.49
5/1/2022 2:15:00 AM 9.53 49.154 0.07 7.55 57.32 10.55
5/1/2022 2:30:00 AM 9.48 49.064 0.064 7.56 35.07 10.55
5/1/2022 2:45:00 AM 9.43 48.974 0.064 7.54 32.12 10.41
5/1/2022 3:00:00 AM 9.4 48.92 0.064 7.53 25.86 10.59
5/1/2022 3:15:00 AM 9.38 48.884 0.064 7.88 128.5 10.5
5/1/2022 3:30:00 AM 9.3 48.74 0.064 7.56 91.12 10.43
5/1/2022 3:45:00 AM 9.28 48.704 0.064 7.59 52.21 10.48
5/1/2022 4:00:00 AM 9.24 48.632 0.064 7.61 47.19 10.54
5/1/2022 4:15:00 AM 9.2 48.56 0.064 7.52 33.31 10.55
5/1/2022 4:30:00 AM 9.17 48.506 0.064 7.52 27.5 10.51
5/1/2022 4:45:00 AM 9.13 48.434 0.063 7.47 27.67 10.63
5/1/2022 5:00:00 AM 9.1 48.38 0.064 7.46 33.96 10.61
5/1/2022 5:15:00 AM 9.09 48.362 0.064 7.96 90.05 10.43
5/1/2022 5:30:00 AM 9.02 48.236 0.063 7.54 95.48 10.33
5/1/2022 5:45:00 AM 8.98 48.164 0.063 7.48 50.7 10.35
5/1/2022 6:00:00 AM 8.94 48.092 0.063 7.56 38.99 10.59
5/1/2022 6:15:00 AM 8.9 48.02 0.063 7.53 26.1 10.49
5/1/2022 6:30:00 AM 8.86 47.948 0.063 7.57 24.57 10.54
5/1/2022 6:45:00 AM 8.86 47.948 0.064 7.48 107.21 10.36
5/1/2022 7:00:00 AM 8.8 47.84 0.063 7.54 66.3 10.62
5/1/2022 7:15:00 AM 8.78 47.804 0.066 7.53 43.07 10.46
5/1/2022 7:30:00 AM 8.76 47.768 0.067 7.52 32.39 10.62
5/1/2022 7:45:00 AM 8.74 47.732 0.067 7.55 35.77 10.49
5/1/2022 8:00:00 AM 8.73 47.714 0.063 7.5 30.93 10.69
5/1/2022 8:15:00 AM 8.72 47.696 0.063 7.53 22.31 10.73
5/1/2022 8:30:00 AM 8.76 47.768 0.063 7.49 36.11 10.86
5/1/2022 8:45:00 AM 8.84 47.912 0.063 7.56 25.73 10.84
5/1/2022 9:00:00 AM 8.94 48.092 0.063 7.49 24.84 11.08
5/1/2022 9:15:00 AM 9.04 48.272 0.063 7.53 28.95 11.09
5/1/2022 9:30:00 AM 9.16 48.488 0.063 8.33 87.13 10.94
5/1/2022 9:45:00 AM 9.33 48.794 0.063 7.56 81.72 11.34
5/1/2022 10:00:00 AM 9.49 49.082 0.063 7.6 32.03 11.31
5/1/2022 10:15:00 AM 9.67 49.406 0.063 7.58 40.31 11.43
5/1/2022 10:30:00 AM 9.88 49.784 0.063 7.57 47.9 11.67
5/1/2022 10:45:00 AM 10.08 50.144 0.063 7.63 22.94 11.62
5/1/2022 11:00:00 AM 10.3 50.54 0.063 7.57 44.18 11.75
5/1/2022 11:15:00 AM 10.52 50.936 0.063 7.56 25.75 11.66
5/1/2022 11:30:00 AM 10.77 51.386 0.063 7.56 30.4 11.57
5/1/2022 11:45:00 AM 11.01 51.818 0.063 7.55 40.22 11.71
5/1/2022 12:00:00 PM 11.22 52.196 0.063 7.62 35.82 11.72
5/1/2022 12:15:00 PM 11.43 52.574 0.063 7.93 98.18 11.59
5/1/2022 12:30:00 PM 11.69 53.042 0.061 7.59 76.55 11.97
5/1/2022 12:45:00 PM 11.94 53.492 0.063 7.68 45.59 11.9
5/1/2022 1:00:00 PM 12.13 53.834 0.063 8.15 89.47 11.86
5/1/2022 1:15:00 PM 12.43 54.374 0.062 7.6 95.14 11.97
5/1/2022 1:30:00 PM 12.63 54.734 0.063 7.65 56.68 11.97
5/1/2022 1:45:00 PM 12.85 55.13 0.063 7.66 34.95 12.1
5/1/2022 2:00:00 PM 13.04 55.472 0.063 7.65 24.99 12.05
5/1/2022 2:15:00 PM 13.22 55.796 0.063 7.61 23.42 12.04
5/1/2022 2:30:00 PM 13.37 56.066 0.063 7.66 22.62 12.05
5/1/2022 2:45:00 PM 13.52 56.336 0.063 8.02 138.14 11.92
5/1/2022 3:00:00 PM 13.71 56.678 0.063 7.53 72.5 12.06
5/1/2022 3:15:00 PM 13.75 56.75 0.063 7.59 45.9 12.28
5/1/2022 3:30:00 PM 13.8 56.84 0.063 7.64 35.12 12.23
5/1/2022 3:45:00 PM 13.85 56.93 0.063 7.7 29.09 12.16
5/1/2022 4:00:00 PM 13.83 56.894 0.063 7.73 24.62 12.2
5/1/2022 4:15:00 PM 13.67 56.606 0.063 8.31 83.49 12.17
5/1/2022 4:30:00 PM 13.67 56.606 0.063 7.6 78.3 12.21
5/1/2022 4:45:00 PM 13.64 56.552 0.063 7.7 42.67 12.13
5/1/2022 5:00:00 PM 13.58 56.444 0.063 7.73 78.21 11.97
5/1/2022 5:15:00 PM 13.57 56.426 0.063 7.71 63.99 12.1
5/1/2022 5:30:00 PM 13.57 56.426 0.063 7.77 43.38 12.09
5/1/2022 5:45:00 PM 13.51 56.318 0.063 7.76 56.38 12.1
5/1/2022 6:00:00 PM 13.4 56.12 0.063 7.79 26.57 12.09
5/1/2022 6:15:00 PM 13.33 55.994 0.063 8.35 92.15 12.09
5/1/2022 6:30:00 PM 13.26 55.868 0.063 7.65 95.82 11.79
5/1/2022 6:45:00 PM 13.06 55.508 0.063 7.74 63.09 11.74
5/1/2022 7:00:00 PM 12.88 55.184 0.063 7.71 33.93 11.86
5/1/2022 7:15:00 PM 12.71 54.878 0.063 8.19 326.27 11.72
5/1/2022 7:30:00 PM 12.53 54.554 0.063 7.65 69.85 11.76
5/1/2022 7:45:00 PM 12.34 54.212 0.063 7.71 38.11 11.61
5/1/2022 8:00:00 PM 12.2 53.96 0.063 7.69 40.27 11.75
5/1/2022 8:15:00 PM 12.07 53.726 0.063 7.69 101.16 11.58
5/1/2022 8:30:00 PM 11.97 53.546 0.063 7.73 45.53 11.51
5/1/2022 8:45:00 PM 11.85 53.33 0.064 7.81 44.75 11.54
5/1/2022 9:00:00 PM 11.75 53.15 0.064 7.75 23.61 11.41
5/1/2022 9:15:00 PM 11.67 53.006 0.064 7.73 48.53 11.15
5/1/2022 9:30:00 PM 11.58 52.844 0.064 7.56 27.85 11.18
5/1/2022 9:45:00 PM 11.51 52.718 0.064 7.74 29.09 11.16
5/1/2022 10:00:00 PM 11.42 52.556 0.064 7.57 37.38 10.87
5/1/2022 10:15:00 PM 11.35 52.43 0.064 7.59 20.24 10.98
5/1/2022 10:30:00 PM 11.29 52.322 0.064 7.88 85.63 10.8
5/1/2022 10:45:00 PM 11.21 52.178 0.064 7.54 130.89 10.61
5/1/2022 11:00:00 PM 11.16 52.088 0.064 7.58 35.86 10.71
5/1/2022 11:15:00 PM 11.11 51.998 0.064 7.67 48.42 10.72
5/1/2022 11:30:00 PM 11.06 51.908 0.064 7.58 27.8 10.59
5/1/2022 11:45:00 PM 11.01 51.818 0.064 7.62 21.88 10.68
5/2/2022 12:00:00 AM 10.97 51.746 0.064 7.55 23.97 10.56
5/2/2022 12:15:00 AM 10.93 51.674 0.064 7.56 22.57 10.59
5/2/2022 12:30:00 AM 10.88 51.584 0.064 7.55 27.7 10.46
5/2/2022 12:45:00 AM 10.83 51.494 0.065 7.54 31.94 10.49
5/2/2022 1:00:00 AM 10.8 51.44 0.065 7.71 95.28 10.21
5/2/2022 1:15:00 AM 10.74 51.332 0.065 7.52 89.52 10.21
5/2/2022 1:30:00 AM 10.7 51.26 0.065 7.5 57.41 10.3
5/2/2022 1:45:00 AM 10.65 51.17 0.065 7.5 42.3 10.37
5/2/2022 2:00:00 AM 10.62 51.116 0.065 7.48 36.76 10.28
5/2/2022 2:15:00 AM 10.59 51.062 0.065 7.5 43.35 10.37
5/2/2022 2:30:00 AM 10.56 51.008 0.065 7.55 42.87 10.33
5/2/2022 2:45:00 AM 10.53 50.954 0.065 7.52 33.47 10.45
5/2/2022 3:00:00 AM 10.51 50.918 0.065 7.52 39.7 10.33
5/2/2022 3:15:00 AM 10.49 50.882 0.065 7.51 32.95 10.46
5/2/2022 3:30:00 AM 10.47 50.846 0.065 7.5 31.14 10.4
5/2/2022 3:45:00 AM 10.46 50.828 0.065 7.85 83.12 10.15
5/2/2022 4:00:00 AM 10.43 50.774 0.065 7.45 83.12 10.21
5/2/2022 4:15:00 AM 10.42 50.756 0.065 7.58 129.18 10.21
5/2/2022 4:30:00 AM 10.42 50.756 0.065 7.58 50.5 10.16
5/2/2022 4:45:00 AM 10.42 50.756 0.065 7.46 26.4 10.19
5/2/2022 5:00:00 AM 10.41 50.738 0.065 7.49 35.11 10.24
5/2/2022 5:15:00 AM 10.41 50.738 0.065 7.58 29.96 10.17
5/2/2022 5:30:00 AM 10.42 50.756 0.065 7.37 38.91 10.25
5/2/2022 5:45:00 AM 10.43 50.774 0.065 7.62 29.86 10.21
5/2/2022 6:00:00 AM 10.44 50.792 0.065 7.41 24 10.13
5/2/2022 6:15:00 AM 10.46 50.828 0.066 7.81 98.36 10.15
5/2/2022 6:30:00 AM 10.47 50.846 0.065 7.56 64.62 9.83
5/2/2022 6:45:00 AM 10.48 50.864 0.065 7.44 44.79 9.94
5/2/2022 7:00:00 AM 10.47 50.846 0.066 7.53 40.69 9.98
5/2/2022 7:15:00 AM 10.45 50.81 0.066 7.49 38.79 9.75
5/2/2022 7:30:00 AM 10.41 50.738 0.066 7.49 23.18 10.17
5/2/2022 7:45:00 AM 10.36 50.648 0.065 7.49 34.08 10.15
5/2/2022 8:00:00 AM 10.31 50.558 0.065 7.45 22.03 10.25
5/2/2022 8:15:00 AM 10.28 50.504 0.066 7.48 38.34 10.24
5/2/2022 8:30:00 AM 10.26 50.468 0.065 7.52 27.65 10.21
5/2/2022 8:45:00 AM 10.27 50.486 0.066 7.79 81.7 10.07
5/2/2022 9:00:00 AM 10.27 50.486 0.065 7.46 81.88 10.16
5/2/2022 9:15:00 AM 10.3 50.54 0.066 7.46 48.27 10.15
5/2/2022 9:30:00 AM 10.32 50.576 0.065 7.48 22.47 10.31
5/2/2022 9:45:00 AM 10.36 50.648 0.066 7.86 82.07 10.17
5/2/2022 10:00:00 AM 10.4 50.72 0.065 7.5 77.95 10.29
5/2/2022 10:15:00 AM 10.45 50.81 0.065 7.49 51.34 10.33
5/2/2022 10:30:00 AM 10.49 50.882 0.065 7.47 39.1 10.49
5/2/2022 10:45:00 AM 10.53 50.954 0.065 7.49 35.62 10.55
5/2/2022 11:00:00 AM 10.57 51.026 0.065 7.45 25.57 10.62
5/2/2022 11:15:00 AM 10.61 51.098 0.065 7.44 38.79 10.57
5/2/2022 11:30:00 AM 10.66 51.188 0.065 7.58 37.23 10.81
5/2/2022 11:45:00 AM 10.71 51.278 0.065 7.62 28.84 10.87
5/2/2022 12:00:00 PM 10.77 51.386 0.065 7.53 24.21 11.05
5/2/2022 12:15:00 PM 10.82 51.476 0.065 7.5 29.37 10.89
5/2/2022 12:30:00 PM 10.86 51.548 0.065 7.53 31.3 11.19
5/2/2022 12:45:00 PM 10.89 51.602 0.065 8.09 83.67 10.66
5/2/2022 1:00:00 PM 10.97 51.746 0.065 7.53 88.76 11.05
5/2/2022 1:15:00 PM 11.04 51.872 0.065 7.56 31.25 11.28
5/2/2022 1:30:00 PM 11.09 51.962 0.065 7.57 34.35 11.45
5/2/2022 1:45:00 PM 11.12 52.016 0.065 7.54 28.52 11.35
5/2/2022 2:00:00 PM 11.16 52.088 0.065 7.59 33.13 11.43
5/2/2022 2:15:00 PM 11.2 52.16 0.065 7.71 76.56 11.14
5/2/2022 2:30:00 PM 11.3 52.34 0.065 7.64 75.39 11.54
5/2/2022 2:45:00 PM 11.39 52.502 0.065 7.64 50.33 11.34
5/2/2022 3:00:00 PM 11.46 52.628 0.065 7.59 40.7 11.54
5/2/2022 3:15:00 PM 11.49 52.682 0.065 7.62 42.5 11.57
5/2/2022 3:30:00 PM 11.5 52.7 0.065 7.6 33.61 11.57
5/2/2022 3:45:00 PM 11.51 52.718 0.065 7.66 21.2 11.74
5/2/2022 4:00:00 PM 11.53 52.754 0.065 7.81 64.02 11.65
5/2/2022 4:15:00 PM 11.59 52.862 0.065 7.63 71.15 11.44
5/2/2022 4:30:00 PM 11.66 52.988 0.065 7.63 41.41 11.67
5/2/2022 4:45:00 PM 11.7 53.06 0.065 7.69 26.18 11.71
5/2/2022 5:00:00 PM 11.7 53.06 0.065 7.68 38.44 11.46
5/2/2022 5:15:00 PM 11.71 53.078 0.065 7.67 28.27 11.65
5/2/2022 5:30:00 PM 11.7 53.06 0.065 7.63 39.06 11.61
5/2/2022 5:45:00 PM 11.68 53.024 0.065 7.74 95.36 11.29
5/2/2022 6:00:00 PM 11.69 53.042 0.065 7.7 82.58 11.43
5/2/2022 6:15:00 PM 11.67 53.006 0.065 7.64 48.17 11.45
5/2/2022 6:30:00 PM 11.64 52.952 0.065 7.61 29.39 11.46
5/2/2022 6:45:00 PM 11.61 52.898 0.065 7.66 34.43 11.4
5/2/2022 7:00:00 PM 11.58 52.844 0.065 7.62 34.53 11.34
5/2/2022 7:15:00 PM 11.55 52.79 0.065 7.64 28.34 11.38
5/2/2022 7:30:00 PM 11.52 52.736 0.065 7.64 26.15 11.27
5/2/2022 7:45:00 PM 11.49 52.682 0.065 7.62 34.68 11.18
5/2/2022 8:00:00 PM 11.46 52.628 0.065 7.6 23.62 11.11
5/2/2022 8:15:00 PM 11.43 52.574 0.065 7.64 36.43 11.04
5/2/2022 8:30:00 PM 11.41 52.538 0.065 7.57 36.78 11.01
5/2/2022 8:45:00 PM 11.38 52.484 0.065 7.56 45.23 11.09
5/2/2022 9:00:00 PM 11.35 52.43 0.065 7.54 38.09 10.82
5/2/2022 9:15:00 PM 11.31 52.358 0.065 7.62 34.87 10.72
5/2/2022 9:30:00 PM 11.28 52.304 0.065 7.59 36.04 10.79
5/2/2022 9:45:00 PM 11.24 52.232 0.065 7.61 30.65 10.67
5/2/2022 10:00:00 PM 11.2 52.16 0.065 7.61 31.2 10.68
5/2/2022 10:15:00 PM 11.17 52.106 0.065 7.58 34.1 10.49
5/2/2022 10:30:00 PM 11.15 52.07 0.066 7.85 87.73 10.18
5/2/2022 10:45:00 PM 11.11 51.998 0.065 7.54 111.98 10.08
5/2/2022 11:00:00 PM 11.08 51.944 0.065 7.54 64.36 10.24
5/2/2022 11:15:00 PM 11.06 51.908 0.066 7.52 37.39 10.31
5/2/2022 11:30:00 PM 11.06 51.908 0.066 7.52 57.65 10.21
5/2/2022 11:45:00 PM 11.04 51.872 0.066 7.54 33.95 10.12
5/3/2022 12:00:00 AM 11.01 51.818 0.066 7.52 35.64 10.24
5/3/2022 12:15:00 AM 10.98 51.764 0.066 7.52 34.14 10.07
5/3/2022 12:30:00 AM 10.95 51.71 0.066 7.62 43.54 10.17
5/3/2022 12:45:00 AM 10.93 51.674 0.066 7.43 44.49 10.05
5/3/2022 1:00:00 AM 10.91 51.638 0.066 7.5 47.73 9.99
5/3/2022 1:15:00 AM 10.88 51.584 0.066 7.44 37.85 10.18
5/3/2022 1:30:00 AM 10.86 51.548 0.066 7.71 78.96 9.9
5/3/2022 1:45:00 AM 10.83 51.494 0.066 7.56 105.11 9.99
5/3/2022 2:00:00 AM 10.82 51.476 0.066 7.5 42.77 10.01
5/3/2022 2:15:00 AM 10.81 51.458 0.066 7.43 47.33 9.96
5/3/2022 2:30:00 AM 10.81 51.458 0.066 7.45 146.24 9.74
5/3/2022 2:45:00 AM 10.8 51.44 0.066 7.46 77.69 9.79
5/3/2022 3:00:00 AM 10.8 51.44 0.066 7.46 58.54 10.02
5/3/2022 3:15:00 AM 10.79 51.422 0.066 7.46 42.46 9.73
5/3/2022 3:30:00 AM 10.79 51.422 0.066 8.34 78.06 9.74
5/3/2022 3:45:00 AM 10.79 51.422 0.066 7.51 156.19 9.83
5/3/2022 4:00:00 AM 10.79 51.422 0.066 7.49 82.09 9.93
5/3/2022 4:15:00 AM 10.78 51.404 0.066 7.93 88.25 9.75
5/3/2022 4:30:00 AM 10.77 51.386 0.066 7.56 81.39 9.66
5/3/2022 4:45:00 AM 10.74 51.332 0.066 7.54 28.99 9.77
5/3/2022 5:00:00 AM 10.72 51.296 0.066 7.44 29.95 10.01
5/3/2022 5:15:00 AM 10.7 51.26 0.066 7.5 29.5 9.83
5/3/2022 5:30:00 AM 10.68 51.224 0.066 7.53 18.13 9.95
5/3/2022 5:45:00 AM 10.65 51.17 0.066 7.44 26.97 9.89
5/3/2022 6:00:00 AM 10.62 51.116 0.065 7.43 29.65 9.98
5/3/2022 6:15:00 AM 10.58 51.044 0.066 7.46 27.93 9.94
5/3/2022 6:30:00 AM 10.55 50.99 0.066 7.45 27.61 9.75
5/3/2022 6:45:00 AM 10.53 50.954 0.066 8.45 83.83 9.81
5/3/2022 7:00:00 AM 10.48 50.864 0.066 7.44 69.37 9.78
5/3/2022 7:15:00 AM 10.47 50.846 0.066 7.41 101.67 9.95
5/3/2022 7:30:00 AM 10.47 50.846 0.066 7.47 46.39 9.93
5/3/2022 7:45:00 AM 10.46 50.828 0.066 7.5 65.38 10.09
5/3/2022 8:00:00 AM 10.48 50.864 0.066 7.47 26.41 10.1
5/3/2022 8:15:00 AM 10.51 50.918 0.066 7.51 34.56 10.19
5/3/2022 8:30:00 AM 10.56 51.008 0.066 7.46 112.5 10.07
5/3/2022 8:45:00 AM 10.61 51.098 0.074 7.49 78.63 10.18
5/3/2022 9:00:00 AM 10.72 51.296 0.066 7.49 49.56 10.45
5/3/2022 9:15:00 AM 10.85 51.53 0.066 7.47 36.01 10.53
5/3/2022 9:30:00 AM 11 51.8 0.066 7.54 28.97 10.55
5/3/2022 9:45:00 AM 11.18 52.124 0.066 7.56 33.72 10.64
5/3/2022 10:00:00 AM 11.37 52.466 0.066 7.56 24.96 10.62
5/3/2022 10:15:00 AM 11.55 52.79 0.066 8.02 100.57 10.71
5/3/2022 10:30:00 AM 11.79 53.222 0.066 7.54 79.69 10.97
5/3/2022 10:45:00 AM 12.02 53.636 0.066 7.55 44.24 11.02
5/3/2022 11:00:00 AM 12.26 54.068 0.066 7.59 32.65 11.23
5/3/2022 11:15:00 AM 12.47 54.446 0.066 7.58 44.22 11.07
5/3/2022 11:30:00 AM 12.71 54.878 0.066 7.61 33.16 11.16
5/3/2022 11:45:00 AM 12.94 55.292 0.066 7.6 25.3 11.35
5/3/2022 12:00:00 PM 13.14 55.652 0.066 7.77 52.25 11.15
5/3/2022 12:15:00 PM 13.4 56.12 0.066 7.56 76.35 10.93
5/3/2022 12:30:00 PM 13.61 56.498 0.066 7.64 42.92 11.41
5/3/2022 12:45:00 PM 13.82 56.876 0.066 7.62 37.19 11.48
5/3/2022 1:00:00 PM 14.01 57.218 0.066 7.65 34.07 11.44
5/3/2022 1:15:00 PM 14.26 57.668 0.066 7.64 30.73 11.42
5/3/2022 1:30:00 PM 14.5 58.1 0.066 7.66 32.45 11.34
5/3/2022 1:45:00 PM 14.73 58.514 0.066 7.84 29.75 11.41
5/3/2022 2:00:00 PM 14.89 58.802 0.066 7.69 37.69 11.52
5/3/2022 2:15:00 PM 15.07 59.126 0.066 7.72 44.94 11.54
5/3/2022 2:30:00 PM 15.16 59.288 0.066 7.68 35.71 11.62
5/3/2022 2:45:00 PM 15.2 59.36 0.066 7.71 53.59 11.76
5/3/2022 3:00:00 PM 15.22 59.396 0.066 7.68 54.11 11.67
5/3/2022 3:15:00 PM 15.2 59.36 0.066 7.78 35.08 11.75
5/3/2022 3:30:00 PM 15.15 59.27 0.065 7.74 38.06 11.77
5/3/2022 3:45:00 PM 15.11 59.198 0.065 7.74 45.82 11.76
5/3/2022 4:00:00 PM 15.01 59.018 0.066 7.87 90.69 11.34
5/3/2022 4:15:00 PM 14.97 58.946 0.065 7.7 107.74 11.6
5/3/2022 4:30:00 PM 14.86 58.748 0.065 7.88 52.64 11.73
5/3/2022 4:45:00 PM 14.78 58.604 0.065 7.74 33.77 11.76
5/3/2022 5:00:00 PM 14.7 58.46 0.065 7.74 40.58 11.77
5/3/2022 5:15:00 PM 14.59 58.262 0.065 7.76 50.28 11.71
5/3/2022 5:30:00 PM 14.48 58.064 0.064 7.78 32.08 11.72
5/3/2022 5:45:00 PM 14.36 57.848 0.064 7.76 47.42 11.73
5/3/2022 6:00:00 PM 14.26 57.668 0.064 7.76 21.12 11.56
5/3/2022 6:15:00 PM 14.14 57.452 0.064 7.72 35.28 11.58
5/3/2022 6:30:00 PM 14.01 57.218 0.064 7.79 24.6 11.55
5/3/2022 6:45:00 PM 13.9 57.02 0.064 7.79 23.19 11.44
5/3/2022 7:00:00 PM 13.84 56.912 0.064 7.77 18.95 11.43
5/3/2022 7:15:00 PM 13.78 56.804 0.064 7.8 16.54 11.42
5/3/2022 7:30:00 PM 13.7 56.66 0.064 7.72 30.81 11.48
5/3/2022 7:45:00 PM 13.6 56.48 0.064 7.83 32.93 11.3
5/3/2022 8:00:00 PM 13.5 56.3 0.064 7.75 29.7 11.31
5/3/2022 8:15:00 PM 13.41 56.138 0.064 8.14 74.51 10.72
5/3/2022 8:30:00 PM 13.32 55.976 0.064 7.74 95.2 11
5/3/2022 8:45:00 PM 13.24 55.832 0.064 7.74 27.72 10.95
5/3/2022 9:00:00 PM 13.13 55.634 0.064 7.76 38.35 10.79
5/3/2022 9:15:00 PM 13.01 55.418 0.064 7.73 24.87 10.83
5/3/2022 9:30:00 PM 12.9 55.22 0.064 7.55 98.13 10.64
5/3/2022 9:45:00 PM 12.76 54.968 0.064 7.77 66.31 10.63
5/3/2022 10:00:00 PM 12.68 54.824 0.064 7.67 48.1 10.63
5/3/2022 10:15:00 PM 12.58 54.644 0.064 7.73 26.53 10.57
5/3/2022 10:30:00 PM 12.5 54.5 0.064 7.67 41.98 10.48
5/3/2022 10:45:00 PM 12.43 54.374 0.065 7.62 28.74 10.48
5/3/2022 11:00:00 PM 12.38 54.284 0.065 7.58 31.18 10.35
5/3/2022 11:15:00 PM 12.33 54.194 0.065 7.65 24.44 10.28
5/3/2022 11:30:00 PM 12.28 54.104 0.065 7.65 35.21 10.25
5/3/2022 11:45:00 PM 12.24 54.032 0.065 7.63 34.34 10.15
5/4/2022 12:00:00 AM 12.2 53.96 0.065 7.65 36.52 10.17
5/4/2022 12:15:00 AM 12.16 53.888 0.065 7.62 38.5 10.06
5/4/2022 12:30:00 AM 12.12 53.816 0.065 7.64 35.7 10.06
5/4/2022 12:45:00 AM 12.08 53.744 0.066 7.79 79.61 9.98
5/4/2022 1:00:00 AM 12.05 53.69 0.065 7.61 103.75 9.97
5/4/2022 1:15:00 AM 12.02 53.636 0.066 7.59 38.62 10.12
5/4/2022 1:30:00 AM 12 53.6 0.066 7.83 69.83 9.98
5/4/2022 1:45:00 AM 11.98 53.564 0.066 7.66 72.93 10.02
5/4/2022 2:00:00 AM 11.97 53.546 0.066 7.58 47.72 10.09
5/4/2022 2:15:00 AM 11.96 53.528 0.066 7.59 32.11 10.07
5/4/2022 2:30:00 AM 11.93 53.474 0.065 7.59 32.07 10.06
5/4/2022 2:45:00 AM 11.88 53.384 0.065 7.58 25.89 9.98
5/4/2022 3:00:00 AM 11.81 53.258 0.073 7.62 125.4 10.12
5/4/2022 3:15:00 AM 11.75 53.15 0.065 7.58 43.78 10.07
5/4/2022 3:30:00 AM 11.68 53.024 0.065 7.65 49.21 10.16
5/4/2022 3:45:00 AM 11.64 52.952 0.065 7.58 36.73 10.05
5/4/2022 4:00:00 AM 11.6 52.88 0.065 7.6 65.16 9.98
5/4/2022 4:15:00 AM 11.59 52.862 0.065 7.69 34.28 9.96
5/4/2022 4:30:00 AM 11.61 52.898 0.065 7.54 92.1 9.86
5/4/2022 4:45:00 AM 11.61 52.898 0.065 7.65 55.39 9.87
5/4/2022 5:00:00 AM 11.6 52.88 0.065 7.65 48.02 9.97
5/4/2022 5:15:00 AM 11.56 52.808 0.065 7.68 36.88 9.72
5/4/2022 5:30:00 AM 11.52 52.736 0.065 7.65 46.39 9.83
5/4/2022 5:45:00 AM 11.49 52.682 0.065 7.71 41.36 9.87
5/4/2022 6:00:00 AM 11.47 52.646 0.065 7.67 31.86 9.85
5/4/2022 6:15:00 AM 11.44 52.592 0.065 7.7 32.45 9.88
5/4/2022 6:30:00 AM 11.42 52.556 0.065 8.05 108.76 9.92
5/4/2022 6:45:00 AM 11.41 52.538 0.065 7.6 77.98 9.61
5/4/2022 7:00:00 AM 11.41 52.538 0.066 7.6 116.49 9.89
5/4/2022 7:15:00 AM 11.42 52.556 0.065 7.63 89.53 9.98
5/4/2022 7:30:00 AM 11.44 52.592 0.065 7.64 51.97 9.87
5/4/2022 7:45:00 AM 11.45 52.61 0.065 7.66 31.69 10
5/4/2022 8:00:00 AM 11.45 52.61 0.065 7.63 22.46 10.04
5/4/2022 8:15:00 AM 11.46 52.628 0.065 7.65 29.03 10
5/4/2022 8:30:00 AM 11.46 52.628 0.065 7.65 25.69 10.09
5/4/2022 8:45:00 AM 11.47 52.646 0.065 7.61 39.52 10.09
5/4/2022 9:00:00 AM 11.47 52.646 0.064 7.63 33.83 10.22
5/4/2022 9:15:00 AM 11.49 52.682 0.064 7.82 79.57 10
5/4/2022 9:30:00 AM 11.52 52.736 0.064 7.61 82.17 10.22
5/4/2022 9:45:00 AM 11.55 52.79 0.064 7.63 48.59 10.29
5/4/2022 10:00:00 AM 11.59 52.862 0.064 7.63 45.98 10.29
5/4/2022 10:15:00 AM 11.62 52.916 0.063 7.63 34.99 10.32
5/4/2022 10:30:00 AM 11.65 52.97 0.063 7.64 39.39 10.37
5/4/2022 10:45:00 AM 11.69 53.042 0.063 7.63 31.26 10.44
5/4/2022 11:00:00 AM 11.71 53.078 0.063 8.03 68.98 10.47
5/4/2022 11:15:00 AM 11.76 53.168 0.063 7.62 100.81 10.36
5/4/2022 11:30:00 AM 11.79 53.222 0.064 7.64 43.78 10.49
5/4/2022 11:45:00 AM 11.83 53.294 0.063 7.64 32.05 10.67
5/4/2022 12:00:00 PM 11.85 53.33 0.064 7.68 31.64 10.65
5/4/2022 12:15:00 PM 11.89 53.402 0.064 7.7 41.52 10.64
5/4/2022 12:30:00 PM 11.93 53.474 0.064 7.7 25.25 10.8
5/4/2022 12:45:00 PM 11.98 53.564 0.064 7.78 22.27 10.89
5/4/2022 1:00:00 PM 12.03 53.654 0.064 7.69 41.21 10.96
5/4/2022 1:15:00 PM 12.08 53.744 0.064 7.7 28.72 10.99
5/4/2022 1:30:00 PM 12.14 53.852 0.064 7.73 49.25 10.89
5/4/2022 1:45:00 PM 12.2 53.96 0.064 7.65 90.95 10.98
5/4/2022 2:00:00 PM 12.27 54.086 0.064 7.7 39.44 11.17
5/4/2022 2:15:00 PM 12.34 54.212 0.064 7.72 52.64 11.12
5/4/2022 2:30:00 PM 12.42 54.356 0.064 7.77 32.84 11.08
5/4/2022 2:45:00 PM 12.5 54.5 0.064 7.79 34.02 11.26
5/4/2022 3:00:00 PM 12.55 54.59 0.064 7.67 142.28 11.23
5/4/2022 3:15:00 PM 12.61 54.698 0.064 7.8 68.44 11.32
5/4/2022 3:30:00 PM 12.67 54.806 0.064 7.93 51.59 11.17
5/4/2022 3:45:00 PM 12.74 54.932 0.064 7.78 32.99 11.4
5/4/2022 4:00:00 PM 12.77 54.986 0.064 7.74 46.77 11.41
5/4/2022 4:15:00 PM 12.78 55.004 0.064 8.1 103.78 11.42
5/4/2022 4:30:00 PM 12.8 55.04 0.064 7.7 86.24 11.29
5/4/2022 4:45:00 PM 12.81 55.058 0.064 7.76 44.69 11.38
5/4/2022 5:00:00 PM 12.84 55.112 0.064 7.75 61.84 11.46
5/4/2022 5:15:00 PM 12.87 55.166 0.061 7.82 51.11 11.5
5/4/2022 5:30:00 PM 12.87 55.166 0.064 7.82 36.8 11.34
5/4/2022 5:45:00 PM 12.87 55.166 0.064 7.81 39.06 11.47
5/4/2022 6:00:00 PM 12.86 55.148 0.064 7.8 42.14 11.45
5/4/2022 6:15:00 PM 12.84 55.112 0.065 8.16 110.74 11.31
5/4/2022 6:30:00 PM 12.82 55.076 0.065 7.7 100.73 11.33
5/4/2022 6:45:00 PM 12.79 55.022 0.065 7.76 54.89 11.33
5/4/2022 7:00:00 PM 12.75 54.95 0.065 7.75 74.5 11.31
5/4/2022 7:15:00 PM 12.69 54.842 0.064 7.75 52.53 11.21
5/4/2022 7:30:00 PM 12.65 54.77 0.064 7.75 60.17 11.14
5/4/2022 7:45:00 PM 12.63 54.734 0.064 7.81 42.37 11.14
5/4/2022 8:00:00 PM 12.62 54.716 0.064 7.77 45.32 11.04
5/4/2022 8:15:00 PM 12.61 54.698 0.065 7.8 32.01 10.93
5/4/2022 8:30:00 PM 12.57 54.626 0.065 7.69 37.61 10.81
5/4/2022 8:45:00 PM 12.55 54.59 0.065 7.82 72.95 10.73
5/4/2022 9:00:00 PM 12.54 54.572 0.065 7.82 146.08 10.55
5/4/2022 9:15:00 PM 12.5 54.5 0.065 7.71 46.79 10.51
5/4/2022 9:30:00 PM 12.48 54.464 0.065 7.71 48.75 10.48
5/4/2022 9:45:00 PM 12.46 54.428 0.064 7.71 35.24 10.48
5/4/2022 10:00:00 PM 12.43 54.374 0.065 7.75 42.94 10.32
5/4/2022 10:15:00 PM 12.41 54.338 0.064 8.18 119.61 10.17
5/4/2022 10:30:00 PM 12.38 54.284 0.064 7.64 99.37 10.08
5/4/2022 10:45:00 PM 12.36 54.248 0.065 7.68 207.09 10.05
5/4/2022 11:00:00 PM 12.34 54.212 0.065 7.67 88.99 10.14
5/4/2022 11:15:00 PM 12.32 54.176 0.064 7.76 24.63 9.95
5/4/2022 11:30:00 PM 12.29 54.122 0.064 7.66 67.54 10.1
5/4/2022 11:45:00 PM 12.26 54.068 0.064 7.63 85.71 10.02
5/5/2022 12:00:00 AM 12.24 54.032 0.064 7.6 31.76 10.03
5/5/2022 12:15:00 AM 12.21 53.978 0.064 7.61 57.47 10.1
5/5/2022 12:30:00 AM 12.19 53.942 0.064 7.63 35.53 10.08
5/5/2022 12:45:00 AM 12.16 53.888 0.064 7.62 43.33 10.06
5/5/2022 1:00:00 AM 12.15 53.87 0.064 7.77 64.66 9.95
5/5/2022 1:15:00 AM 12.14 53.852 0.064 7.59 85.4 10.08
5/5/2022 1:30:00 AM 12.12 53.816 0.064 7.61 80.4 9.81
5/5/2022 1:45:00 AM 12.11 53.798 0.063 7.61 63.74 9.96
5/5/2022 2:00:00 AM 12.09 53.762 0.063 7.61 36 10.07
5/5/2022 2:15:00 AM 12.07 53.726 0.063 7.55 32.51 9.93
5/5/2022 2:30:00 AM 12.05 53.69 0.063 7.51 30.7 9.94
5/5/2022 2:45:00 AM 12.03 53.654 0.062 7.56 132.47 9.78
5/5/2022 3:00:00 AM 12 53.6 0.062 7.55 112.25 9.87
5/5/2022 3:15:00 AM 11.96 53.528 0.061 7.53 58.19 10.01
5/5/2022 3:30:00 AM 11.94 53.492 0.061 7.58 47.97 9.95
5/5/2022 3:45:00 AM 11.92 53.456 0.061 7.56 52.07 10.01
5/5/2022 4:00:00 AM 11.91 53.438 0.061 7.57 37.46 9.96
5/5/2022 4:15:00 AM 11.89 53.402 0.061 7.54 34.93 9.86
5/5/2022 4:30:00 AM 11.87 53.366 0.062 7.55 45.3 9.87
5/5/2022 4:45:00 AM 11.84 53.312 0.062 7.69 160.19 9.91
5/5/2022 5:00:00 AM 11.82 53.276 0.062 7.56 171.47 9.67
5/5/2022 5:15:00 AM 11.8 53.24 0.062 7.61 55.41 9.83
5/5/2022 5:30:00 AM 11.78 53.204 0.062 7.59 75.65 9.74
5/5/2022 5:45:00 AM 11.75 53.15 0.062 7.56 71.65 9.74
5/5/2022 6:00:00 AM 11.71 53.078 0.062 7.57 52.21 9.74
5/5/2022 6:15:00 AM 11.67 53.006 0.062 7.59 39.99 9.83
5/5/2022 6:30:00 AM 11.63 52.934 0.062 7.59 35.67 9.93
5/5/2022 6:45:00 AM 11.6 52.88 0.062 7.6 35.53 9.91
5/5/2022 7:00:00 AM 11.56 52.808 0.062 7.6 53.88 9.88
5/5/2022 7:15:00 AM 11.53 52.754 0.062 7.58 43.36 9.92
5/5/2022 7:30:00 AM 11.51 52.718 0.062 7.68 109.6 9.8
5/5/2022 7:45:00 AM 11.47 52.646 0.062 7.6 101.32 9.99
5/5/2022 8:00:00 AM 11.45 52.61 0.062 7.59 62.62 9.99
5/5/2022 8:15:00 AM 11.46 52.628 0.062 7.6 61.33 9.86
5/5/2022 8:30:00 AM 11.5 52.7 0.062 7.61 58.77 10.14
5/5/2022 8:45:00 AM 11.58 52.844 0.062 7.63 54.11 10.12
5/5/2022 9:00:00 AM 11.71 53.078 0.062 7.64 34.33 10.38
5/5/2022 9:15:00 AM 11.85 53.33 0.062 7.61 31.75 10.45
5/5/2022 9:30:00 AM 11.99 53.582 0.062 7.6 40.44 10.39
5/5/2022 9:45:00 AM 12.14 53.852 0.062 7.67 39.37 10.56
5/5/2022 10:00:00 AM 12.31 54.158 0.062 7.65 37.53 10.62
5/5/2022 10:15:00 AM 12.48 54.464 0.062 7.64 47.61 10.51
5/5/2022 10:30:00 AM 12.66 54.788 0.062 7.63 48.3 10.77
5/5/2022 10:45:00 AM 12.83 55.094 0.062 7.83 130.33 10.66
5/5/2022 11:00:00 AM 13.04 55.472 0.062 7.66 303.08 10.59
5/5/2022 11:15:00 AM 13.24 55.832 0.062 7.65 115.82 10.65
5/5/2022 11:30:00 AM 13.46 56.228 0.063 7.65 62.09 10.79
5/5/2022 11:45:00 AM 13.64 56.552 0.063 7.91 142.7 10.68
5/5/2022 12:00:00 PM 13.86 56.948 0.063 7.64 100.45 10.79
5/5/2022 12:15:00 PM 14.07 57.326 0.063 7.63 64.42 10.89
5/5/2022 12:30:00 PM 14.31 57.758 0.063 7.67 60.66 11.03
5/5/2022 12:45:00 PM 14.52 58.136 0.063 7.67 59.6 11.21
5/5/2022 1:00:00 PM 14.73 58.514 0.063 7.68 40.53 11.12
5/5/2022 1:15:00 PM 14.94 58.892 0.063 7.7 50.12 11.12
5/5/2022 1:30:00 PM 15.13 59.234 0.064 7.68 47.09 11.28
5/5/2022 1:45:00 PM 15.37 59.666 0.064 7.7 52.95 11.02
5/5/2022 2:00:00 PM 15.51 59.918 0.064 8.66 84.27 11.21
5/5/2022 2:15:00 PM 15.66 60.188 0.064 7.67 115.18 11.06
5/5/2022 2:30:00 PM 15.86 60.548 0.064 7.67 61.46 11.29
5/5/2022 2:45:00 PM 15.95 60.71 0.064 8.19 124.36 11.18
5/5/2022 3:00:00 PM 16.05 60.89 0.064 7.71 95.14 11.13
5/5/2022 3:15:00 PM 16.1 60.98 0.064 7.72 47.78 11.16
5/5/2022 3:30:00 PM 16.19 61.142 0.064 7.69 46.9 11.31
5/5/2022 3:45:00 PM 16.17 61.106 0.064 7.68 206.77 11.19
5/5/2022 4:00:00 PM 16.16 61.088 0.064 7.69 63.61 11.11
5/5/2022 4:15:00 PM 16.14 61.052 0.064 7.71 62.06 11.23
5/5/2022 4:30:00 PM 16.17 61.106 0.064 7.7 58.12 11.21
5/5/2022 4:45:00 PM 16.16 61.088 0.064 7.7 46.97 11.16
5/5/2022 5:00:00 PM 16.11 60.998 0.064 7.73 61.74 11.09
5/5/2022 5:15:00 PM 15.98 60.764 0.064 7.71 50.03 11.13
5/5/2022 5:30:00 PM 15.96 60.728 0.064 7.73 39.14 11
5/5/2022 5:45:00 PM 15.94 60.692 0.063 7.74 43.4 11.21
5/5/2022 6:00:00 PM 15.85 60.53 0.063 7.77 49.29 11.08
5/5/2022 6:15:00 PM 15.7 60.26 0.063 7.65 110.73 10.9
5/5/2022 6:30:00 PM 15.62 60.116 0.063 7.69 135.34 10.89
5/5/2022 6:45:00 PM 15.54 59.972 0.063 7.71 88.56 10.68
5/5/2022 7:00:00 PM 15.45 59.81 0.063 7.72 59.21 11.04
5/5/2022 7:15:00 PM 15.34 59.612 0.063 7.7 52 10.79
5/5/2022 7:30:00 PM 15.22 59.396 0.062 7.72 60.02 10.8
5/5/2022 7:45:00 PM 15.11 59.198 0.062 7.74 57.72 10.74
5/5/2022 8:00:00 PM 15 59 0.062 8.07 148.97 10.64
5/5/2022 8:15:00 PM 14.91 58.838 0.062 7.69 141.8 10.59
5/5/2022 8:30:00 PM 14.83 58.694 0.062 7.69 71.75 10.41
5/5/2022 8:45:00 PM 14.77 58.586 0.062 7.66 66.12 10.43
5/5/2022 9:00:00 PM 14.72 58.496 0.062 7.71 43.81 10.31
5/5/2022 9:15:00 PM 14.67 58.406 0.063 7.68 37.55 10.08
5/5/2022 9:30:00 PM 14.62 58.316 0.063 7.66 48.34 10.05
5/5/2022 9:45:00 PM 14.56 58.208 0.063 7.66 42.17 10.04
5/5/2022 10:00:00 PM 14.51 58.118 0.064 7.67 48.21 9.92
5/5/2022 10:15:00 PM 14.45 58.01 0.064 7.66 44.91 9.88
5/5/2022 10:30:00 PM 14.4 57.92 0.064 7.66 48.84 9.7
5/5/2022 10:45:00 PM 14.36 57.848 0.064 7.64 52.84 9.84
5/5/2022 11:00:00 PM 14.32 57.776 0.065 8.58 138.8 9.56
5/5/2022 11:15:00 PM 14.29 57.722 0.064 7.57 145.32 9.48
5/5/2022 11:30:00 PM 14.26 57.668 0.065 7.59 72.22 9.55
5/5/2022 11:45:00 PM 14.23 57.614 0.064 7.57 44.42 9.6
5/6/2022 12:00:00 AM 14.2 57.56 0.065 7.59 53.09 9.51
5/6/2022 12:15:00 AM 14.17 57.506 0.065 7.59 60.52 9.4
5/6/2022 12:30:00 AM 14.14 57.452 0.064 7.58 50.4 9.35
5/6/2022 12:45:00 AM 14.11 57.398 0.064 7.59 51.16 9.43
5/6/2022 1:00:00 AM 14.07 57.326 0.064 7.56 54.05 9.36
5/6/2022 1:15:00 AM 14.03 57.254 0.064 7.56 42.17 9.34
5/6/2022 1:30:00 AM 13.99 57.182 0.064 7.55 64.23 9.18
5/6/2022 1:45:00 AM 13.95 57.11 0.064 7.54 51.46 9.32
5/6/2022 2:00:00 AM 13.93 57.074 0.064 7.55 45.4 9.39
5/6/2022 2:15:00 AM 13.89 57.002 0.064 7.54 47.55 9.28
5/6/2022 2:30:00 AM 13.86 56.948 0.064 7.54 58.6 9.03
5/6/2022 2:45:00 AM 13.84 56.912 0.064 7.53 71.5 9.18
5/6/2022 3:00:00 AM 13.81 56.858 0.064 7.53 71.52 9.19
5/6/2022 3:15:00 AM 13.79 56.822 0.064 7.5 69.22 9.24
5/6/2022 3:30:00 AM 13.77 56.786 0.064 7.49 80.44 9
5/6/2022 3:45:00 AM 13.74 56.732 0.064 7.5 107.43 8.89
5/6/2022 4:00:00 AM 13.71 56.678 0.064 7.5 85.31 8.78
5/6/2022 4:15:00 AM 13.69 56.642 0.064 7.47 115.07 8.76
5/6/2022 4:30:00 AM 13.66 56.588 0.065 7.51 85.27 9.04
5/6/2022 4:45:00 AM 13.64 56.552 0.065 7.5 70.35 9.22
5/6/2022 5:00:00 AM 13.61 56.498 0.065 7.52 74.93 9.2
5/6/2022 5:15:00 AM 13.59 56.462 0.065 7.52 82.97 9.19
5/6/2022 5:30:00 AM 13.58 56.444 0.065 7.51 96.63 9.18
5/6/2022 5:45:00 AM 13.55 56.39 0.065 7.48 88.55 9.12
5/6/2022 6:00:00 AM 13.52 56.336 0.066 7.5 100.21 9.14
5/6/2022 6:15:00 AM 13.5 56.3 0.066 7.52 75.01 8.92
5/6/2022 6:30:00 AM 13.48 56.264 0.066 7.51 77.2 9.02
5/6/2022 6:45:00 AM 13.45 56.21 0.066 7.51 76.11 9.13
5/6/2022 7:00:00 AM 13.43 56.174 0.065 7.5 83.92 9.08
5/6/2022 7:15:00 AM 13.41 56.138 0.066 7.49 78.04 9.11
5/6/2022 7:30:00 AM 13.4 56.12 0.065 7.53 82.9 9.16
5/6/2022 7:45:00 AM 13.39 56.102 0.065 7.47 83.65 8.99
5/6/2022 8:00:00 AM 13.38 56.084 0.065 7.47 95.8 8.9
5/6/2022 8:15:00 AM 13.37 56.066 0.065 7.49 68.89 8.91
5/6/2022 8:30:00 AM 13.36 56.048 0.065 7.48 89.58 9.08
5/6/2022 8:45:00 AM 13.36 56.048 0.065 7.47 72.19 9.01
5/6/2022 9:00:00 AM 13.36 56.048 0.065 7.48 79.98 9.14
5/6/2022 9:15:00 AM 13.37 56.066 0.065 7.49 79.88 9.27
5/6/2022 9:30:00 AM 13.38 56.084 0.065 7.53 75.46 9.21
5/6/2022 9:45:00 AM 13.39 56.102 0.065 7.49 92.39 9.55
5/6/2022 10:00:00 AM 13.4 56.12 0.065 7.52 83.38 9.5
5/6/2022 10:15:00 AM 13.4 56.12 0.065 7.53 88.4 9.67
5/6/2022 10:30:00 AM 13.41 56.138 0.065 7.51 67.1 9.74
5/6/2022 10:45:00 AM 13.43 56.174 0.064 7.52 102.22 9.75
5/6/2022 11:00:00 AM 13.46 56.228 0.065 7.53 99.45 9.76
5/6/2022 11:15:00 AM 13.47 56.246 0.064 7.53 82.56 9.9
5/6/2022 11:30:00 AM 13.5 56.3 0.065 7.53 92.77 10.16
5/6/2022 11:45:00 AM 13.52 56.336 0.065 7.57 59.6 10.11
5/6/2022 12:00:00 PM 13.53 56.354 0.065 7.78 187.16 9.78
5/6/2022 12:15:00 PM 13.54 56.372 0.065 7.61 145.33 9.87
5/6/2022 12:30:00 PM 13.55 56.39 0.065 7.57 84.94 10
5/6/2022 12:45:00 PM 13.57 56.426 0.065 7.56 103.79 10.2
5/6/2022 1:00:00 PM 13.58 56.444 0.064 7.58 92.55 10.37
5/6/2022 1:15:00 PM 13.61 56.498 0.065 7.62 193.08 10.29
5/6/2022 1:30:00 PM 13.63 56.534 0.064 7.55 130.68 10.19
5/6/2022 1:45:00 PM 13.64 56.552 0.064 7.56 87.55 9.98
5/6/2022 2:00:00 PM 13.66 56.588 0.064 7.55 87.75 10.34
5/6/2022 2:15:00 PM 13.67 56.606 0.064 7.6 72.86 10.4
5/6/2022 2:30:00 PM 13.69 56.642 0.064 7.59 69.25 10.52
5/6/2022 2:45:00 PM 13.71 56.678 0.065 7.61 74.98 10.51
5/6/2022 3:00:00 PM 13.71 56.678 0.065 7.63 83.4 10.41
5/6/2022 3:15:00 PM 13.7 56.66 0.065 7.59 76.16 10.37
5/6/2022 3:30:00 PM 13.68 56.624 0.064 7.64 74.38 10.58
5/6/2022 3:45:00 PM 13.65 56.57 0.064 7.63 95.63 10.57
5/6/2022 4:00:00 PM 13.61 56.498 0.064 7.64 71.1 10.36
5/6/2022 4:15:00 PM 13.57 56.426 0.064 7.63 52.34 10.43
5/6/2022 4:30:00 PM 13.52 56.336 0.064 7.68 59.8 10.65
5/6/2022 4:45:00 PM 13.49 56.282 0.064 7.61 67.27 10.57
5/6/2022 5:00:00 PM 13.47 56.246 0.064 7.59 59.5 10.36
5/6/2022 5:15:00 PM 13.45 56.21 0.064 7.61 68.85 10.48
5/6/2022 5:30:00 PM 13.44 56.192 0.064 7.6 79.29 10.24
5/6/2022 5:45:00 PM 13.43 56.174 0.064 7.56 249.42 10.34
5/6/2022 6:00:00 PM 13.41 56.138 0.064 7.57 165.42 10.09
5/6/2022 6:15:00 PM 13.39 56.102 0.064 7.59 121.82 10.28
5/6/2022 6:30:00 PM 13.37 56.066 0.064 7.57 131.12 10.08
5/6/2022 6:45:00 PM 13.33 55.994 0.065 7.58 120.17 10.2
5/6/2022 7:00:00 PM 13.28 55.904 0.065 7.57 104.7 10.07
5/6/2022 7:15:00 PM 13.23 55.814 0.065 7.57 102.49 10.23
5/6/2022 7:30:00 PM 13.19 55.742 0.065 7.58 110.22 10.15
5/6/2022 7:45:00 PM 13.14 55.652 0.065 7.58 88.68 10.21
5/6/2022 8:00:00 PM 13.08 55.544 0.065 7.56 98.65 10.04
5/6/2022 8:15:00 PM 13.04 55.472 0.065 7.54 95.12 10
5/6/2022 8:30:00 PM 13 55.4 0.066 7.57 99.29 9.96
5/6/2022 8:45:00 PM 12.96 55.328 0.066 7.58 282.25 9.85
5/6/2022 9:00:00 PM 12.91 55.238 0.066 7.53 179.13 9.66
5/6/2022 9:15:00 PM 12.87 55.166 0.066 7.53 106.16 9.56
5/6/2022 9:30:00 PM 12.86 55.148 0.066 7.53 101.95 9.45
5/6/2022 9:45:00 PM 12.82 55.076 0.066 7.53 105.33 9.61
5/6/2022 10:00:00 PM 12.79 55.022 0.066 7.53 101.61 9.28
5/6/2022 10:15:00 PM 12.77 54.986 0.067 7.54 88.45 9.32
5/6/2022 10:30:00 PM 12.75 54.95 0.067 7.52 91.29 9.17
5/6/2022 10:45:00 PM 12.72 54.896 0.067 7.53 122.29 9.31
5/6/2022 11:00:00 PM 12.69 54.842 0.067 7.51 116.98 9.22
5/6/2022 11:15:00 PM 12.66 54.788 0.067 7.51 111.32 9.21
5/6/2022 11:30:00 PM 12.65 54.77 0.067 7.5 104.31 9.14
5/6/2022 11:45:00 PM 12.62 54.716 0.067 7.5 80.36 9.19
5/7/2022 12:00:00 AM 12.6 54.68 0.067 7.49 97.31 9.17
5/7/2022 12:15:00 AM 12.57 54.626 0.067 7.48 88.83 9.25
5/7/2022 12:30:00 AM 12.55 54.59 0.067 7.48 127.67 9.25
5/7/2022 12:45:00 AM 12.52 54.536 0.067 7.47 125.46 9.22
5/7/2022 1:00:00 AM 12.5 54.5 0.067 7.46 87.34 9.28
5/7/2022 1:15:00 AM 12.47 54.446 0.067 7.52 112.44 9.17
5/7/2022 1:30:00 AM 12.45 54.41 0.067 7.39 110.18 9.23
5/7/2022 1:45:00 AM 12.44 54.392 0.067 7.45 94.61 9.26
5/7/2022 2:00:00 AM 12.41 54.338 0.067 7.46 77.6 9.09
5/7/2022 2:15:00 AM 12.38 54.284 0.067 7.46 75.51 9.06
5/7/2022 2:30:00 AM 12.36 54.248 0.067 7.46 80.96 8.85
5/7/2022 2:45:00 AM 12.33 54.194 0.067 7.47 105.98 9.1
5/7/2022 3:00:00 AM 12.3 54.14 0.067 7.46 110.59 9.03
5/7/2022 3:15:00 AM 12.26 54.068 0.067 7.46 85.62 9.08
5/7/2022 3:30:00 AM 12.24 54.032 0.068 7.47 99.46 8.92
5/7/2022 3:45:00 AM 12.19 53.942 0.067 7.44 93.79 8.92
5/7/2022 4:00:00 AM 12.16 53.888 0.067 7.46 87.71 9.13
5/7/2022 4:15:00 AM 12.13 53.834 0.068 7.45 77.28 9.1
5/7/2022 4:30:00 AM 12.11 53.798 0.068 7.45 94.52 8.88
5/7/2022 4:45:00 AM 12.06 53.708 0.068 7.44 101.49 8.89
5/7/2022 5:00:00 AM 12.02 53.636 0.067 7.41 99.87 8.79
5/7/2022 5:15:00 AM 11.98 53.564 0.067 7.42 116.11 9.05
5/7/2022 5:30:00 AM 11.94 53.492 0.067 7.41 107.72 9
5/7/2022 5:45:00 AM 11.92 53.456 0.068 7.41 107.13 9.02
5/7/2022 6:00:00 AM 11.92 53.456 0.068 7.41 119.53 9.07
5/7/2022 6:15:00 AM 11.92 53.456 0.068 7.38 95.42 9.21
5/7/2022 6:30:00 AM 11.92 53.456 0.068 7.44 88.12 9.16
5/7/2022 6:45:00 AM 11.93 53.474 0.068 7.39 102.15 8.86
5/7/2022 7:00:00 AM 11.94 53.492 0.068 7.38 124.28 9.06
5/7/2022 7:15:00 AM 11.95 53.51 0.068 7.44 94.73 8.8
5/7/2022 7:30:00 AM 11.94 53.492 0.068 7.39 95.52 9.1
5/7/2022 7:45:00 AM 11.93 53.474 0.068 7.43 107.03 9.15
5/7/2022 8:00:00 AM 11.91 53.438 0.068 7.42 100 9.15
5/7/2022 8:15:00 AM 11.9 53.42 0.068 7.42 106.3 9.07
5/7/2022 8:30:00 AM 11.9 53.42 0.068 7.42 112.86 9.17
5/7/2022 8:45:00 AM 11.89 53.402 0.068 7.4 117.7 9.23
5/7/2022 9:00:00 AM 11.88 53.384 0.068 7.41 96.45 9.3
5/7/2022 9:15:00 AM 11.87 53.366 0.068 7.43 104.7 9.4
5/7/2022 9:30:00 AM 11.88 53.384 0.068 7.46 113.48 9.5
5/7/2022 9:45:00 AM 11.92 53.456 0.068 7.46 94.45 9.57
5/7/2022 10:00:00 AM 11.94 53.492 0.067 7.46 112.61 9.78
5/7/2022 10:15:00 AM 11.96 53.528 0.067 7.47 108.11 9.83
5/7/2022 10:30:00 AM 11.96 53.528 0.067 7.52 74.62 9.97
5/7/2022 10:45:00 AM 11.95 53.51 0.067 7.53 83.94 9.97
5/7/2022 11:00:00 AM 11.94 53.492 0.067 7.52 86.22 10.06
5/7/2022 11:15:00 AM 11.93 53.474 0.067 7.51 108.55 10.31
5/7/2022 11:30:00 AM 11.93 53.474 0.067 7.59 73.45 10.33
5/7/2022 11:45:00 AM 11.94 53.492 0.066 7.51 90.93 10.3
5/7/2022 12:00:00 PM 11.95 53.51 0.066 7.59 76.38 10.51
5/7/2022 12:15:00 PM 11.96 53.528 0.066 7.66 74.34 10.57
5/7/2022 12:30:00 PM 12.01 53.618 0.066 7.58 97.05 10.66
5/7/2022 12:45:00 PM 12.03 53.654 0.066